Provisional Data: Loyalsock Creek near Ringdale, PA


Please select a monitoring station.
Please select start date.
Please select start date.

Toggle Unit: C/F Toggle Unit: C/F
Sample Time Temperature (C) Temperature (F) Specific Conductivity (mS/cm) pH   Turbidity (NTU+) DO (mg/L)
6/22/2021 12:00:00 AM -99999.99 -179968 -99999.99 -99999.99 -99999.99 -99999.99
6/22/2021 12:15:00 AM -99999.99 -179968 -99999.99 -99999.99 -99999.99 -99999.99
6/22/2021 12:30:00 AM -99999.99 -179968 -99999.99 -99999.99 -99999.99 -99999.99
6/22/2021 12:45:00 AM -99999.99 -179968 -99999.99 -99999.99 -99999.99 -99999.99
6/22/2021 1:00:00 AM -99999.99 -179968 -99999.99 -99999.99 -99999.99 -99999.99
6/22/2021 1:15:00 AM -99999.99 -179968 -99999.99 -99999.99 -99999.99 -99999.99
6/22/2021 1:30:00 AM -99999.99 -179968 -99999.99 -99999.99 -99999.99 -99999.99
6/22/2021 1:45:00 AM -99999.99 -179968 -99999.99 -99999.99 -99999.99 -99999.99
6/22/2021 2:00:00 AM 19.58 67.244 0.028 6.6 13.62 8.03
6/22/2021 2:15:00 AM 19.54 67.172 0.028 6.6 11.75 8.04
6/22/2021 2:30:00 AM 19.5 67.1 0.028 6.6 11.92 8.05
6/22/2021 2:45:00 AM 19.47 67.046 0.028 6.61 11.73 8.06
6/22/2021 3:00:00 AM 19.44 66.992 0.027 6.62 11.18 8.07
6/22/2021 3:15:00 AM 19.4 66.92 0.027 6.62 11 8.07
6/22/2021 3:30:00 AM 19.36 66.848 0.027 6.62 10.1 8.08
6/22/2021 3:45:00 AM 19.31 66.758 0.027 6.62 10.05 8.09
6/22/2021 4:00:00 AM 19.26 66.668 0.027 6.62 9.22 8.11
6/22/2021 4:15:00 AM 19.19 66.542 0.027 6.62 8.63 8.11
6/22/2021 4:30:00 AM 19.12 66.416 0.027 6.62 8.71 8.12
6/22/2021 4:45:00 AM 19.05 66.29 0.027 6.62 8.78 8.15
6/22/2021 5:00:00 AM 18.97 66.146 0.027 6.62 8.44 8.15
6/22/2021 5:15:00 AM 18.88 65.984 0.027 6.62 8.26 8.18
6/22/2021 5:30:00 AM 18.79 65.82201 0.027 6.61 8.67 8.19
6/22/2021 5:45:00 AM 18.71 65.67799 0.027 6.62 7.64 8.22
6/22/2021 6:00:00 AM 18.64 65.552 0.027 6.62 8.23 8.23
6/22/2021 6:15:00 AM 18.57 65.426 0.027 6.62 8.04 8.25
6/22/2021 6:30:00 AM 18.5 65.3 0.027 6.62 8.97 8.26
6/22/2021 6:45:00 AM 18.44 65.192 0.027 6.63 9.47 8.28
6/22/2021 7:00:00 AM 18.39 65.102 0.027 6.64 10.05 8.31
6/22/2021 7:15:00 AM 18.34 65.012 0.027 6.65 11.15 8.32
6/22/2021 7:30:00 AM 18.27 64.886 0.028 6.65 11.85 8.34
6/22/2021 7:45:00 AM 18.22 64.796 0.027 6.67 11.87 8.35
6/22/2021 8:00:00 AM 18.16 64.688 0.028 6.66 11.34 8.37
6/22/2021 8:15:00 AM 18.1 64.58 0.028 6.67 12.55 8.39
6/22/2021 8:30:00 AM 18.04 64.472 0.028 6.67 11.44 8.41
6/22/2021 8:45:00 AM 18.01 64.418 0.028 6.68 11.37 8.45
6/22/2021 9:00:00 AM 17.97 64.346 0.028 6.68 11.19 8.47
6/22/2021 9:15:00 AM 17.93 64.274 0.027 6.69 11.17 8.5
6/22/2021 9:30:00 AM 17.91 64.238 0.027 6.69 11.08 8.53
6/22/2021 9:45:00 AM 17.88 64.184 0.028 6.69 11.23 8.54
6/22/2021 10:00:00 AM 17.84 64.112 0.027 6.69 12.47 8.55
6/22/2021 10:15:00 AM 17.8 64.04 0.027 6.69 13.19 8.55
6/22/2021 10:30:00 AM 17.77 63.986 0.027 6.69 14.37 8.57
6/22/2021 10:45:00 AM 17.76 63.968 0.027 6.7 13.7 8.6
6/22/2021 11:00:00 AM 17.76 63.968 0.027 6.71 14.07 8.63
6/22/2021 11:15:00 AM 17.76 63.968 0.027 6.71 12.93 8.65
6/22/2021 11:30:00 AM 17.74 63.932 0.026 6.71 12.74 8.66
6/22/2021 11:45:00 AM 17.73 63.914 0.026 6.71 12.18 8.67
6/22/2021 12:00:00 PM 17.72 63.896 0.026 6.71 11.47 8.69
6/22/2021 12:15:00 PM 17.74 63.932 0.026 6.71 11.24 8.72
6/22/2021 12:30:00 PM 17.74 63.932 0.026 6.71 10.46 8.71
6/22/2021 12:45:00 PM 17.7 63.86 0.025 6.7 10.93 8.7
6/22/2021 1:00:00 PM 17.67 63.806 0.025 6.7 9.92 8.7
6/22/2021 1:15:00 PM 17.66 63.788 0.025 6.69 9.12 8.71
6/22/2021 1:30:00 PM 17.66 63.788 0.025 6.69 9.57 8.72
6/22/2021 1:45:00 PM 17.66 63.788 0.025 6.69 9.15 8.73
6/22/2021 2:00:00 PM 17.63 63.734 0.025 6.68 8.87 8.71
6/22/2021 2:15:00 PM 17.6 63.68 0.024 6.67 9.01 8.71
6/22/2021 2:30:00 PM 17.57 63.626 0.024 6.66 8.52 8.7
6/22/2021 2:45:00 PM 17.54 63.572 0.024 6.66 8.99 8.71
6/22/2021 3:00:00 PM 17.52 63.536 0.024 6.66 9.31 8.72
6/22/2021 3:15:00 PM 17.49 63.482 0.024 6.65 9.16 8.73
6/22/2021 3:30:00 PM 17.45 63.41 0.024 6.65 8.54 8.73
6/22/2021 3:45:00 PM 17.4 63.32 0.024 6.64 8.33 8.73
6/22/2021 4:00:00 PM 17.35 63.23 0.023 6.63 8.89 8.73
6/22/2021 4:15:00 PM 17.31 63.158 0.023 6.63 8.59 8.74
6/22/2021 4:30:00 PM 17.29 63.122 0.023 6.62 8.12 8.72
6/22/2021 4:45:00 PM 17.3 63.14 0.023 6.63 7.56 8.78
6/22/2021 5:00:00 PM 17.29 63.122 0.023 6.63 7.16 8.79
6/22/2021 5:15:00 PM 17.28 63.104 0.023 6.63 7.02 8.81
6/22/2021 5:30:00 PM 17.29 63.122 0.023 6.63 6.76 8.82
6/22/2021 5:45:00 PM 17.25 63.05 0.023 6.63 6.92 8.79
6/22/2021 6:00:00 PM 17.23 63.014 0.023 6.63 6.79 8.8
6/22/2021 6:15:00 PM 17.23 63.014 0.023 6.63 6.79 8.81
6/22/2021 6:30:00 PM 17.17 62.906 0.023 6.62 6.69 8.8
6/22/2021 6:45:00 PM 17.11 62.798 0.023 6.62 6.82 8.78
6/22/2021 7:00:00 PM 17.05 62.69 0.023 6.61 6.7 8.77
6/22/2021 7:15:00 PM 17.02 62.636 0.023 6.61 6.8 8.78
6/22/2021 7:30:00 PM 16.97 62.546 0.023 6.6 6.82 8.76
6/22/2021 7:45:00 PM 16.93 62.474 0.022 6.59 6.56 8.76
6/22/2021 8:00:00 PM 16.88 62.384 0.022 6.59 6.23 8.76
6/22/2021 8:15:00 PM 16.83 62.294 0.022 6.58 6.69 8.75
6/22/2021 8:30:00 PM 16.77 62.186 0.022 6.57 6.31 8.75
6/22/2021 8:45:00 PM 16.7 62.06 0.022 6.57 6.21 8.75
6/22/2021 9:00:00 PM 16.63 61.934 0.022 6.56 6.38 8.74
6/22/2021 9:15:00 PM 16.56 61.808 0.022 6.55 6.26 8.74
6/22/2021 9:30:00 PM 16.5 61.7 0.022 6.55 6.12 8.75
6/22/2021 9:45:00 PM 16.43 61.574 0.022 6.54 6.2 8.75
6/22/2021 10:00:00 PM 16.36 61.448 0.022 6.54 6.14 8.77
6/22/2021 10:15:00 PM 16.3 61.34 0.022 6.53 5.79 8.78
6/22/2021 10:30:00 PM 16.23 61.214 0.022 6.53 6.88 8.79
6/22/2021 10:45:00 PM 16.18 61.124 0.022 6.52 6.36 8.8
6/22/2021 11:00:00 PM 16.13 61.034 0.022 6.52 5.73 8.81
6/22/2021 11:15:00 PM 16.08 60.944 0.022 6.52 5.79 8.82
6/22/2021 11:30:00 PM 16.02 60.836 0.022 6.52 5.84 8.83
6/22/2021 11:45:00 PM 15.96 60.728 0.022 6.52 5.45 8.85
6/23/2021 12:00:00 AM 15.89 60.602 0.022 6.51 5.67 8.86
6/23/2021 12:15:00 AM 15.83 60.494 0.022 6.51 5.65 8.88
6/23/2021 12:30:00 AM 15.77 60.386 0.022 6.5 5.56 8.87
6/23/2021 12:45:00 AM 15.71 60.278 0.022 6.5 5.6 8.89
6/23/2021 1:00:00 AM 15.64 60.152 0.022 6.5 5.58 8.9
6/23/2021 1:15:00 AM 15.59 60.062 0.022 6.5 5.92 8.91
6/23/2021 1:30:00 AM 15.54 59.972 0.022 6.5 5.71 8.93
6/23/2021 1:45:00 AM 15.47 59.846 0.022 6.5 5.75 8.94
6/23/2021 2:00:00 AM 15.4 59.72 0.022 6.49 5.51 8.95
6/23/2021 2:15:00 AM 15.33 59.594 0.022 6.5 5.37 8.97
6/23/2021 2:30:00 AM 15.26 59.468 0.022 6.49 5.13 8.98
6/23/2021 2:45:00 AM 15.19 59.342 0.022 6.49 4.93 9
6/23/2021 3:00:00 AM 15.11 59.198 0.022 6.49 5.08 9.01
6/23/2021 3:15:00 AM 15.04 59.072 0.022 6.49 5.31 9.03
6/23/2021 3:30:00 AM 14.96 58.928 0.022 6.49 5.22 9.05
6/23/2021 3:45:00 AM 14.88 58.784 0.022 6.49 4.87 9.07
6/23/2021 4:00:00 AM 14.81 58.658 0.022 6.49 5.06 9.08
6/23/2021 4:15:00 AM 14.73 58.514 0.022 6.48 5.14 9.1
6/23/2021 4:30:00 AM 14.64 58.352 0.022 6.48 4.95 9.12
6/23/2021 4:45:00 AM 14.54 58.172 0.022 6.48 4.96 9.14
6/23/2021 5:00:00 AM 14.43 57.974 0.022 6.48 5.11 9.17
6/23/2021 5:15:00 AM 14.31 57.758 0.022 6.48 4.85 9.2
6/23/2021 5:30:00 AM 14.18 57.524 0.022 6.48 4.85 9.24
6/23/2021 5:45:00 AM 14.07 57.326 0.022 6.48 4.79 9.27
6/23/2021 6:00:00 AM 13.99 57.182 0.022 6.48 4.73 9.3
6/23/2021 6:15:00 AM 13.91 57.038 0.022 6.48 4.83 9.32
6/23/2021 6:30:00 AM 13.85 56.93 0.022 6.49 4.88 9.36
6/23/2021 6:45:00 AM 13.78 56.804 0.022 6.48 4.71 9.38
6/23/2021 7:00:00 AM 13.73 56.714 0.022 6.49 4.8 9.42
6/23/2021 7:15:00 AM 13.7 56.66 0.021 6.5 4.77 9.45
6/23/2021 7:30:00 AM 13.68 56.624 0.022 6.5 4.87 9.49
6/23/2021 7:45:00 AM 13.71 56.678 0.022 6.51 4.51 9.51
6/23/2021 8:00:00 AM 13.74 56.732 0.022 6.51 4.52 9.53
6/23/2021 8:15:00 AM 13.79 56.822 0.021 6.52 4.52 9.54
6/23/2021 8:30:00 AM 13.85 56.93 0.022 6.52 4.54 9.56
6/23/2021 8:45:00 AM 13.93 57.074 0.021 6.53 4.36 9.56
6/23/2021 9:00:00 AM 14.02 57.236 0.021 6.54 4.54 9.57
6/23/2021 9:15:00 AM 14.13 57.434 0.021 6.54 4.51 9.58
6/23/2021 9:30:00 AM 14.23 57.614 0.022 6.55 6.86 9.57
6/23/2021 9:45:00 AM 14.35 57.83 0.022 6.55 4.39 9.57
6/23/2021 10:00:00 AM 14.4 57.92 0.022 6.56 4.42 9.56
6/23/2021 10:15:00 AM 14.5 58.1 0.021 6.56 4.21 9.55
6/23/2021 10:30:00 AM 14.69 58.442 0.022 6.57 4.12 9.55
6/23/2021 10:45:00 AM 14.89 58.802 0.021 6.58 4.29 9.54
6/23/2021 11:00:00 AM 15.05 59.09 0.021 6.58 4.5 9.51
6/23/2021 11:15:00 AM 15.23 59.414 0.021 6.59 4.13 9.48
6/23/2021 11:30:00 AM 15.46 59.828 0.022 6.59 4.16 9.45
6/23/2021 11:45:00 AM 15.63 60.134 0.021 6.6 4.2 9.44
6/23/2021 12:00:00 PM 15.76 60.368 0.022 6.59 4.06 9.41
6/23/2021 12:15:00 PM 15.92 60.656 0.021 6.6 4.3 9.39
6/23/2021 12:30:00 PM 16.1 60.98 0.021 6.61 7.39 9.36
6/23/2021 12:45:00 PM 16.3 61.34 0.021 6.61 4.13 9.33
6/23/2021 1:00:00 PM 16.47 61.646 0.021 6.61 4.24 9.3
6/23/2021 1:15:00 PM 16.67 62.006 0.021 6.62 4.25 9.26
6/23/2021 1:30:00 PM 16.81 62.258 0.022 6.6 4.14 9.23
6/23/2021 1:45:00 PM 16.93 62.474 0.021 6.62 4.04 9.22
6/23/2021 2:00:00 PM 17.01 62.618 0.022 6.62 4 9.18
6/23/2021 2:15:00 PM 17.07 62.726 0.021 6.63 4.12 9.16
6/23/2021 2:30:00 PM 17.16 62.888 0.022 6.62 3.99 9.13
6/23/2021 2:45:00 PM 17.32 63.176 0.021 6.63 3.85 9.13
6/23/2021 3:00:00 PM 17.5 63.5 0.022 6.63 3.93 9.1
6/23/2021 3:15:00 PM 17.7 63.86 0.021 6.63 3.86 9.09
6/23/2021 3:30:00 PM 17.8 64.04 0.022 6.65 4.19 9.08
6/23/2021 3:45:00 PM 17.89 64.202 0.022 6.65 4.1 9.05
6/23/2021 4:00:00 PM 17.99 64.382 0.022 6.65 3.82 9.04
6/23/2021 4:15:00 PM 17.99 64.382 0.022 6.63 3.98 9
6/23/2021 4:30:00 PM 18.03 64.454 0.022 6.65 4.31 8.99
6/23/2021 4:45:00 PM 17.92 64.256 0.022 6.64 4.01 8.96
6/23/2021 5:00:00 PM 17.89 64.202 0.022 6.63 3.81 8.96
6/23/2021 5:15:00 PM 17.89 64.202 0.022 6.64 3.98 8.96
6/23/2021 5:30:00 PM 17.86 64.148 0.022 6.64 3.84 8.96
6/23/2021 5:45:00 PM 17.81 64.058 0.022 6.64 4 8.96
6/23/2021 6:00:00 PM 17.75 63.95 0.022 6.64 3.97 8.95
6/23/2021 6:15:00 PM 17.65 63.77 0.022 6.63 3.96 8.93
6/23/2021 6:30:00 PM 17.51 63.518 0.022 6.62 3.94 8.91
6/23/2021 6:45:00 PM 17.36 63.248 0.022 6.62 3.78 8.89
6/23/2021 7:00:00 PM 17.27 63.086 0.022 6.6 4 8.88
6/23/2021 7:15:00 PM 17.21 62.978 0.022 6.58 3.99 8.88
6/23/2021 7:30:00 PM 17.11 62.798 0.022 6.59 3.84 8.87
6/23/2021 7:45:00 PM 17.03 62.654 0.022 6.59 4.08 8.87
6/23/2021 8:00:00 PM 16.93 62.474 0.022 6.57 3.81 8.84
6/23/2021 8:15:00 PM 16.8 62.24 0.022 6.57 3.86 8.84
6/23/2021 8:30:00 PM 16.67 62.006 0.022 6.57 4 8.83
6/23/2021 8:45:00 PM 16.55 61.79 0.022 6.57 3.89 8.84
6/23/2021 9:00:00 PM 16.45 61.61 0.023 6.55 3.89 8.83
6/23/2021 9:15:00 PM 16.33 61.394 0.022 6.55 4.04 8.84
6/23/2021 9:30:00 PM 16.24 61.232 0.022 6.55 4.05 8.83
6/23/2021 9:45:00 PM 16.16 61.088 0.022 6.55 4.18 8.85
6/23/2021 10:00:00 PM 16.07 60.926 0.022 6.54 3.84 8.86
6/23/2021 10:15:00 PM 15.99 60.782 0.023 6.53 3.8 8.85
6/23/2021 10:30:00 PM 15.9 60.62 0.023 6.54 3.94 8.89
6/23/2021 10:45:00 PM 15.82 60.476 0.023 6.53 3.83 8.89
6/23/2021 11:00:00 PM 15.73 60.314 0.023 6.54 4.06 8.92
6/23/2021 11:15:00 PM 15.66 60.188 0.023 6.52 3.9 8.92
6/23/2021 11:30:00 PM 15.57 60.026 0.023 6.52 3.89 8.94
6/23/2021 11:45:00 PM 15.49 59.882 0.023 6.53 3.62 8.96
6/24/2021 12:00:00 AM 15.41 59.738 0.023 6.53 4.33 8.97
6/24/2021 12:15:00 AM 15.33 59.594 0.023 6.53 3.82 8.99
6/24/2021 12:30:00 AM 15.25 59.45 0.023 6.51 4.15 9
6/24/2021 12:45:00 AM 15.17 59.306 0.023 6.52 3.77 9.02
6/24/2021 1:00:00 AM 15.09 59.162 0.023 6.51 3.96 9.04
6/24/2021 1:15:00 AM 15.01 59.018 0.023 6.51 4.03 9.05
6/24/2021 1:30:00 AM 14.94 58.892 0.023 6.51 4.08 9.06
6/24/2021 1:45:00 AM 14.86 58.748 0.023 6.51 3.76 9.08
6/24/2021 2:00:00 AM 14.78 58.604 0.023 6.51 3.93 9.1
6/24/2021 2:15:00 AM 14.7 58.46 0.023 6.51 3.73 9.11
6/24/2021 2:30:00 AM 14.63 58.334 0.023 6.51 3.73 9.12
6/24/2021 2:45:00 AM 14.55 58.19 0.023 6.51 3.81 9.14
6/24/2021 3:00:00 AM 14.47 58.046 0.023 6.51 3.9 9.15
6/24/2021 3:15:00 AM 14.39 57.902 0.023 6.51 4.39 9.17
6/24/2021 3:30:00 AM 14.32 57.776 0.023 6.5 4.14 9.19
6/24/2021 3:45:00 AM 14.25 57.65 0.023 6.5 4.01 9.21
6/24/2021 4:00:00 AM 14.18 57.524 0.023 6.5 3.77 9.21
6/24/2021 4:15:00 AM 14.1 57.38 0.023 6.51 3.7 9.23
6/24/2021 4:30:00 AM 14.03 57.254 0.023 6.51 4.15 9.26
6/24/2021 4:45:00 AM 13.94 57.092 0.023 6.5 4.23 9.27
6/24/2021 5:00:00 AM 13.87 56.966 0.023 6.51 3.78 9.3
6/24/2021 5:15:00 AM 13.79 56.822 0.023 6.51 3.94 9.31
6/24/2021 5:30:00 AM 13.72 56.696 0.023 6.51 3.77 9.33
6/24/2021 5:45:00 AM 13.65 56.57 0.023 6.51 3.87 9.35
6/24/2021 6:00:00 AM 13.58 56.444 0.023 6.51 3.98 9.37
6/24/2021 6:15:00 AM 13.52 56.336 0.023 6.51 4.23 9.4
6/24/2021 6:30:00 AM 13.46 56.228 0.023 6.5 3.99 9.39
6/24/2021 6:45:00 AM 13.43 56.174 0.024 6.51 3.55 9.44
6/24/2021 7:00:00 AM 13.41 56.138 0.023 6.53 3.69 9.49
6/24/2021 7:15:00 AM 13.4 56.12 0.023 6.53 3.76 9.52
6/24/2021 7:30:00 AM 13.42 56.156 0.024 6.54 3.57 9.56
6/24/2021 7:45:00 AM 13.47 56.246 0.023 6.55 3.68 9.6
6/24/2021 8:00:00 AM 13.54 56.372 0.023 6.56 3.65 9.63
6/24/2021 8:15:00 AM 13.62 56.516 0.023 6.57 3.48 9.65
6/24/2021 8:30:00 AM 13.73 56.714 0.024 6.57 3.66 9.65
6/24/2021 8:45:00 AM 13.85 56.93 0.024 6.58 4.46 9.66
6/24/2021 9:00:00 AM 14.01 57.218 0.024 6.58 3.79 9.67
6/24/2021 9:15:00 AM 14.16 57.488 0.024 6.59 3.57 9.69
6/24/2021 9:30:00 AM 14.35 57.83 0.023 6.59 3.56 9.66
6/24/2021 9:45:00 AM 14.56 58.208 0.023 6.62 3.64 9.66
6/24/2021 10:00:00 AM 14.73 58.514 0.025 6.61 4.2 9.63
6/24/2021 10:15:00 AM 14.95 58.91 0.023 6.64 3.53 9.62
6/24/2021 10:30:00 AM 15.19 59.342 0.023 6.65 3.47 9.6
6/24/2021 10:45:00 AM 15.37 59.666 0.024 6.62 3.44 9.54
6/24/2021 11:00:00 AM 15.57 60.026 0.024 6.64 3.84 9.52
6/24/2021 11:15:00 AM 15.84 60.512 0.023 6.65 3.22 9.49
6/24/2021 11:30:00 AM 16.13 61.034 0.023 6.66 3.81 9.46
6/24/2021 11:45:00 AM 16.36 61.448 0.024 6.66 3.37 9.41
6/24/2021 12:00:00 PM 16.64 61.952 0.024 6.64 3.65 9.36
6/24/2021 12:15:00 PM 16.9 62.42 0.024 6.66 4.37 9.32
6/24/2021 12:30:00 PM 17.19 62.942 0.024 6.67 3.32 9.28
6/24/2021 12:45:00 PM 17.46 63.428 0.023 6.68 3.41 9.25
6/24/2021 1:00:00 PM 17.81 64.058 0.023 6.68 3.34 9.21
6/24/2021 1:15:00 PM 18.07 64.526 0.024 6.69 4.15 9.16
6/24/2021 1:30:00 PM 18.32 64.976 0.024 6.69 3.29 9.11
6/24/2021 1:45:00 PM 18.59 65.462 0.024 6.69 3.39 9.06
6/24/2021 2:00:00 PM 18.85 65.93 0.023 6.7 3.37 9.01
6/24/2021 2:15:00 PM 19.07 66.326 0.024 6.7 3.49 8.96
6/24/2021 2:30:00 PM 19.33 66.794 0.024 6.7 3.08 8.92
6/24/2021 2:45:00 PM 19.58 67.244 0.024 6.71 3.23 8.88
6/24/2021 3:00:00 PM 19.74 67.532 0.024 6.7 3.29 8.82
6/24/2021 3:15:00 PM 19.94 67.892 0.024 6.7 3.47 8.8
6/24/2021 3:30:00 PM 20.1 68.18 0.024 6.68 3.44 8.74
6/24/2021 3:45:00 PM 20.3 68.54 0.024 6.71 3.34 8.73
6/24/2021 4:00:00 PM 20.42 68.756 0.024 6.72 3.3 8.67
6/24/2021 4:15:00 PM 20.48 68.864 0.024 6.71 3.3 8.65
6/24/2021 4:30:00 PM 20.58 69.044 0.024 6.72 3.37 8.64
6/24/2021 4:45:00 PM 20.61 69.098 0.024 6.72 3.51 8.61
6/24/2021 5:00:00 PM 20.6 69.08 0.024 6.72 3.46 8.59
6/24/2021 5:15:00 PM 20.57 69.026 0.024 6.69 3.36 8.56
6/24/2021 5:30:00 PM 20.54 68.972 0.024 6.71 3.38 8.55
6/24/2021 5:45:00 PM 20.48 68.864 0.024 6.71 3.41 8.54
6/24/2021 6:00:00 PM 20.39 68.702 0.024 6.67 3.27 8.54
6/24/2021 6:15:00 PM 20.25 68.45 0.024 6.7 3.61 8.55
6/24/2021 6:30:00 PM 20.09 68.162 0.025 6.69 3.22 8.53
6/24/2021 6:45:00 PM 19.9 67.82 0.024 6.71 3.26 8.55
6/24/2021 7:00:00 PM 19.67 67.406 0.025 6.71 3.3 8.55
6/24/2021 7:15:00 PM 19.43 66.974 0.025 6.7 3.58 8.55
6/24/2021 7:30:00 PM 19.2 66.56 0.025 6.69 3.26 8.52
6/24/2021 7:45:00 PM 18.99 66.182 0.026 6.67 3.45 8.49
6/24/2021 8:00:00 PM 18.75 65.75 0.025 6.66 3.63 8.47
6/24/2021 8:15:00 PM 18.55 65.39 0.025 6.63 3.59 8.46
6/24/2021 8:30:00 PM 18.39 65.102 0.025 6.63 3.44 8.45
6/24/2021 8:45:00 PM 18.22 64.796 0.026 6.62 3.49 8.46
6/24/2021 9:00:00 PM 18.04 64.472 0.025 6.62 3.55 8.47
6/24/2021 9:15:00 PM 17.92 64.256 0.026 6.6 3.45 8.46
6/24/2021 9:30:00 PM 17.75 63.95 0.026 6.6 4.14 8.47
6/24/2021 9:45:00 PM 17.59 63.662 0.025 6.61 3.37 8.51
6/24/2021 10:00:00 PM 17.47 63.446 0.026 6.59 3.36 8.49
6/24/2021 10:15:00 PM 17.34 63.212 0.026 6.59 3.54 8.52
6/24/2021 10:30:00 PM 17.21 62.978 0.026 6.59 3.38 8.54
6/24/2021 10:45:00 PM 17.07 62.726 0.026 6.59 3.27 8.57
6/24/2021 11:00:00 PM 16.95 62.51 0.026 6.59 3.43 8.59
6/24/2021 11:15:00 PM 16.86 62.348 0.026 6.58 3.52 8.6
6/24/2021 11:30:00 PM 16.74 62.132 0.026 6.58 3.36 8.62
6/24/2021 11:45:00 PM 16.61 61.898 0.026 6.59 3.43 8.66
6/25/2021 12:00:00 AM 16.52 61.736 0.026 6.57 3.54 8.65
6/25/2021 12:15:00 AM 16.43 61.574 0.026 6.54 3.35 8.64
6/25/2021 12:30:00 AM 16.3 61.34 0.026 6.58 3.47 8.71
6/25/2021 12:45:00 AM 16.2 61.16 0.026 6.57 3.43 8.72
6/25/2021 1:00:00 AM 16.1 60.98 0.026 6.57 3.29 8.74
6/25/2021 1:15:00 AM 16.01 60.818 0.026 6.57 3.39 8.76
6/25/2021 1:30:00 AM 15.9 60.62 0.026 6.57 3.53 8.77
6/25/2021 1:45:00 AM 15.82 60.476 0.027 6.56 3.82 8.78
6/25/2021 2:00:00 AM 15.71 60.278 0.026 6.56 3.52 8.8
6/25/2021 2:15:00 AM 15.64 60.152 0.027 6.55 3.7 8.76
6/25/2021 2:30:00 AM 15.53 59.954 0.026 6.57 3.51 8.84
6/25/2021 2:45:00 AM 15.43 59.774 0.026 6.57 3.37 8.87
6/25/2021 3:00:00 AM 15.34 59.612 0.026 6.57 3.38 8.87
6/25/2021 3:15:00 AM 15.25 59.45 0.026 6.57 3.36 8.9
6/25/2021 3:30:00 AM 15.16 59.288 0.026 6.57 3.44 8.92
6/25/2021 3:45:00 AM 15.08 59.144 0.026 6.58 3.56 8.94
6/25/2021 4:00:00 AM 14.99 58.982 0.026 6.57 3.64 8.96
6/25/2021 4:15:00 AM 14.9 58.82 0.026 6.58 3.2 8.98
6/25/2021 4:30:00 AM 14.81 58.658 0.026 6.58 3.42 9
6/25/2021 4:45:00 AM 14.74 58.532 0.026 6.57 3.36 9.01
6/25/2021 5:00:00 AM 14.65 58.37 0.026 6.58 3.55 9.03
6/25/2021 5:15:00 AM 14.55 58.19 0.026 6.58 3.34 9.04
6/25/2021 5:30:00 AM 14.47 58.046 0.026 6.58 3.69 9.07
6/25/2021 5:45:00 AM 14.38 57.884 0.026 6.55 3.86 9.08
6/25/2021 6:00:00 AM 14.28 57.704 0.027 6.58 3.42 9.12
6/25/2021 6:15:00 AM 14.18 57.524 0.026 6.59 3.77 9.17
6/25/2021 6:30:00 AM 14.11 57.398 0.026 6.59 3.43 9.21
6/25/2021 6:45:00 AM 14.07 57.326 0.026 6.59 3.63 9.24
6/25/2021 7:00:00 AM 14.06 57.308 0.026 6.6 3.76 9.28
6/25/2021 7:15:00 AM 14.07 57.326 0.027 6.61 3.37 9.33
6/25/2021 7:30:00 AM 14.09 57.362 0.027 6.61 3.28 9.35
6/25/2021 7:45:00 AM 14.13 57.434 0.027 6.61 3.38 9.37
6/25/2021 8:00:00 AM 14.2 57.56 0.027 6.64 3.65 9.45
6/25/2021 8:15:00 AM 14.29 57.722 0.027 6.64 3.32 9.45
6/25/2021 8:30:00 AM 14.39 57.902 0.027 6.65 3.35 9.46
6/25/2021 8:45:00 AM 14.53 58.154 0.027 6.64 3.42 9.46
6/25/2021 9:00:00 AM 14.7 58.46 0.026 6.66 3.54 9.49
6/25/2021 9:15:00 AM 14.87 58.766 0.027 6.67 4.29 9.5
6/25/2021 9:30:00 AM 15.05 59.09 0.026 6.68 3.39 9.5
6/25/2021 9:45:00 AM 15.24 59.432 0.027 6.68 3.32 9.49
6/25/2021 10:00:00 AM 15.46 59.828 0.026 6.71 3.34 9.49
6/25/2021 10:15:00 AM 15.66 60.188 0.026 6.71 3.22 9.46
6/25/2021 10:30:00 AM 15.85 60.53 0.026 6.71 3.19 9.44
6/25/2021 10:45:00 AM 16.07 60.926 0.027 6.7 3.61 9.43
6/25/2021 11:00:00 AM 16.32 61.376 0.026 6.73 3.33 9.4
6/25/2021 11:15:00 AM 16.53 61.754 0.026 6.73 3.14 9.35
6/25/2021 11:30:00 AM 16.79 62.222 0.026 6.74 3.25 9.33
6/25/2021 11:45:00 AM 17.09 62.762 0.026 6.75 3.18 9.31
6/25/2021 12:00:00 PM 17.34 63.212 0.026 6.75 3.26 9.26
6/25/2021 12:15:00 PM 17.64 63.752 0.026 6.75 3.16 9.22
6/25/2021 12:30:00 PM 17.92 64.256 0.026 6.76 3 9.2
6/25/2021 12:45:00 PM 18.24 64.832 0.026 6.76 2.95 9.13
6/25/2021 1:00:00 PM 18.53 65.354 0.026 6.75 3.07 9.09
6/25/2021 1:15:00 PM 18.84 65.912 0.026 6.77 3.12 9.05
6/25/2021 1:30:00 PM 19.16 66.488 0.026 6.77 3.13 9.01
6/25/2021 1:45:00 PM 19.42 66.956 0.026 6.78 3.03 8.97
6/25/2021 2:00:00 PM 19.69 67.442 0.026 6.78 3.05 8.9
6/25/2021 2:15:00 PM 19.96 67.92799 0.026 6.79 3.22 8.9
6/25/2021 2:30:00 PM 20.16 68.288 0.026 6.79 3.24 8.85
6/25/2021 2:45:00 PM 20.37 68.666 0.026 6.78 3.25 8.79
6/25/2021 3:00:00 PM 20.64 69.152 0.026 6.8 3.22 8.78
6/25/2021 3:15:00 PM 20.75 69.35 0.026 6.78 3.04 8.72
6/25/2021 3:30:00 PM 20.88 69.584 0.026 6.8 3.07 8.68
6/25/2021 3:45:00 PM 21.01 69.818 0.026 6.79 3.59 8.66
6/25/2021 4:00:00 PM 21.08 69.944 0.026 6.8 3.17 8.63
6/25/2021 4:15:00 PM 21.12 70.016 0.026 6.79 3.12 8.6
6/25/2021 4:30:00 PM 21.13 70.034 0.026 6.79 3.11 8.57
6/25/2021 4:45:00 PM 21.14 70.052 0.026 6.8 3.18 8.55
6/25/2021 5:00:00 PM 21.2 70.16 0.026 6.79 3.01 8.5
6/25/2021 5:15:00 PM 21.23 70.214 0.026 6.8 2.83 8.51
6/25/2021 5:30:00 PM 21.26 70.268 0.026 6.8 2.91 8.49
6/25/2021 5:45:00 PM 21.33 70.394 0.026 6.79 3.05 8.47
6/25/2021 6:00:00 PM 21.32 70.376 0.027 6.78 3.2 8.43
6/25/2021 6:15:00 PM 21.26 70.268 0.026 6.76 3.33 8.4
6/25/2021 6:30:00 PM 21.14 70.052 0.026 6.78 3.08 8.39
6/25/2021 6:45:00 PM 21.01 69.818 0.027 6.75 3.04 8.35
6/25/2021 7:00:00 PM 20.81 69.458 0.026 6.76 3.07 8.34
6/25/2021 7:15:00 PM 20.61 69.098 0.027 6.76 3.08 8.34
6/25/2021 7:30:00 PM 20.42 68.756 0.027 6.74 2.93 8.32
6/25/2021 7:45:00 PM 20.2 68.36 0.027 6.72 3.21 8.28
6/25/2021 8:00:00 PM 20.01 68.018 0.027 6.73 2.94 8.29
6/25/2021 8:15:00 PM 19.84 67.712 0.027 6.72 3.31 8.28
6/25/2021 8:30:00 PM 19.68 67.424 0.027 6.72 3.06 8.28
6/25/2021 8:45:00 PM 19.54 67.172 0.027 6.7 3.06 8.25
6/25/2021 9:00:00 PM 19.38 66.884 0.028 6.68 3.17 8.24
6/25/2021 9:15:00 PM 19.23 66.614 0.028 6.67 3.13 8.21
6/25/2021 9:30:00 PM 19.08 66.344 0.028 6.68 3.32 8.23
6/25/2021 9:45:00 PM 18.93 66.074 0.028 6.67 3.5 8.23
6/25/2021 10:00:00 PM 18.79 65.82201 0.028 6.65 3.15 8.22
6/25/2021 10:15:00 PM 18.65 65.57 0.028 6.66 3.19 8.21
6/25/2021 10:30:00 PM 18.49 65.282 0.028 6.65 3.22 8.24
6/25/2021 10:45:00 PM 18.38 65.084 0.028 6.64 3.17 8.22
6/25/2021 11:00:00 PM 18.23 64.814 0.029 6.62 3.05 8.25
6/25/2021 11:15:00 PM 18.1 64.58 0.029 6.63 3.26 8.26
6/25/2021 11:30:00 PM 17.96 64.328 0.028 6.62 3.09 8.3
6/25/2021 11:45:00 PM 17.82 64.076 0.028 6.64 3.14 8.33
6/26/2021 12:00:00 AM 17.72 63.896 0.029 6.62 3.22 8.34
6/26/2021 12:15:00 AM 17.58 63.644 0.029 6.63 3.07 8.35
6/26/2021 12:30:00 AM 17.47 63.446 0.029 6.62 3.19 8.37
6/26/2021 12:45:00 AM 17.36 63.248 0.029 6.63 3.11 8.41
6/26/2021 1:00:00 AM 17.27 63.086 0.029 6.62 3.36 8.4
6/26/2021 1:15:00 AM 17.15 62.87 0.029 6.62 3.26 8.44
6/26/2021 1:30:00 AM 17.07 62.726 0.029 6.62 3.46 8.43
6/26/2021 1:45:00 AM 16.96 62.528 0.029 6.64 3.24 8.49
6/26/2021 2:00:00 AM 16.88 62.384 0.029 6.63 3.3 8.5
6/26/2021 2:15:00 AM 16.8 62.24 0.029 6.62 3.82 8.5
6/26/2021 2:30:00 AM 16.72 62.096 0.029 6.62 3.2 8.53
6/26/2021 2:45:00 AM 16.67 62.006 0.029 6.61 3.08 8.52
6/26/2021 3:00:00 AM 16.62 61.916 0.029 6.61 3.3 8.54
6/26/2021 3:15:00 AM 16.58 61.844 0.029 6.62 3.21 8.55
6/26/2021 3:30:00 AM 16.54 61.772 0.029 6.61 3.19 8.58
6/26/2021 3:45:00 AM 16.51 61.718 0.029 6.61 3.18 8.59
6/26/2021 4:00:00 AM 16.5 61.7 0.029 6.62 3.3 8.59
6/26/2021 4:15:00 AM 16.48 61.664 0.029 6.61 3.05 8.58
6/26/2021 4:30:00 AM 16.48 61.664 0.029 6.63 3.17 8.61
6/26/2021 4:45:00 AM 16.47 61.646 0.029 6.63 3.15 8.62
6/26/2021 5:00:00 AM 16.47 61.646 0.029 6.63 3.07 8.6
6/26/2021 5:15:00 AM 16.48 61.664 0.029 6.63 2.96 8.59
6/26/2021 5:30:00 AM 16.48 61.664 0.029 6.63 3.14 8.6
6/26/2021 5:45:00 AM 16.48 61.664 0.029 6.63 3.52 8.62
6/26/2021 6:00:00 AM 16.48 61.664 0.029 6.64 3.13 8.63
6/26/2021 6:15:00 AM 16.49 61.682 0.029 6.64 3.35 8.61
6/26/2021 6:30:00 AM 16.49 61.682 0.029 6.63 3.29 8.63
6/26/2021 6:45:00 AM 16.49 61.682 0.03 6.62 3.36 8.64
6/26/2021 7:00:00 AM 16.5 61.7 0.029 6.64 3.95 8.66
6/26/2021 7:15:00 AM 16.52 61.736 0.029 6.65 3.04 8.69
6/26/2021 7:30:00 AM 16.55 61.79 0.029 6.67 3.13 8.74
6/26/2021 7:45:00 AM 16.57 61.826 0.029 6.66 3.32 8.73
6/26/2021 8:00:00 AM 16.6 61.88 0.029 6.67 3.34 8.78
6/26/2021 8:15:00 AM 16.63 61.934 0.029 6.68 4.16 8.79
6/26/2021 8:30:00 AM 16.66 61.988 0.029 6.68 3.15 8.8
6/26/2021 8:45:00 AM 16.71 62.078 0.029 6.69 3 8.83
6/26/2021 9:00:00 AM 16.75 62.15 0.029 6.68 3.08 8.82
6/26/2021 9:15:00 AM 16.81 62.258 0.029 6.69 3.11 8.85
6/26/2021 9:30:00 AM 16.88 62.384 0.029 6.7 3 8.86
6/26/2021 9:45:00 AM 17.02 62.636 0.029 6.72 3.22 8.95
6/26/2021 10:00:00 AM 17.18 62.924 0.029 6.73 2.93 8.94
6/26/2021 10:15:00 AM 17.33 63.194 0.029 6.73 2.91 8.96
6/26/2021 10:30:00 AM 17.49 63.482 0.029 6.74 2.99 8.94
6/26/2021 10:45:00 AM 17.72 63.896 0.029 6.77 3.08 9.03
6/26/2021 11:00:00 AM 17.91 64.238 0.029 6.76 3.1 8.98
6/26/2021 11:15:00 AM 18.27 64.886 0.028 6.79 3.07 9.02
6/26/2021 11:30:00 AM 18.56 65.408 0.029 6.79 3.05 8.99
6/26/2021 11:45:00 AM 18.91 66.038 0.028 6.79 2.95 8.95
6/26/2021 12:00:00 PM 19.19 66.542 0.028 6.79 2.76 8.88
6/26/2021 12:15:00 PM 19.5 67.1 0.028 6.81 2.78 8.87
6/26/2021 12:30:00 PM 19.82 67.676 0.029 6.81 2.88 8.83
6/26/2021 12:45:00 PM 20.14 68.252 0.028 6.8 2.9 8.73
6/26/2021 1:00:00 PM 20.59 69.062 0.028 6.82 2.96 8.73
6/26/2021 1:15:00 PM 20.92 69.656 0.028 6.82 2.67 8.69
6/26/2021 1:30:00 PM 21.31 70.358 0.028 6.82 3.4 8.63
6/26/2021 1:45:00 PM 21.57 70.826 0.028 6.83 2.89 8.6
6/26/2021 2:00:00 PM 21.76 71.168 0.028 6.83 2.74 8.52
6/26/2021 2:15:00 PM 22.08 71.744 0.028 6.84 3.85 8.5
6/26/2021 2:30:00 PM 22.3 72.14 0.028 6.83 2.89 8.45
6/26/2021 2:45:00 PM 22.52 72.536 0.028 6.84 2.99 8.43
6/26/2021 3:00:00 PM 22.71 72.878 0.028 6.84 2.89 8.39
6/26/2021 3:15:00 PM 22.96 73.328 0.028 6.84 2.65 8.37
6/26/2021 3:30:00 PM 23.12 73.616 0.028 6.84 2.79 8.35
6/26/2021 3:45:00 PM 23.23 73.814 0.028 6.84 2.74 8.29
6/26/2021 4:00:00 PM 23.4 74.12 0.028 6.84 2.62 8.28
6/26/2021 4:15:00 PM 23.52 74.336 0.028 6.84 2.74 8.23
6/26/2021 4:30:00 PM 23.62 74.516 0.028 6.84 3.1 8.22
6/26/2021 4:45:00 PM 23.65 74.57 0.028 6.85 2.87 8.18
6/26/2021 5:00:00 PM 23.69 74.642 0.028 6.84 2.76 8.14
6/26/2021 5:15:00 PM 23.73 74.714 0.028 6.84 2.8 8.1
6/26/2021 5:30:00 PM 23.75 74.75 0.028 6.84 2.75 8.1
6/26/2021 5:45:00 PM 23.72 74.696 0.029 6.83 2.9 8.09
6/26/2021 6:00:00 PM 23.65 74.57 0.029 6.83 3.13 8.07
6/26/2021 6:15:00 PM 23.57 74.426 0.028 6.83 3.08 8.05
6/26/2021 6:30:00 PM 23.5 74.3 0.029 6.82 3.25 8.03
6/26/2021 6:45:00 PM 23.41 74.138 0.029 6.81 3.84 8
6/26/2021 7:00:00 PM 23.25 73.85 0.029 6.79 3.22 7.97
6/26/2021 7:15:00 PM 23.13 73.634 0.029 6.82 3.1 7.99
6/26/2021 7:30:00 PM 23 73.4 0.029 6.8 3.09 7.96
6/26/2021 7:45:00 PM 22.82 73.076 0.029 6.78 3 7.94
6/26/2021 8:00:00 PM 22.64 72.752 0.029 6.77 3 7.91
6/26/2021 8:15:00 PM 22.43 72.374 0.03 6.76 3.08 7.85
6/26/2021 8:30:00 PM 22.24 72.032 0.029 6.76 3.02 7.83
6/26/2021 8:45:00 PM 22.07 71.726 0.03 6.75 3.11 7.8
6/26/2021 9:00:00 PM 21.93 71.474 0.03 6.73 2.91 7.77
6/26/2021 9:15:00 PM 21.78 71.204 0.03 6.72 2.96 7.74
6/26/2021 9:30:00 PM 21.61 70.898 0.03 6.71 2.97 7.74
6/26/2021 9:45:00 PM 21.45 70.61 0.03 6.71 3.29 7.74
6/26/2021 10:00:00 PM 21.3 70.34 0.03 6.7 3.08 7.72
6/26/2021 10:15:00 PM 21.17 70.106 0.03 6.69 3.2 7.72
6/26/2021 10:30:00 PM 21 69.8 0.032 6.68 2.97 7.73
6/26/2021 10:45:00 PM 20.86 69.548 0.031 6.66 3.06 7.72
6/26/2021 11:00:00 PM 20.71 69.278 0.031 6.66 3.05 7.75
6/26/2021 11:15:00 PM 20.58 69.044 0.031 6.66 3.07 7.76
6/26/2021 11:30:00 PM 20.43 68.774 0.031 6.66 3.05 7.8
6/26/2021 11:45:00 PM 20.32 68.576 0.031 6.66 3 7.79
6/27/2021 12:00:00 AM 20.19 68.342 0.031 6.65 3.13 7.82
6/27/2021 12:15:00 AM 20.05 68.09 0.031 6.64 3.38 7.83
6/27/2021 12:30:00 AM 19.93 67.874 0.031 6.64 3.06 7.86
6/27/2021 12:45:00 AM 19.82 67.676 0.031 6.65 2.87 7.9
6/27/2021 1:00:00 AM 19.72 67.496 0.032 6.62 3.02 7.87
6/27/2021 1:15:00 AM 19.62 67.316 0.031 6.63 3.23 7.9
6/27/2021 1:30:00 AM 19.55 67.19 0.032 6.62 2.91 7.91
6/27/2021 1:45:00 AM 19.46 67.028 0.031 6.63 3.17 7.94
6/27/2021 2:00:00 AM 19.38 66.884 0.031 6.63 3.12 7.95
6/27/2021 2:15:00 AM 19.3 66.74 0.032 6.61 3.37 7.94
6/27/2021 2:30:00 AM 19.25 66.65 0.031 6.64 3.02 7.99
6/27/2021 2:45:00 AM 19.18 66.524 0.031 6.65 3.1 8.02
6/27/2021 3:00:00 AM 19.12 66.416 0.031 6.64 3.21 8
6/27/2021 3:15:00 AM 19.07 66.326 0.032 6.64 3.17 8.02
6/27/2021 3:30:00 AM 19.02 66.236 0.032 6.63 3.06 8.03
6/27/2021 3:45:00 AM 18.97 66.146 0.032 6.63 3.2 8.03
6/27/2021 4:00:00 AM 18.92 66.056 0.032 6.64 3.29 8.04
6/27/2021 4:15:00 AM 18.87 65.966 0.032 6.64 3 8.07
6/27/2021 4:30:00 AM 18.83 65.894 0.032 6.63 3.1 8.05
6/27/2021 4:45:00 AM 18.79 65.82201 0.032 6.63 3.02 8.07
6/27/2021 5:00:00 AM 18.74 65.732 0.032 6.64 3.35 8.08
6/27/2021 5:15:00 AM 18.69 65.642 0.032 6.63 3.25 8.07
6/27/2021 5:30:00 AM 18.64 65.552 0.032 6.63 3.31 8.08
6/27/2021 5:45:00 AM 18.59 65.462 0.032 6.63 3.08 8.11
6/27/2021 6:00:00 AM 18.54 65.372 0.032 6.64 3.3 8.12
6/27/2021 6:15:00 AM 18.49 65.282 0.032 6.64 3.53 8.14
6/27/2021 6:30:00 AM 18.44 65.192 0.032 6.63 3.22 8.17
6/27/2021 6:45:00 AM 18.4 65.12 0.032 6.63 3.3 8.21
6/27/2021 7:00:00 AM 18.4 65.12 0.032 6.66 3.22 8.26
6/27/2021 7:15:00 AM 18.39 65.102 0.032 6.63 3.26 8.27
6/27/2021 7:30:00 AM 18.41 65.138 0.032 6.66 3.26 8.33
6/27/2021 7:45:00 AM 18.46 65.228 0.032 6.69 3 8.39
6/27/2021 8:00:00 AM 18.53 65.354 0.032 6.68 3.15 8.41
6/27/2021 8:15:00 AM 18.59 65.462 0.032 6.7 3.01 8.47
6/27/2021 8:30:00 AM 18.69 65.642 0.032 6.71 3.11 8.47
6/27/2021 8:45:00 AM 18.81 65.858 0.032 6.71 2.97 8.51
6/27/2021 9:00:00 AM 19 66.2 0.031 6.73 3.03 8.49
6/27/2021 9:15:00 AM 19.17 66.506 0.031 6.74 2.94 8.48
6/27/2021 9:30:00 AM 19.35 66.83 0.031 6.76 3.08 8.56
6/27/2021 9:45:00 AM 19.54 67.172 0.031 6.78 2.82 8.6
6/27/2021 10:00:00 AM 19.75 67.55 0.031 6.78 2.98 8.6
6/27/2021 10:15:00 AM 19.97 67.946 0.031 6.79 3.01 8.59
6/27/2021 10:30:00 AM 20.22 68.396 0.031 6.78 2.84 8.49
6/27/2021 10:45:00 AM 20.46 68.828 0.031 6.81 2.89 8.57
6/27/2021 11:00:00 AM 20.76 69.368 0.031 6.82 2.92 8.56
6/27/2021 11:15:00 AM 21 69.8 0.031 6.82 2.81 8.53
6/27/2021 11:30:00 AM 21.27 70.286 0.031 6.84 2.85 8.53
6/27/2021 11:45:00 AM 21.53 70.754 0.031 6.84 2.77 8.49
6/27/2021 12:00:00 PM 21.8 71.24 0.031 6.82 3.35 8.42
6/27/2021 12:15:00 PM 22.09 71.762 0.03 6.84 2.75 8.41
6/27/2021 12:30:00 PM 22.46 72.42799 0.03 6.86 2.71 8.41
6/27/2021 12:45:00 PM 22.73 72.914 0.031 6.84 2.71 8.32
6/27/2021 1:00:00 PM 23.04 73.472 0.03 6.87 2.84 8.34
6/27/2021 1:15:00 PM 23.27 73.886 0.03 6.84 2.99 8.25
6/27/2021 1:30:00 PM 23.59 74.462 0.03 6.87 2.97 8.27
6/27/2021 1:45:00 PM 23.73 74.714 0.03 6.87 2.62 8.2
6/27/2021 2:00:00 PM 23.85 74.93 0.03 6.88 2.57 8.18
6/27/2021 2:15:00 PM 23.95 75.11 0.03 6.88 2.72 8.13
6/27/2021 2:30:00 PM 24.03 75.254 0.03 6.88 2.71 8.03
6/27/2021 2:45:00 PM 24.1 75.38 0.03 6.88 2.72 8.09
6/27/2021 3:00:00 PM 24.16 75.488 0.03 6.89 2.81 8.1
6/27/2021 3:15:00 PM 24.17 75.506 0.03 6.88 2.77 8.03
6/27/2021 3:30:00 PM 24.13 75.434 0.03 6.89 2.97 8.08
6/27/2021 3:45:00 PM 24.1 75.38 0.03 6.88 2.93 8.03
6/27/2021 4:00:00 PM 24.04 75.272 0.03 6.86 3.15 8.02
6/27/2021 4:15:00 PM 24 75.2 0.03 6.86 3.53 8.01
6/27/2021 4:30:00 PM 23.97 75.146 0.03 6.86 3.91 7.99
6/27/2021 4:45:00 PM 23.95 75.11 0.03 6.86 3.49 8
6/27/2021 5:00:00 PM 23.93 75.074 0.03 6.86 3.14 8
6/27/2021 5:15:00 PM 23.87 74.966 0.03 6.85 3.05 7.97
6/27/2021 5:30:00 PM 23.89 75.002 0.03 6.85 2.94 7.95
6/27/2021 5:45:00 PM 23.91 75.038 0.03 6.85 3.03 7.97
6/27/2021 6:00:00 PM 23.93 75.074 0.03 6.86 2.96 7.94
6/27/2021 6:15:00 PM 23.9 75.02 0.03 6.85 2.93 7.93
6/27/2021 6:30:00 PM 23.88 74.984 0.03 6.84 3.07 7.91
6/27/2021 6:45:00 PM 23.84 74.912 0.03 6.84 3.13 7.91
6/27/2021 7:00:00 PM 23.79 74.82201 0.03 6.83 4.59 7.87
6/27/2021 7:15:00 PM 23.73 74.714 0.03 6.83 2.9 7.87
6/27/2021 7:30:00 PM 23.63 74.534 0.03 6.83 2.87 7.85
6/27/2021 7:45:00 PM 23.52 74.336 0.031 6.82 2.88 7.81
6/27/2021 8:00:00 PM 23.39 74.102 0.031 6.81 2.91 7.77
6/27/2021 8:15:00 PM 23.24 73.832 0.031 6.78 3 7.7
6/27/2021 8:30:00 PM 23.09 73.562 0.031 6.77 2.91 7.68
6/27/2021 8:45:00 PM 22.93 73.274 0.031 6.77 3 7.65
6/27/2021 9:00:00 PM 22.78 73.004 0.031 6.75 2.94 7.62
6/27/2021 9:15:00 PM 22.66 72.788 0.031 6.74 3.11 7.58
6/27/2021 9:30:00 PM 22.52 72.536 0.032 6.72 3.19 7.57
6/27/2021 9:45:00 PM 22.4 72.32 0.032 6.71 2.93 7.55
6/27/2021 10:00:00 PM 22.27 72.086 0.032 6.7 2.98 7.54
6/27/2021 10:15:00 PM 22.13 71.834 0.032 6.69 3.19 7.53
6/27/2021 10:30:00 PM 22.01 71.618 0.032 6.66 3.19 7.53
6/27/2021 10:45:00 PM 21.89 71.402 0.032 6.68 3.13 7.52
6/27/2021 11:00:00 PM 21.77 71.186 0.032 6.68 3.22 7.53
6/27/2021 11:15:00 PM 21.67 71.006 0.032 6.67 3.39 7.54
6/27/2021 11:30:00 PM 21.55 70.79 0.032 6.67 3.01 7.57
6/27/2021 11:45:00 PM 21.43 70.574 0.033 6.66 3.05 7.57
6/28/2021 12:00:00 AM 21.34 70.412 0.033 6.66 3.06 7.58
6/28/2021 12:15:00 AM 21.24 70.232 0.033 6.65 2.95 7.6
6/28/2021 12:30:00 AM 21.15 70.07 0.033 6.66 3.02 7.61
6/28/2021 12:45:00 AM 21.03 69.854 0.033 6.65 3.09 7.63
6/28/2021 1:00:00 AM 20.93 69.674 0.033 6.66 3 7.67
6/28/2021 1:15:00 AM 20.85 69.53 0.033 6.65 4.37 7.65
6/28/2021 1:30:00 AM 20.77 69.386 0.033 6.66 3.01 7.69
6/28/2021 1:45:00 AM 20.7 69.26 0.033 6.65 3.06 7.68
6/28/2021 2:00:00 AM 20.6 69.08 0.033 6.64 3.2 7.69
6/28/2021 2:15:00 AM 20.52 68.936 0.033 6.66 3.12 7.74
6/28/2021 2:30:00 AM 20.46 68.828 0.033 6.63 3.09 7.73
6/28/2021 2:45:00 AM 20.37 68.666 0.033 6.64 3.28 7.76
6/28/2021 3:00:00 AM 20.3 68.54 0.033 6.65 3.18 7.77
6/28/2021 3:15:00 AM 20.23 68.414 0.033 6.65 3.25 7.79
6/28/2021 3:30:00 AM 20.15 68.27 0.033 6.64 2.88 7.79
6/28/2021 3:45:00 AM 20.06 68.108 0.033 6.64 3.14 7.82
6/28/2021 4:00:00 AM 19.99 67.982 0.033 6.64 3.03 7.83
6/28/2021 4:15:00 AM 19.93 67.874 0.033 6.64 3.07 7.81
6/28/2021 4:30:00 AM 19.86 67.748 0.033 6.64 2.98 7.85
6/28/2021 4:45:00 AM 19.79 67.622 0.033 6.63 3.3 7.86
6/28/2021 5:00:00 AM 19.71 67.478 0.033 6.63 3.4 7.88
6/28/2021 5:15:00 AM 19.64 67.352 0.034 6.62 3.39 7.88
6/28/2021 5:30:00 AM 19.56 67.208 0.034 6.63 3.42 7.91
6/28/2021 5:45:00 AM 19.5 67.1 0.034 6.62 3.1 7.9
6/28/2021 6:00:00 AM 19.43 66.974 0.033 6.63 3.57 7.94
6/28/2021 6:15:00 AM 19.36 66.848 0.034 6.63 3.15 7.95
6/28/2021 6:30:00 AM 19.3 66.74 0.033 6.62 3.28 7.95
6/28/2021 6:45:00 AM 19.26 66.668 0.033 6.64 3.78 8
6/28/2021 7:00:00 AM 19.24 66.632 0.033 6.63 3.31 8.08
6/28/2021 7:15:00 AM 19.23 66.614 0.034 6.64 3.32 8.1
6/28/2021 7:30:00 AM 19.25 66.65 0.034 6.66 3.28 8.16
6/28/2021 7:45:00 AM 19.28 66.704 0.034 6.65 3.34 8.22
6/28/2021 8:00:00 AM 19.32 66.776 0.033 6.68 3.11 8.25
6/28/2021 8:15:00 AM 19.41 66.938 0.033 6.69 3.09 8.27
6/28/2021 8:30:00 AM 19.52 67.136 0.033 6.69 3.62 8.31
6/28/2021 8:45:00 AM 19.67 67.406 0.033 6.72 3.22 8.36
6/28/2021 9:00:00 AM 19.8 67.64 0.033 6.72 2.97 8.4
6/28/2021 9:15:00 AM 19.98 67.964 0.033 6.74 3.3 8.4
6/28/2021 9:30:00 AM 20.19 68.342 0.033 6.74 2.93 8.39
6/28/2021 9:45:00 AM 20.33 68.594 0.033 6.77 2.79 8.47
6/28/2021 10:00:00 AM 20.6 69.08 0.033 6.79 3.2 8.44
6/28/2021 10:15:00 AM 20.84 69.512 0.032 6.79 2.89 8.4
6/28/2021 10:30:00 AM 21.07 69.926 0.032 6.81 3.14 8.45
6/28/2021 10:45:00 AM 21.31 70.358 0.032 6.82 2.91 8.46
6/28/2021 11:00:00 AM 21.53 70.754 0.032 6.82 2.75 8.4
6/28/2021 11:15:00 AM 21.77 71.186 0.032 6.84 2.98 8.4
6/28/2021 11:30:00 AM 22.1 71.78 0.032 6.85 2.8 8.36
6/28/2021 11:45:00 AM 22.41 72.338 0.032 6.86 3.01 8.36
6/28/2021 12:00:00 PM 22.6 72.68 0.032 6.85 2.74 8.31
6/28/2021 12:15:00 PM 22.92 73.256 0.032 6.86 3.09 8.3
6/28/2021 12:30:00 PM 23.27 73.886 0.032 6.88 2.93 8.28
6/28/2021 12:45:00 PM 23.69 74.642 0.032 6.89 3.1 8.27
6/28/2021 1:00:00 PM 23.93 75.074 0.032 6.89 2.74 8.21
6/28/2021 1:15:00 PM 24.23 75.614 0.032 6.89 2.71 8.19
6/28/2021 1:30:00 PM 24.53 76.154 0.032 6.9 2.79 8.17
6/28/2021 1:45:00 PM 24.79 76.622 0.032 6.9 2.59 8.1
6/28/2021 2:00:00 PM 24.97 76.946 0.032 6.9 2.71 8.07
6/28/2021 2:15:00 PM 25.27 77.486 0.032 6.9 2.83 8.05
6/28/2021 2:30:00 PM 25.51 77.918 0.032 6.9 2.65 7.98
6/28/2021 2:45:00 PM 25.77 78.386 0.032 6.9 2.71 7.95
6/28/2021 3:00:00 PM 25.98 78.764 0.032 6.91 2.78 7.92
6/28/2021 3:15:00 PM 26.2 79.16 0.031 6.9 2.67 7.8
6/28/2021 3:30:00 PM 26.41 79.538 0.032 6.91 2.74 7.84
6/28/2021 3:45:00 PM 26.57 79.826 0.032 6.9 2.5 7.76
6/28/2021 4:00:00 PM 26.64 79.952 0.032 6.9 2.48 7.74
6/28/2021 4:15:00 PM 26.78 80.204 0.032 6.89 2.7 7.69
6/28/2021 4:30:00 PM 26.9 80.42 0.032 6.89 2.49 7.68
6/28/2021 4:45:00 PM 27 80.6 0.032 6.91 2.68 7.68
6/28/2021 5:00:00 PM 27.03 80.654 0.032 6.89 2.47 7.61
6/28/2021 5:15:00 PM 27.09 80.762 0.032 6.91 2.45 7.63
6/28/2021 5:30:00 PM 27.11 80.798 0.032 6.89 2.49 7.56
6/28/2021 5:45:00 PM 27.12 80.816 0.032 6.88 2.68 7.57
6/28/2021 6:00:00 PM 27.11 80.798 0.032 6.9 2.6 7.6
6/28/2021 6:15:00 PM 27.04 80.672 0.032 6.89 2.78 7.56
6/28/2021 6:30:00 PM 27 80.6 0.032 6.89 3.45 7.56
6/28/2021 6:45:00 PM 26.88 80.384 0.032 6.88 2.65 7.53
6/28/2021 7:00:00 PM 26.73 80.114 0.032 6.88 2.92 7.54
6/28/2021 7:15:00 PM 26.57 79.826 0.032 6.86 2.74 7.5
6/28/2021 7:30:00 PM 26.41 79.538 0.032 6.84 2.75 7.46
6/28/2021 7:45:00 PM 26.14 79.052 0.032 6.85 2.8 7.42
6/28/2021 8:00:00 PM 25.86 78.548 0.033 6.83 2.73 7.37
6/28/2021 8:15:00 PM 25.63 78.134 0.033 6.81 2.68 7.31
6/28/2021 8:30:00 PM 25.42 77.756 0.033 6.79 2.77 7.27
6/28/2021 8:45:00 PM 25.19 77.342 0.033 6.77 2.83 7.24
6/28/2021 9:00:00 PM 24.96 76.92799 0.033 6.75 3.04 7.22
6/28/2021 9:15:00 PM 24.73 76.514 0.033 6.75 2.79 7.2
6/28/2021 9:30:00 PM 24.56 76.208 0.033 6.73 2.93 7.17
6/28/2021 9:45:00 PM 24.38 75.884 0.033 6.73 2.86 7.18
6/28/2021 10:00:00 PM 24.22 75.596 0.033 6.72 3.17 7.17
6/28/2021 10:15:00 PM 24.06 75.308 0.034 6.71 2.91 7.18
6/28/2021 10:30:00 PM 23.89 75.002 0.033 6.71 2.71 7.19
6/28/2021 10:45:00 PM 23.76 74.768 0.034 6.7 2.87 7.18
6/28/2021 11:00:00 PM 23.62 74.516 0.034 6.69 2.83 7.17
6/28/2021 11:15:00 PM 23.46 74.228 0.034 6.68 2.95 7.21
6/28/2021 11:30:00 PM 23.31 73.958 0.034 6.69 3.22 7.25
6/28/2021 11:45:00 PM 23.18 73.724 0.034 6.68 3.19 7.25
6/29/2021 12:00:00 AM 23.05 73.49 0.034 6.68 3.05 7.26
6/29/2021 12:15:00 AM 22.92 73.256 0.034 6.68 2.84 7.29
6/29/2021 12:30:00 AM 22.79 73.022 0.034 6.68 2.98 7.3
6/29/2021 12:45:00 AM 22.68 72.824 0.034 6.67 2.82 7.32
6/29/2021 1:00:00 AM 22.56 72.608 0.034 6.67 3.18 7.34
6/29/2021 1:15:00 AM 22.44 72.392 0.034 6.67 3.05 7.34
6/29/2021 1:30:00 AM 22.32 72.176 0.034 6.66 2.92 7.39
6/29/2021 1:45:00 AM 22.2 71.96 0.034 6.66 2.89 7.41
6/29/2021 2:00:00 AM 22.11 71.798 0.034 6.66 3.04 7.42
6/29/2021 2:15:00 AM 22 71.6 0.035 6.65 2.88 7.44
6/29/2021 2:30:00 AM 21.9 71.42 0.034 6.65 2.81 7.46
6/29/2021 2:45:00 AM 21.82 71.276 0.034 6.65 3.05 7.48
6/29/2021 3:00:00 AM 21.72 71.096 0.035 6.65 2.96 7.5
6/29/2021 3:15:00 AM 21.64 70.952 0.035 6.65 2.99 7.51
6/29/2021 3:30:00 AM 21.55 70.79 0.034 6.66 3.13 7.54
6/29/2021 3:45:00 AM 21.47 70.646 0.035 6.65 3.14 7.54
6/29/2021 4:00:00 AM 21.39 70.502 0.035 6.65 3.21 7.56
6/29/2021 4:15:00 AM 21.29 70.32201 0.035 6.64 3.02 7.55
6/29/2021 4:30:00 AM 21.2 70.16 0.035 6.63 3.19 7.6
6/29/2021 4:45:00 AM 21.11 69.998 0.034 6.64 3.35 7.61
6/29/2021 5:00:00 AM 21.02 69.836 0.035 6.64 3.15 7.62
6/29/2021 5:15:00 AM 20.94 69.692 0.035 6.63 3.13 7.62
6/29/2021 5:30:00 AM 20.86 69.548 0.035 6.63 3.08 7.64
6/29/2021 5:45:00 AM 20.76 69.368 0.035 6.62 3.49 7.64
6/29/2021 6:00:00 AM 20.68 69.224 0.035 6.64 3.04 7.71
6/29/2021 6:15:00 AM 20.6 69.08 0.035 6.62 3.23 7.7
6/29/2021 6:30:00 AM 20.54 68.972 0.035 6.63 3.27 7.74
6/29/2021 6:45:00 AM 20.48 68.864 0.036 6.62 3.05 7.77
6/29/2021 7:00:00 AM 20.45 68.81 0.035 6.64 3.09 7.83
6/29/2021 7:15:00 AM 20.43 68.774 0.035 6.66 3.38 7.9
6/29/2021 7:30:00 AM 20.43 68.774 0.035 6.66 3.29 7.95
6/29/2021 7:45:00 AM 20.45 68.81 0.035 6.66 3.37 7.98
6/29/2021 8:00:00 AM 20.49 68.882 0.035 6.68 3.2 8.06
6/29/2021 8:15:00 AM 20.54 68.972 0.035 6.69 3.02 8.09
6/29/2021 8:30:00 AM 20.6 69.08 0.035 6.7 3.02 8.12
6/29/2021 8:45:00 AM 20.72 69.296 0.035 6.72 3.1 8.15
6/29/2021 9:00:00 AM 20.85 69.53 0.035 6.73 3.13 8.18
6/29/2021 9:15:00 AM 21 69.8 0.035 6.74 3.38 8.24
6/29/2021 9:30:00 AM 21.16 70.088 0.034 6.75 2.95 8.24
6/29/2021 9:45:00 AM 21.36 70.448 0.034 6.77 2.92 8.3
6/29/2021 10:00:00 AM 21.58 70.844 0.034 6.78 2.94 8.26
6/29/2021 10:15:00 AM 21.8 71.24 0.034 6.8 2.86 8.29
6/29/2021 10:30:00 AM 22.01 71.618 0.034 6.81 2.77 8.26
6/29/2021 10:45:00 AM 22.26 72.068 0.034 6.83 2.86 8.25
6/29/2021 11:00:00 AM 22.48 72.464 0.034 6.83 2.99 8.27
6/29/2021 11:15:00 AM 22.64 72.752 0.034 6.85 2.9 8.16
6/29/2021 11:30:00 AM 22.77 72.986 0.034 6.86 2.98 8.19
6/29/2021 11:45:00 AM 22.98 73.364 0.034 6.85 3.22 8.16
6/29/2021 12:00:00 PM 23.19 73.742 0.034 6.85 2.77 8.15
6/29/2021 12:15:00 PM 23.49 74.282 0.034 6.87 2.81 8.13
6/29/2021 12:30:00 PM 23.72 74.696 0.034 6.88 2.76 8.15
6/29/2021 12:45:00 PM 23.96 75.128 0.034 6.88 2.68 8.08
6/29/2021 1:00:00 PM 24.18 75.524 0.034 6.88 2.75 8.1
6/29/2021 1:15:00 PM 24.51 76.118 0.033 6.9 2.85 8.11
6/29/2021 1:30:00 PM 24.79 76.622 0.033 6.9 2.73 8.05
6/29/2021 1:45:00 PM 25.15 77.27 0.033 6.91 2.72 8.02
6/29/2021 2:00:00 PM 25.37 77.666 0.033 6.91 2.64 8.01
6/29/2021 2:15:00 PM 25.66 78.188 0.033 6.91 2.83 7.98
6/29/2021 2:30:00 PM 25.96 78.728 0.033 6.92 2.96 7.94
6/29/2021 2:45:00 PM 26.28 79.304 0.033 6.92 2.76 7.89
6/29/2021 3:00:00 PM 26.57 79.826 0.033 6.93 2.88 7.86
6/29/2021 3:15:00 PM 26.87 80.366 0.033 6.93 2.52 7.84
6/29/2021 3:30:00 PM 27.14 80.852 0.033 6.93 2.69 7.76
6/29/2021 3:45:00 PM 27.34 81.212 0.033 6.94 2.64 7.76
6/29/2021 4:00:00 PM 27.54 81.57201 0.033 6.93 2.73 7.7
6/29/2021 4:15:00 PM 27.77 81.986 0.033 6.92 2.56 7.64
6/29/2021 4:30:00 PM 27.93 82.274 0.033 6.93 2.53 7.61
6/29/2021 4:45:00 PM 28 82.4 0.033 6.94 2.5 7.56
6/29/2021 5:00:00 PM 28.06 82.508 0.033 6.93 2.65 7.53
6/29/2021 5:15:00 PM 28.15 82.67 0.033 6.94 2.64 7.49
6/29/2021 5:30:00 PM 28.24 82.832 0.033 6.93 2.55 7.5
6/29/2021 5:45:00 PM 28.3 82.94 0.033 6.94 2.76 7.48
6/29/2021 6:00:00 PM 28.29 82.922 0.034 6.94 2.54 7.49
6/29/2021 6:15:00 PM 28.22 82.796 0.034 6.93 2.68 7.47
6/29/2021 6:30:00 PM 28.06 82.508 0.034 6.92 2.64 7.43
6/29/2021 6:45:00 PM 27.97 82.346 0.034 6.91 2.94 7.41
6/29/2021 7:00:00 PM 27.83 82.094 0.034 6.91 2.53 7.41
6/29/2021 7:15:00 PM 27.7 81.86 0.034 6.9 2.55 7.38
6/29/2021 7:30:00 PM 27.53 81.554 0.034 6.88 3.54 7.34
6/29/2021 7:45:00 PM 27.28 81.104 0.034 6.87 2.57 7.29
6/29/2021 8:00:00 PM 27.06 80.708 0.034 6.86 2.61 7.26
6/29/2021 8:15:00 PM 26.79 80.222 0.034 6.84 2.53 7.21
6/29/2021 8:30:00 PM 26.54 79.772 0.034 6.83 2.7 7.16
6/29/2021 8:45:00 PM 26.32 79.376 0.035 6.81 3.12 7.13
6/29/2021 9:00:00 PM 26.1 78.98 0.035 6.8 2.93 7.09
6/29/2021 9:15:00 PM 25.9 78.62 0.035 6.78 2.73 7.06
6/29/2021 9:30:00 PM 25.72 78.296 0.035 6.77 2.92 7.04
6/29/2021 9:45:00 PM 25.5 77.9 0.035 6.76 2.72 7.01
6/29/2021 10:00:00 PM 25.34 77.612 0.035 6.75 2.91 7
6/29/2021 10:15:00 PM 25.15 77.27 0.035 6.74 2.71 7
6/29/2021 10:30:00 PM 25 77 0.035 6.73 2.97 6.97
6/29/2021 10:45:00 PM 24.83 76.694 0.035 6.72 2.79 6.99
6/29/2021 11:00:00 PM 24.65 76.37 0.035 6.73 3.04 7.02
6/29/2021 11:15:00 PM 24.5 76.1 0.035 6.73 2.91 7.04
6/29/2021 11:30:00 PM 24.35 75.83 0.036 6.71 2.86 7.04
6/29/2021 11:45:00 PM 24.16 75.488 0.035 6.73 3.25 7.13
6/30/2021 12:00:00 AM 24.01 75.218 0.039 6.74 8.25 7.14
6/30/2021 12:15:00 AM 23.72 74.696 0.044 6.76 14.44 7.25
6/30/2021 12:30:00 AM 23.49 74.282 0.055 6.8 27.2 7.27
6/30/2021 12:45:00 AM 23.16 73.688 0.065 6.84 40.99 7.29
6/30/2021 1:00:00 AM 22.97 73.346 0.061 6.85 39.87 7.31
6/30/2021 1:15:00 AM 22.8 73.04 0.053 6.83 29.73 7.34
6/30/2021 1:30:00 AM 22.63 72.734 0.046 6.8 19.52 7.41
6/30/2021 1:45:00 AM 22.49 72.482 0.041 6.76 12.52 7.44
6/30/2021 2:00:00 AM 22.33 72.194 0.038 6.74 8.89 7.45
6/30/2021 2:15:00 AM 22.19 71.942 0.036 6.72 7.04 7.48
6/30/2021 2:30:00 AM 22.09 71.762 0.035 6.71 8.2 7.5
6/30/2021 2:45:00 AM 22 71.6 0.037 6.73 11.03 7.54
6/30/2021 3:00:00 AM 21.97 71.546 0.037 6.75 12.22 7.57
6/30/2021 3:15:00 AM 21.96 71.528 0.034 6.74 15.29 7.6
6/30/2021 3:30:00 AM 21.91 71.438 0.032 6.73 15.12 7.65
6/30/2021 3:45:00 AM 21.82 71.276 0.031 6.72 13.34 7.69
6/30/2021 4:00:00 AM 21.68 71.024 0.03 6.71 14.2 7.73
6/30/2021 4:15:00 AM 21.49 70.682 0.03 6.71 13.32 7.78
6/30/2021 4:30:00 AM 21.27 70.286 0.031 6.7 19.25 7.83
6/30/2021 4:45:00 AM 21.06 69.908 0.031 6.7 19.77 7.87
6/30/2021 5:00:00 AM 20.89 69.602 0.031 6.69 20.99 7.91
6/30/2021 5:15:00 AM 20.75 69.35 0.03 6.68 24.46 7.95
6/30/2021 5:30:00 AM 20.65 69.17 0.03 6.67 24.4 7.97
6/30/2021 5:45:00 AM 20.55 68.99 0.03 6.66 27.23 8
6/30/2021 6:00:00 AM 20.48 68.864 0.03 6.66 24.96 8.02
6/30/2021 6:15:00 AM 20.44 68.792 0.03 6.66 21.83 8.03
6/30/2021 6:30:00 AM 20.45 68.81 0.03 6.67 17.41 8.05
6/30/2021 6:45:00 AM 20.5 68.9 0.029 6.67 14.51 8.05
6/30/2021 7:00:00 AM 20.58 69.044 0.029 6.67 13.04 8.06
6/30/2021 7:15:00 AM 20.66 69.188 0.029 6.68 12.42 8.07
6/30/2021 7:30:00 AM 20.76 69.368 0.028 6.68 10.99 8.08
6/30/2021 7:45:00 AM 20.86 69.548 0.028 6.68 10.51 8.09
6/30/2021 8:00:00 AM 20.96 69.728 0.028 6.69 10.17 8.1
6/30/2021 8:15:00 AM 21.05 69.89 0.027 6.69 10.29 8.11
6/30/2021 8:30:00 AM 21.14 70.052 0.027 6.69 10.13 8.12
6/30/2021 8:45:00 AM 21.22 70.196 0.027 6.69 9.56 8.13
6/30/2021 9:00:00 AM 21.31 70.358 0.026 6.7 9.94 8.13
6/30/2021 9:15:00 AM 21.42 70.556 0.026 6.69 9.46 8.13
6/30/2021 9:30:00 AM 21.56 70.808 0.025 6.7 9.07 8.12
6/30/2021 9:45:00 AM 21.73 71.114 0.025 6.7 8.96 8.12
6/30/2021 10:00:00 AM 21.93 71.474 0.025 6.71 8.22 8.11
6/30/2021 10:15:00 AM 22.13 71.834 0.025 6.72 8.54 8.09
6/30/2021 10:30:00 AM 22.37 72.266 0.024 6.72 8.25 8.07
6/30/2021 10:45:00 AM 22.61 72.698 0.024 6.73 8.18 8.05
6/30/2021 11:00:00 AM 22.85 73.13 0.024 6.74 8.03 8.03
6/30/2021 11:15:00 AM 23.09 73.562 0.024 6.75 7.8 8
6/30/2021 11:30:00 AM 23.36 74.048 0.024 6.75 8.17 7.98
6/30/2021 11:45:00 AM 23.61 74.498 0.024 6.76 7.27 7.95
6/30/2021 12:00:00 PM 23.85 74.93 0.024 6.77 7.76 7.93
6/30/2021 12:15:00 PM 24.09 75.362 0.024 6.78 7.81 7.9
6/30/2021 12:30:00 PM 24.32 75.776 0.024 6.79 7.63 7.88
6/30/2021 12:45:00 PM 24.55 76.19 0.024 6.79 7.82 7.85
6/30/2021 1:00:00 PM 24.77 76.586 0.024 6.8 7.55 7.82
6/30/2021 1:15:00 PM 24.99 76.982 0.024 6.8 7.61 7.8
6/30/2021 1:30:00 PM 25.16 77.288 0.024 6.81 7.39 7.76
6/30/2021 1:45:00 PM 25.33 77.594 0.024 6.82 7.42 7.74
6/30/2021 2:00:00 PM 25.52 77.936 0.024 6.82 7.24 7.72
6/30/2021 2:15:00 PM 25.71 78.278 0.024 6.82 6.57 7.69
6/30/2021 2:30:00 PM 25.9 78.62 0.024 6.82 6.73 7.66
6/30/2021 2:45:00 PM 26.06 78.908 0.024 6.82 6.31 7.64
6/30/2021 3:00:00 PM 26.13 79.034 0.024 6.82 6.18 7.6
6/30/2021 3:15:00 PM 26.06 78.908 0.024 6.81 5.97 7.54
6/30/2021 3:30:00 PM 25.89 78.602 0.024 6.79 6.05 7.48
6/30/2021 3:45:00 PM 25.74 78.332 0.024 6.77 5.88 7.45
6/30/2021 4:00:00 PM 25.75 78.35 0.024 6.77 5.63 7.46
6/30/2021 4:15:00 PM 25.77 78.386 0.024 6.78 5.49 7.48
6/30/2021 4:30:00 PM 25.74 78.332 0.024 6.78 5.62 7.48
6/30/2021 4:45:00 PM 25.63 78.134 0.024 6.77 5.48 7.46
6/30/2021 5:00:00 PM 25.52 77.936 0.024 6.76 5.39 7.45
6/30/2021 5:15:00 PM 25.43 77.774 0.024 6.76 5.07 7.43
6/30/2021 5:30:00 PM 25.35 77.63 0.024 6.74 5.45 7.39
6/30/2021 5:45:00 PM 25.25 77.45 0.024 6.73 5.01 7.36
6/30/2021 6:00:00 PM 25.13 77.234 0.024 6.72 4.9 7.35
6/30/2021 6:15:00 PM 25.01 77.018 0.024 6.71 4.99 7.34
6/30/2021 6:30:00 PM 24.91 76.838 0.024 6.7 4.94 7.33
6/30/2021 6:45:00 PM 24.83 76.694 0.024 6.69 5.18 7.34
6/30/2021 7:00:00 PM 24.76 76.568 0.024 6.69 5.04 7.34
6/30/2021 7:15:00 PM 24.66 76.388 0.024 6.69 5.8 7.36
6/30/2021 7:30:00 PM 24.57 76.226 0.025 6.69 6 7.36
6/30/2021 7:45:00 PM 24.52 76.136 0.024 6.69 4.99 7.38
6/30/2021 8:00:00 PM 24.47 76.046 0.024 6.68 4.52 7.38
6/30/2021 8:15:00 PM 24.41 75.938 0.024 6.68 4.94 7.38
6/30/2021 8:30:00 PM 24.35 75.83 0.024 6.67 4.6 7.39
6/30/2021 8:45:00 PM 24.28 75.704 0.024 6.66 4.99 7.38
6/30/2021 9:00:00 PM 24.2 75.56 0.025 6.66 4.63 7.38
6/30/2021 9:15:00 PM 24.13 75.434 0.024 6.66 4.86 7.38
6/30/2021 9:30:00 PM 24.07 75.326 0.025 6.66 4.91 7.39
6/30/2021 9:45:00 PM 24 75.2 0.024 6.65 5.03 7.39
6/30/2021 10:00:00 PM 23.93 75.074 0.024 6.65 4.69 7.4
6/30/2021 10:15:00 PM 23.86 74.948 0.025 6.64 4.77 7.4
6/30/2021 10:30:00 PM 23.79 74.82201 0.025 6.65 4.72 7.41
6/30/2021 10:45:00 PM 23.72 74.696 0.025 6.64 4.79 7.43
6/30/2021 11:00:00 PM 23.65 74.57 0.025 6.64 5.24 7.43
6/30/2021 11:15:00 PM 23.58 74.444 0.025 6.64 4.67 7.45
6/30/2021 11:30:00 PM 23.51 74.318 0.025 6.64 4.77 7.46
6/30/2021 11:45:00 PM 23.44 74.192 0.025 6.64 4.68 7.47
7/1/2021 12:00:00 AM 23.37 74.066 0.025 6.64 4.84 7.48
7/1/2021 12:15:00 AM 23.29 73.922 0.025 6.63 4.88 7.49
7/1/2021 12:30:00 AM 23.22 73.796 0.025 6.64 4.92 7.5
7/1/2021 12:45:00 AM 23.16 73.688 0.025 6.64 4.7 7.52
7/1/2021 1:00:00 AM 23.08 73.544 0.025 6.64 4.6 7.53
7/1/2021 1:15:00 AM 23 73.4 0.025 6.64 4.83 7.53
7/1/2021 1:30:00 AM 22.93 73.274 0.025 6.64 4.58 7.55
7/1/2021 1:45:00 AM 22.86 73.148 0.025 6.64 4.78 7.56
7/1/2021 2:00:00 AM 22.78 73.004 0.026 6.64 5.05 7.57
7/1/2021 2:15:00 AM 22.71 72.878 0.026 6.64 4.57 7.58
7/1/2021 2:30:00 AM 22.64 72.752 0.026 6.63 5.16 7.58
7/1/2021 2:45:00 AM 22.58 72.644 0.026 6.64 4.66 7.6
7/1/2021 3:00:00 AM 22.51 72.518 0.026 6.64 4.78 7.61
7/1/2021 3:15:00 AM 22.45 72.41 0.026 6.64 4.97 7.61
7/1/2021 3:30:00 AM 22.39 72.302 0.026 6.63 5.01 7.62
7/1/2021 3:45:00 AM 22.33 72.194 0.026 6.64 4.85 7.64
7/1/2021 4:00:00 AM 22.28 72.104 0.026 6.64 4.73 7.64
7/1/2021 4:15:00 AM 22.22 71.996 0.026 6.64 4.86 7.65
7/1/2021 4:30:00 AM 22.17 71.906 0.026 6.64 4.82 7.66
7/1/2021 4:45:00 AM 22.12 71.816 0.026 6.63 4.98 7.67
7/1/2021 5:00:00 AM 22.07 71.726 0.026 6.63 4.86 7.67
7/1/2021 5:15:00 AM 22.03 71.654 0.026 6.64 4.96 7.68
7/1/2021 5:30:00 AM 21.99 71.582 0.026 6.64 4.98 7.69
7/1/2021 5:45:00 AM 21.94 71.492 0.026 6.63 4.5 7.69
7/1/2021 6:00:00 AM 21.89 71.402 0.026 6.63 4.85 7.69
7/1/2021 6:15:00 AM 21.85 71.33 0.026 6.62 4.84 7.7
7/1/2021 6:30:00 AM 21.81 71.258 0.026 6.63 4.95 7.72
7/1/2021 6:45:00 AM 21.74 71.132 0.026 6.63 4.85 7.74
7/1/2021 7:00:00 AM 21.63 70.934 0.029 6.66 9.07 7.76
7/1/2021 7:15:00 AM 21.54 70.772 0.03 6.68 8.25 7.78
7/1/2021 7:30:00 AM 21.5 70.7 0.028 6.68 7.37 7.81
7/1/2021 7:45:00 AM 21.46 70.628 0.027 6.67 6.31 7.83
7/1/2021 8:00:00 AM 21.42 70.556 0.027 6.68 5.67 7.84
7/1/2021 8:15:00 AM 21.38 70.484 0.027 6.68 5.18 7.86
7/1/2021 8:30:00 AM 21.31 70.358 0.027 6.69 5.67 7.88
7/1/2021 8:45:00 AM 21.24 70.232 0.027 6.7 5.73 7.91
7/1/2021 9:00:00 AM 21.2 70.16 0.027 6.71 5.77 7.93
7/1/2021 9:15:00 AM 21.15 70.07 0.027 6.72 6.46 7.96
7/1/2021 9:30:00 AM 21.11 69.998 0.027 6.73 6.38 7.99
7/1/2021 9:45:00 AM 21.03 69.854 0.027 6.74 6.45 8.03
7/1/2021 10:00:00 AM 20.89 69.602 0.027 6.74 7.55 8.06
7/1/2021 10:15:00 AM 20.81 69.458 0.027 6.74 7.29 8.09
7/1/2021 10:30:00 AM 20.77 69.386 0.027 6.74 6.73 8.1
7/1/2021 10:45:00 AM 20.75 69.35 0.026 6.74 7.47 8.13
7/1/2021 11:00:00 AM 20.74 69.332 0.026 6.74 7.66 8.15
7/1/2021 11:15:00 AM 20.74 69.332 0.026 6.75 8 8.17
7/1/2021 11:30:00 AM 20.74 69.332 0.026 6.75 8.23 8.18
7/1/2021 11:45:00 AM 20.75 69.35 0.026 6.75 8.56 8.18
7/1/2021 12:00:00 PM 20.76 69.368 0.026 6.75 8.95 8.18
7/1/2021 12:15:00 PM 20.81 69.458 0.026 6.75 10.76 8.2
7/1/2021 12:30:00 PM 20.87 69.566 0.025 6.76 9.95 8.22
7/1/2021 12:45:00 PM 20.89 69.602 0.025 6.76 10.27 8.23
7/1/2021 1:00:00 PM 20.86 69.548 0.025 6.75 10.12 8.22
7/1/2021 1:15:00 PM 20.81 69.458 0.025 6.75 10.05 8.22
7/1/2021 1:30:00 PM 20.77 69.386 0.025 6.74 9.55 8.22
7/1/2021 1:45:00 PM 20.73 69.314 0.025 6.74 8.95 8.22
7/1/2021 2:00:00 PM 20.68 69.224 0.025 6.73 8.48 8.21
7/1/2021 2:15:00 PM 20.64 69.152 0.025 6.72 8.04 8.21
7/1/2021 2:30:00 PM 20.58 69.044 0.025 6.71 8.34 8.2
7/1/2021 2:45:00 PM 20.52 68.936 0.025 6.71 7.48 8.18
7/1/2021 3:00:00 PM 20.47 68.846 0.025 6.7 7.27 8.17
7/1/2021 3:15:00 PM 20.42 68.756 0.025 6.69 7.91 8.17
7/1/2021 3:30:00 PM 20.38 68.684 0.025 6.69 7.65 8.17
7/1/2021 3:45:00 PM 20.34 68.612 0.025 6.68 7.68 8.16
7/1/2021 4:00:00 PM 20.34 68.612 0.025 6.68 8.13 8.18
7/1/2021 4:15:00 PM 20.35 68.63 0.025 6.69 8.78 8.2
7/1/2021 4:30:00 PM 20.35 68.63 0.025 6.7 9.24 8.21
7/1/2021 4:45:00 PM 20.34 68.612 0.026 6.69 10.21 8.2
7/1/2021 5:00:00 PM 20.33 68.594 0.026 6.7 9.3 8.2
7/1/2021 5:15:00 PM 20.34 68.612 0.026 6.7 9.76 8.21
7/1/2021 5:30:00 PM 20.34 68.612 0.025 6.7 9.29 8.21
7/1/2021 5:45:00 PM 20.33 68.594 0.025 6.69 9.67 8.2
7/1/2021 6:00:00 PM 20.33 68.594 0.025 6.68 9.05 8.2
7/1/2021 6:15:00 PM 20.33 68.594 0.025 6.67 9.47 8.19
7/1/2021 6:30:00 PM 20.31 68.558 0.025 6.67 8.83 8.18
7/1/2021 6:45:00 PM 20.29 68.522 0.025 6.65 8.7 8.17
7/1/2021 7:00:00 PM 20.27 68.486 0.025 6.64 8.84 8.16
7/1/2021 7:15:00 PM 20.23 68.414 0.024 6.63 9.33 8.14
7/1/2021 7:30:00 PM 20.19 68.342 0.024 6.62 9.24 8.14
7/1/2021 7:45:00 PM 20.16 68.288 0.024 6.62 9.45 8.14
7/1/2021 8:00:00 PM 20.12 68.216 0.024 6.61 10.48 8.15
7/1/2021 8:15:00 PM 20.08 68.144 0.024 6.6 10.47 8.15
7/1/2021 8:30:00 PM 20.04 68.07201 0.024 6.59 11.02 8.15
7/1/2021 8:45:00 PM 19.99 67.982 0.024 6.58 10.73 8.15
7/1/2021 9:00:00 PM 19.94 67.892 0.024 6.57 10.83 8.16
7/1/2021 9:15:00 PM 19.9 67.82 0.024 6.57 12.13 8.16
7/1/2021 9:30:00 PM 19.85 67.73 0.024 6.56 9.71 8.17
7/1/2021 9:45:00 PM 19.8 67.64 0.024 6.55 9.39 8.18
7/1/2021 10:00:00 PM 19.76 67.568 0.023 6.55 8.92 8.18
7/1/2021 10:15:00 PM 19.73 67.514 0.023 6.54 8.63 8.19
7/1/2021 10:30:00 PM 19.7 67.46 0.023 6.54 8.7 8.19
7/1/2021 10:45:00 PM 19.67 67.406 0.023 6.53 8.55 8.2
7/1/2021 11:00:00 PM 19.64 67.352 0.023 6.52 8.29 8.2
7/1/2021 11:15:00 PM 19.61 67.298 0.023 6.51 8.16 8.21
7/1/2021 11:30:00 PM 19.58 67.244 0.023 6.51 7.75 8.21
7/1/2021 11:45:00 PM 19.55 67.19 0.023 6.51 7.94 8.21
7/2/2021 12:00:00 AM 19.52 67.136 0.023 6.51 8.07 8.22
7/2/2021 12:15:00 AM 19.5 67.1 0.023 6.51 7.6 8.22
7/2/2021 12:30:00 AM 19.47 67.046 0.023 6.51 7.62 8.23
7/2/2021 12:45:00 AM 19.44 66.992 0.023 6.51 7.37 8.23
7/2/2021 1:00:00 AM 19.41 66.938 0.023 6.5 7.18 8.23
7/2/2021 1:15:00 AM 19.39 66.902 0.023 6.5 7.31 8.23
7/2/2021 1:30:00 AM 19.36 66.848 0.023 6.5 6.9 8.24
7/2/2021 1:45:00 AM 19.33 66.794 0.023 6.49 7.03 8.24
7/2/2021 2:00:00 AM 19.3 66.74 0.023 6.49 6.85 8.25
7/2/2021 2:15:00 AM 19.27 66.686 0.023 6.49 6.7 8.25
7/2/2021 2:30:00 AM 19.23 66.614 0.023 6.49 6.65 8.26
7/2/2021 2:45:00 AM 19.19 66.542 0.023 6.48 6.54 8.26
7/2/2021 3:00:00 AM 19.16 66.488 0.023 6.49 6.33 8.27
7/2/2021 3:15:00 AM 19.13 66.434 0.023 6.48 6.45 8.27
7/2/2021 3:30:00 AM 19.09 66.362 0.022 6.49 6.66 8.28
7/2/2021 3:45:00 AM 19.06 66.308 0.022 6.48 6.37 8.28
7/2/2021 4:00:00 AM 19.02 66.236 0.022 6.48 6.38 8.28
7/2/2021 4:15:00 AM 18.99 66.182 0.023 6.49 6.05 8.29
7/2/2021 4:30:00 AM 18.96 66.128 0.023 6.5 5.91 8.3
7/2/2021 4:45:00 AM 18.93 66.074 0.022 6.49 6.02 8.3
7/2/2021 5:00:00 AM 18.9 66.02 0.022 6.51 5.99 8.31
7/2/2021 5:15:00 AM 18.87 65.966 0.023 6.51 6.24 8.31
7/2/2021 5:30:00 AM 18.85 65.93 0.022 6.51 6.23 8.32
7/2/2021 5:45:00 AM 18.82 65.876 0.022 6.51 6.08 8.33
7/2/2021 6:00:00 AM 18.79 65.82201 0.022 6.51 6.3 8.33
7/2/2021 6:15:00 AM 18.76 65.768 0.023 6.52 6.24 8.33
7/2/2021 6:30:00 AM 18.73 65.714 0.022 6.52 5.82 8.35
7/2/2021 6:45:00 AM 18.7 65.66 0.023 6.52 6.12 8.36
7/2/2021 7:00:00 AM 18.66 65.588 0.023 6.52 5.78 8.37
7/2/2021 7:15:00 AM 18.64 65.552 0.023 6.53 5.81 8.39
7/2/2021 7:30:00 AM 18.63 65.534 0.022 6.53 7.15 8.41
7/2/2021 7:45:00 AM 18.62 65.516 0.022 6.53 5.77 8.43
7/2/2021 8:00:00 AM 18.61 65.498 0.023 6.53 5.56 8.44
7/2/2021 8:15:00 AM 18.59 65.462 0.023 6.54 5.87 8.46
7/2/2021 8:30:00 AM 18.59 65.462 0.023 6.54 5.54 8.47
7/2/2021 8:45:00 AM 18.58 65.444 0.023 6.54 5.29 8.48
7/2/2021 9:00:00 AM 18.58 65.444 0.023 6.55 5.1 8.49
7/2/2021 9:15:00 AM 18.59 65.462 0.022 6.55 5.54 8.51
7/2/2021 9:30:00 AM 18.61 65.498 0.022 6.55 5.45 8.52
7/2/2021 9:45:00 AM 18.63 65.534 0.023 6.55 5.15 8.52
7/2/2021 10:00:00 AM 18.62 65.516 0.023 6.55 5.29 8.52
7/2/2021 10:15:00 AM 18.64 65.552 0.022 6.56 5.34 8.54
7/2/2021 10:30:00 AM 18.69 65.642 0.022 6.57 5.24 8.55
7/2/2021 10:45:00 AM 18.73 65.714 0.023 6.57 5.17 8.56
7/2/2021 11:00:00 AM 18.79 65.82201 0.022 6.57 5.12 8.57
7/2/2021 11:15:00 AM 18.87 65.966 0.022 6.58 5.02 8.58
7/2/2021 11:30:00 AM 19.09 66.362 0.022 6.58 5.21 8.57
7/2/2021 11:45:00 AM 19.2 66.56 0.022 6.59 5.34 8.55
7/2/2021 12:00:00 PM 19.17 66.506 0.023 6.59 5.27 8.54
7/2/2021 12:15:00 PM 19.13 66.434 0.023 6.59 5.35 8.54
7/2/2021 12:30:00 PM 19.09 66.362 0.023 6.59 4.92 8.54
7/2/2021 12:45:00 PM 19.13 66.434 0.022 6.6 4.82 8.54
7/2/2021 1:00:00 PM 19.2 66.56 0.022 6.6 4.84 8.55
7/2/2021 1:15:00 PM 19.29 66.722 0.022 6.6 4.79 8.53
7/2/2021 1:30:00 PM 19.38 66.884 0.023 6.6 5.23 8.53
7/2/2021 1:45:00 PM 19.48 67.064 0.023 6.61 4.82 8.53
7/2/2021 2:00:00 PM 19.58 67.244 0.023 6.61 5.02 8.52
7/2/2021 2:15:00 PM 19.7 67.46 0.022 6.62 4.77 8.51
7/2/2021 2:30:00 PM 19.93 67.874 0.023 6.62 4.79 8.49
7/2/2021 2:45:00 PM 20.1 68.18 0.022 6.62 4.85 8.46
7/2/2021 3:00:00 PM 20.17 68.306 0.023 6.62 4.81 8.44
7/2/2021 3:15:00 PM 20.25 68.45 0.022 6.62 4.86 8.42
7/2/2021 3:30:00 PM 20.22 68.396 0.022 6.63 4.98 8.4
7/2/2021 3:45:00 PM 20.13 68.234 0.023 6.62 4.6 8.38
7/2/2021 4:00:00 PM 20.07 68.126 0.023 6.62 4.98 8.37
7/2/2021 4:15:00 PM 20.06 68.108 0.023 6.62 4.75 8.37
7/2/2021 4:30:00 PM 20.15 68.27 0.022 6.63 4.7 8.37
7/2/2021 4:45:00 PM 20.25 68.45 0.023 6.62 4.88 8.37
7/2/2021 5:00:00 PM 20.26 68.468 0.022 6.63 4.92 8.36
7/2/2021 5:15:00 PM 20.17 68.306 0.023 6.62 4.91 8.34
7/2/2021 5:30:00 PM 20.09 68.162 0.022 6.62 4.74 8.33
7/2/2021 5:45:00 PM 20.04 68.07201 0.023 6.61 4.91 8.31
7/2/2021 6:00:00 PM 20.01 68.018 0.023 6.6 4.62 8.3
7/2/2021 6:15:00 PM 19.92 67.856 0.022 6.61 4.88 8.29
7/2/2021 6:30:00 PM 19.81 67.658 0.023 6.59 4.83 8.28
7/2/2021 6:45:00 PM 19.7 67.46 0.023 6.59 4.6 8.27
7/2/2021 7:00:00 PM 19.63 67.334 0.023 6.59 4.73 8.28
7/2/2021 7:15:00 PM 19.59 67.262 0.023 6.59 4.59 8.28
7/2/2021 7:30:00 PM 19.54 67.172 0.023 6.59 4.67 8.28
7/2/2021 7:45:00 PM 19.47 67.046 0.023 6.58 4.66 8.28
7/2/2021 8:00:00 PM 19.4 66.92 0.023 6.57 4.74 8.27
7/2/2021 8:15:00 PM 19.31 66.758 0.023 6.57 4.7 8.26
7/2/2021 8:30:00 PM 19.22 66.596 0.022 6.57 4.81 8.26
7/2/2021 8:45:00 PM 19.12 66.416 0.023 6.56 4.62 8.25
7/2/2021 9:00:00 PM 19.03 66.254 0.023 6.55 4.85 8.26
7/2/2021 9:15:00 PM 18.94 66.092 0.023 6.54 4.86 8.26
7/2/2021 9:30:00 PM 18.87 65.966 0.023 6.55 4.88 8.27
7/2/2021 9:45:00 PM 18.79 65.82201 0.023 6.54 4.7 8.28
7/2/2021 10:00:00 PM 18.72 65.696 0.023 6.54 4.92 8.29
7/2/2021 10:15:00 PM 18.66 65.588 0.023 6.54 4.51 8.3
7/2/2021 10:30:00 PM 18.59 65.462 0.023 6.54 4.72 8.31
7/2/2021 10:45:00 PM 18.52 65.336 0.023 6.52 4.38 8.31
7/2/2021 11:00:00 PM 18.47 65.246 0.023 6.54 4.38 8.34
7/2/2021 11:15:00 PM 18.42 65.156 0.023 6.54 4.49 8.35
7/2/2021 11:30:00 PM 18.37 65.066 0.023 6.53 4.51 8.35
7/2/2021 11:45:00 PM 18.32 64.976 0.023 6.53 4.63 8.36
7/3/2021 12:00:00 AM 18.28 64.904 0.023 6.53 4.38 8.37
7/3/2021 12:15:00 AM 18.23 64.814 0.023 6.53 4.41 8.38
7/3/2021 12:30:00 AM 18.2 64.76 0.023 6.53 4.46 8.38
7/3/2021 12:45:00 AM 18.16 64.688 0.023 6.53 4.43 8.39
7/3/2021 1:00:00 AM 18.13 64.634 0.023 6.53 4.48 8.4
7/3/2021 1:15:00 AM 18.09 64.562 0.023 6.53 4.49 8.4
7/3/2021 1:30:00 AM 18.05 64.49 0.023 6.54 4.43 8.41
7/3/2021 1:45:00 AM 18 64.4 0.023 6.53 4.25 8.42
7/3/2021 2:00:00 AM 17.98 64.364 0.023 6.54 4.59 8.43
7/3/2021 2:15:00 AM 17.94 64.292 0.024 6.53 4.44 8.43
7/3/2021 2:30:00 AM 17.91 64.238 0.024 6.54 4.64 8.43
7/3/2021 2:45:00 AM 17.88 64.184 0.024 6.54 4.28 8.44
7/3/2021 3:00:00 AM 17.84 64.112 0.023 6.54 4.41 8.45
7/3/2021 3:15:00 AM 17.81 64.058 0.023 6.54 4.5 8.46
7/3/2021 3:30:00 AM 17.78 64.004 0.024 6.54 4.69 8.45
7/3/2021 3:45:00 AM 17.75 63.95 0.024 6.54 4.52 8.46
7/3/2021 4:00:00 AM 17.72 63.896 0.023 6.55 4.62 8.48
7/3/2021 4:15:00 AM 17.69 63.842 0.024 6.55 4.39 8.48
7/3/2021 4:30:00 AM 17.66 63.788 0.024 6.54 4.48 8.48
7/3/2021 4:45:00 AM 17.63 63.734 0.024 6.54 4.38 8.49
7/3/2021 5:00:00 AM 17.6 63.68 0.024 6.54 4.36 8.49
7/3/2021 5:15:00 AM 17.57 63.626 0.023 6.54 4.21 8.5
7/3/2021 5:30:00 AM 17.54 63.572 0.023 6.55 4.55 8.51
7/3/2021 5:45:00 AM 17.51 63.518 0.024 6.55 4.37 8.51
7/3/2021 6:00:00 AM 17.48 63.464 0.024 6.55 4.53 8.52
7/3/2021 6:15:00 AM 17.44 63.392 0.024 6.54 4.45 8.52
7/3/2021 6:30:00 AM 17.42 63.356 0.023 6.56 4.42 8.56
7/3/2021 6:45:00 AM 17.39 63.302 0.025 6.57 5.76 8.56
7/3/2021 7:00:00 AM 17.38 63.284 0.025 6.56 4.51 8.57
7/3/2021 7:15:00 AM 17.37 63.266 0.024 6.56 4.54 8.59
7/3/2021 7:30:00 AM 17.36 63.248 0.024 6.57 4.63 8.6
7/3/2021 7:45:00 AM 17.34 63.212 0.024 6.58 4.68 8.63
7/3/2021 8:00:00 AM 17.35 63.23 0.024 6.58 4.51 8.65
7/3/2021 8:15:00 AM 17.35 63.23 0.024 6.59 4.48 8.66
7/3/2021 8:30:00 AM 17.33 63.194 0.024 6.59 4.85 8.67
7/3/2021 8:45:00 AM 17.33 63.194 0.024 6.6 4.77 8.69
7/3/2021 9:00:00 AM 17.35 63.23 0.024 6.6 4.46 8.72
7/3/2021 9:15:00 AM 17.38 63.284 0.023 6.61 4.93 8.74
7/3/2021 9:30:00 AM 17.38 63.284 0.023 6.61 4.63 8.74
7/3/2021 9:45:00 AM 17.38 63.284 0.023 6.62 4.64 8.75
7/3/2021 10:00:00 AM 17.4 63.32 0.023 6.63 5.18 8.77
7/3/2021 10:15:00 AM 17.45 63.41 0.023 6.64 5.17 8.79
7/3/2021 10:30:00 AM 17.51 63.518 0.024 6.64 5.35 8.8
7/3/2021 10:45:00 AM 17.55 63.59 0.024 6.65 5.35 8.8
7/3/2021 11:00:00 AM 17.6 63.68 0.024 6.65 5.03 8.8
7/3/2021 11:15:00 AM 17.67 63.806 0.024 6.66 5.16 8.8
7/3/2021 11:30:00 AM 17.77 63.986 0.024 6.66 5.11 8.79
7/3/2021 11:45:00 AM 17.89 64.202 0.024 6.67 4.99 8.8
7/3/2021 12:00:00 PM 18.01 64.418 0.024 6.68 5.07 8.8
7/3/2021 12:15:00 PM 18.12 64.616 0.024 6.68 5.2 8.79
7/3/2021 12:30:00 PM 18.3 64.94 0.024 6.69 5.34 8.78
7/3/2021 12:45:00 PM 18.35 65.03 0.024 6.69 5.19 8.74
7/3/2021 1:00:00 PM 18.36 65.048 0.024 6.7 5.04 8.73
7/3/2021 1:15:00 PM 18.17 64.706 0.024 6.7 5.88 8.72
7/3/2021 1:30:00 PM 17.96 64.328 0.029 6.74 12.54 8.67
7/3/2021 1:45:00 PM 17.98 64.364 0.026 6.72 10.38 8.69
7/3/2021 2:00:00 PM 18.07 64.526 0.025 6.7 6.78 8.7
7/3/2021 2:15:00 PM 18.21 64.778 0.025 6.69 6.3 8.72
7/3/2021 2:30:00 PM 18.23 64.814 0.025 6.69 6.75 8.7
7/3/2021 2:45:00 PM 18.16 64.688 0.025 6.68 7.15 8.67
7/3/2021 3:00:00 PM 18.08 64.544 0.025 6.68 7.02 8.65
7/3/2021 3:15:00 PM 18.05 64.49 0.026 6.68 7.33 8.65
7/3/2021 3:30:00 PM 18.08 64.544 0.026 6.68 7.3 8.66
7/3/2021 3:45:00 PM 18.04 64.472 0.026 6.67 7.11 8.65
7/3/2021 4:00:00 PM 17.93 64.274 0.028 6.69 12.99 8.65
7/3/2021 4:15:00 PM 17.87 64.166 0.028 6.67 9.99 8.66
7/3/2021 4:30:00 PM 17.88 64.184 0.026 6.63 8.27 8.68
7/3/2021 4:45:00 PM 17.94 64.292 0.027 6.62 7.95 8.68
7/3/2021 5:00:00 PM 18.01 64.418 0.027 6.63 9.5 8.69
7/3/2021 5:15:00 PM 18.02 64.436 0.027 6.63 10.27 8.69
7/3/2021 5:30:00 PM 17.96 64.328 0.027 6.62 9.75 8.67
7/3/2021 5:45:00 PM 17.87 64.166 0.026 6.6 9.19 8.67
7/3/2021 6:00:00 PM 17.78 64.004 0.026 6.59 9.16 8.66
7/3/2021 6:15:00 PM 17.74 63.932 0.025 6.57 8.97 8.66
7/3/2021 6:30:00 PM 17.7 63.86 0.025 6.56 9.29 8.65
7/3/2021 6:45:00 PM 17.66 63.788 0.025 6.54 8.87 8.63
7/3/2021 7:00:00 PM 17.65 63.77 0.024 6.54 8.44 8.64
7/3/2021 7:15:00 PM 17.66 63.788 0.024 6.53 8.77 8.64
7/3/2021 7:30:00 PM 17.64 63.752 0.024 6.53 8.89 8.64
7/3/2021 7:45:00 PM 17.62 63.716 0.024 6.52 8.43 8.65
7/3/2021 8:00:00 PM 17.58 63.644 0.024 6.51 8.05 8.64
7/3/2021 8:15:00 PM 17.56 63.608 0.023 6.51 8.37 8.64
7/3/2021 8:30:00 PM 17.54 63.572 0.023 6.5 7.96 8.62
7/3/2021 8:45:00 PM 17.51 63.518 0.023 6.49 7.74 8.61
7/3/2021 9:00:00 PM 17.49 63.482 0.023 6.49 7.38 8.61
7/3/2021 9:15:00 PM 17.47 63.446 0.023 6.48 7.59 8.61
7/3/2021 9:30:00 PM 17.45 63.41 0.023 6.48 7.06 8.6
7/3/2021 9:45:00 PM 17.42 63.356 0.023 6.47 6.83 8.61
7/3/2021 10:00:00 PM 17.39 63.302 0.023 6.47 6.84 8.61
7/3/2021 10:15:00 PM 17.36 63.248 0.023 6.46 6.3 8.62
7/3/2021 10:30:00 PM 17.32 63.176 0.023 6.47 6.12 8.62
7/3/2021 10:45:00 PM 17.28 63.104 0.023 6.46 6.13 8.63
7/3/2021 11:00:00 PM 17.24 63.032 0.023 6.46 6.46 8.63
7/3/2021 11:15:00 PM 17.21 62.978 0.023 6.46 5.97 8.64
7/3/2021 11:30:00 PM 17.17 62.906 0.023 6.47 5.78 8.65
7/3/2021 11:45:00 PM 17.14 62.852 0.023 6.46 5.6 8.65
7/4/2021 12:00:00 AM 17.11 62.798 0.023 6.46 5.59 8.66
7/4/2021 12:15:00 AM 17.08 62.744 0.023 6.46 5.39 8.66
7/4/2021 12:30:00 AM 17.05 62.69 0.023 6.45 5.37 8.67
7/4/2021 12:45:00 AM 17.02 62.636 0.023 6.46 5.55 8.68
7/4/2021 1:00:00 AM 16.98 62.564 0.023 6.46 5.51 8.68
7/4/2021 1:15:00 AM 16.93 62.474 0.023 6.46 5.49 8.69
7/4/2021 1:30:00 AM 16.89 62.402 0.023 6.45 9.12 8.69
7/4/2021 1:45:00 AM 16.85 62.33 0.023 6.45 5.36 8.7
7/4/2021 2:00:00 AM 16.8 62.24 0.023 6.45 5.32 8.71
7/4/2021 2:15:00 AM 16.75 62.15 0.023 6.46 5.67 8.71
7/4/2021 2:30:00 AM 16.71 62.078 0.023 6.46 5.22 8.73
7/4/2021 2:45:00 AM 16.65 61.97 0.023 6.45 5.3 8.73
7/4/2021 3:00:00 AM 16.6 61.88 0.023 6.45 4.97 8.74
7/4/2021 3:15:00 AM 16.56 61.808 0.023 6.46 5.24 8.75
7/4/2021 3:30:00 AM 16.51 61.718 0.023 6.46 5.3 8.75
7/4/2021 3:45:00 AM 16.47 61.646 0.023 6.46 5.13 8.77
7/4/2021 4:00:00 AM 16.42 61.556 0.023 6.46 5.18 8.77
7/4/2021 4:15:00 AM 16.37 61.466 0.023 6.46 5.15 8.78
7/4/2021 4:30:00 AM 16.31 61.358 0.023 6.45 5 8.79
7/4/2021 4:45:00 AM 16.25 61.25 0.023 6.46 5.64 8.8
7/4/2021 5:00:00 AM 16.19 61.142 0.023 6.45 4.94 8.81
7/4/2021 5:15:00 AM 16.15 61.07 0.023 6.45 5.04 8.82
7/4/2021 5:30:00 AM 16.1 60.98 0.023 6.45 5.44 8.82
7/4/2021 5:45:00 AM 16.05 60.89 0.023 6.45 4.98 8.84
7/4/2021 6:00:00 AM 16 60.8 0.023 6.45 4.92 8.85
7/4/2021 6:15:00 AM 15.96 60.728 0.023 6.45 4.91 8.86
7/4/2021 6:30:00 AM 15.93 60.674 0.023 6.46 4.99 8.88
7/4/2021 6:45:00 AM 15.88 60.584 0.023 6.45 4.95 8.89
7/4/2021 7:00:00 AM 15.86 60.548 0.023 6.46 4.67 8.92
7/4/2021 7:15:00 AM 15.83 60.494 0.023 6.46 4.63 8.94
7/4/2021 7:30:00 AM 15.82 60.476 0.023 6.47 4.69 8.95
7/4/2021 7:45:00 AM 15.82 60.476 0.023 6.47 4.7 8.98
7/4/2021 8:00:00 AM 15.84 60.512 0.023 6.47 4.72 8.99
7/4/2021 8:15:00 AM 15.85 60.53 0.023 6.48 4.56 9.01
7/4/2021 8:30:00 AM 15.88 60.584 0.023 6.48 4.45 9.03
7/4/2021 8:45:00 AM 15.97 60.746 0.023 6.49 4.39 9.04
7/4/2021 9:00:00 AM 16.07 60.926 0.023 6.49 4.38 9.04
7/4/2021 9:15:00 AM 16.14 61.052 0.023 6.5 4.43 9.04
7/4/2021 9:30:00 AM 16.21 61.178 0.023 6.5 4.75 9.03
7/4/2021 9:45:00 AM 16.33 61.394 0.023 6.5 4.59 9.03
7/4/2021 10:00:00 AM 16.45 61.61 0.023 6.51 4.39 9.01
7/4/2021 10:15:00 AM 16.59 61.862 0.023 6.51 4.26 9.01
7/4/2021 10:30:00 AM 16.73 62.114 0.023 6.52 4.11 9
7/4/2021 10:45:00 AM 16.82 62.276 0.023 6.52 4.33 8.99
7/4/2021 11:00:00 AM 16.94 62.492 0.023 6.53 4.49 8.98
7/4/2021 11:15:00 AM 17.03 62.654 0.023 6.53 4.08 8.97
7/4/2021 11:30:00 AM 17.2 62.96 0.023 6.54 4.24 8.96
7/4/2021 11:45:00 AM 17.4 63.32 0.023 6.54 4.18 8.93
7/4/2021 12:00:00 PM 17.49 63.482 0.023 6.55 4.18 8.91
7/4/2021 12:15:00 PM 17.58 63.644 0.023 6.55 4.4 8.89
7/4/2021 12:30:00 PM 17.69 63.842 0.023 6.55 4.24 8.87
7/4/2021 12:45:00 PM 17.75 63.95 0.023 6.55 4.23 8.84
7/4/2021 1:00:00 PM 17.74 63.932 0.023 6.56 4.26 8.83
7/4/2021 1:15:00 PM 17.75 63.95 0.023 6.54 4.25 8.8
7/4/2021 1:30:00 PM 17.88 64.184 0.023 6.55 4.2 8.8
7/4/2021 1:45:00 PM 18.17 64.706 0.023 6.56 4.27 8.8
7/4/2021 2:00:00 PM 18.38 65.084 0.023 6.56 4.15 8.76
7/4/2021 2:15:00 PM 18.54 65.372 0.023 6.57 4.28 8.74
7/4/2021 2:30:00 PM 18.73 65.714 0.023 6.58 4.11 8.73
7/4/2021 2:45:00 PM 18.88 65.984 0.023 6.57 4.11 8.7
7/4/2021 3:00:00 PM 19.05 66.29 0.023 6.58 4.09 8.67
7/4/2021 3:15:00 PM 19.2 66.56 0.023 6.57 4.05 8.63
7/4/2021 3:30:00 PM 19.26 66.668 0.023 6.58 4.12 8.61
7/4/2021 3:45:00 PM 19.31 66.758 0.023 6.58 3.98 8.58
7/4/2021 4:00:00 PM 19.36 66.848 0.023 6.58 3.94 8.58
7/4/2021 4:15:00 PM 19.44 66.992 0.023 6.58 3.88 8.57
7/4/2021 4:30:00 PM 19.5 67.1 0.023 6.58 3.9 8.55
7/4/2021 4:45:00 PM 19.53 67.154 0.023 6.58 3.87 8.54
7/4/2021 5:00:00 PM 19.51 67.118 0.023 6.58 4 8.52
7/4/2021 5:15:00 PM 19.51 67.118 0.023 6.58 3.9 8.5
7/4/2021 5:30:00 PM 19.5 67.1 0.023 6.58 3.95 8.5
7/4/2021 5:45:00 PM 19.49 67.082 0.023 6.58 3.9 8.49
7/4/2021 6:00:00 PM 19.43 66.974 0.023 6.58 3.86 8.48
7/4/2021 6:15:00 PM 19.37 66.866 0.023 6.57 4.13 8.46
7/4/2021 6:30:00 PM 19.32 66.776 0.022 6.57 4.04 8.47
7/4/2021 6:45:00 PM 19.23 66.614 0.022 6.56 3.93 8.46
7/4/2021 7:00:00 PM 19.14 66.452 0.023 6.55 3.91 8.45
7/4/2021 7:15:00 PM 19.06 66.308 0.023 6.54 4.06 8.43
7/4/2021 7:30:00 PM 18.98 66.164 0.023 6.54 4.25 8.42
7/4/2021 7:45:00 PM 18.89 66.002 0.023 6.52 4.1 8.41
7/4/2021 8:00:00 PM 18.82 65.876 0.023 6.51 3.85 8.4
7/4/2021 8:15:00 PM 18.76 65.768 0.023 6.51 4.02 8.39
7/4/2021 8:30:00 PM 18.7 65.66 0.023 6.5 4.35 8.39
7/4/2021 8:45:00 PM 18.65 65.57 0.023 6.5 3.94 8.39
7/4/2021 9:00:00 PM 18.6 65.48 0.023 6.5 4.03 8.39
7/4/2021 9:15:00 PM 18.53 65.354 0.023 6.49 4.13 8.39
7/4/2021 9:30:00 PM 18.48 65.264 0.023 6.49 4.15 8.39
7/4/2021 9:45:00 PM 18.42 65.156 0.023 6.49 4.01 8.39
7/4/2021 10:00:00 PM 18.37 65.066 0.023 6.48 4.1 8.4
7/4/2021 10:15:00 PM 18.31 64.958 0.023 6.48 4.1 8.42
7/4/2021 10:30:00 PM 18.25 64.85 0.023 6.48 4.34 8.42
7/4/2021 10:45:00 PM 18.19 64.742 0.023 6.47 4.4 8.43
7/4/2021 11:00:00 PM 18.13 64.634 0.023 6.47 4.49 8.44
7/4/2021 11:15:00 PM 18.07 64.526 0.023 6.47 4.29 8.46
7/4/2021 11:30:00 PM 18.01 64.418 0.023 6.47 4.53 8.46
7/4/2021 11:45:00 PM 17.95 64.31 0.023 6.47 4.06 8.47
7/5/2021 12:00:00 AM 17.89 64.202 0.023 6.47 4.1 8.49
7/5/2021 12:15:00 AM 17.82 64.076 0.023 6.47 4.19 8.49
7/5/2021 12:30:00 AM 17.77 63.986 0.023 6.46 4.2 8.5
7/5/2021 12:45:00 AM 17.69 63.842 0.024 6.46 4.08 8.5
7/5/2021 1:00:00 AM 17.63 63.734 0.024 6.46 4.09 8.52
7/5/2021 1:15:00 AM 17.57 63.626 0.023 6.47 4.06 8.54
7/5/2021 1:30:00 AM 17.51 63.518 0.023 6.47 4.12 8.55
7/5/2021 1:45:00 AM 17.45 63.41 0.023 6.46 4.23 8.56
7/5/2021 2:00:00 AM 17.39 63.302 0.023 6.47 4.11 8.57
7/5/2021 2:15:00 AM 17.32 63.176 0.023 6.47 3.76 8.58
7/5/2021 2:30:00 AM 17.26 63.068 0.024 6.46 4.02 8.59
7/5/2021 2:45:00 AM 17.21 62.978 0.023 6.47 3.87 8.61
7/5/2021 3:00:00 AM 17.14 62.852 0.024 6.47 3.97 8.6
7/5/2021 3:15:00 AM 17.09 62.762 0.023 6.47 3.9 8.62
7/5/2021 3:30:00 AM 17.02 62.636 0.024 6.47 3.85 8.63
7/5/2021 3:45:00 AM 16.96 62.528 0.024 6.47 3.9 8.64
7/5/2021 4:00:00 AM 16.9 62.42 0.024 6.47 3.77 8.65
7/5/2021 4:15:00 AM 16.83 62.294 0.024 6.47 3.97 8.66
7/5/2021 4:30:00 AM 16.77 62.186 0.024 6.47 3.85 8.67
7/5/2021 4:45:00 AM 16.7 62.06 0.025 6.47 3.91 8.69
7/5/2021 5:00:00 AM 16.63 61.934 0.024 6.47 3.78 8.69
7/5/2021 5:15:00 AM 16.57 61.826 0.024 6.47 4.05 8.72
7/5/2021 5:30:00 AM 16.51 61.718 0.024 6.48 3.93 8.72
7/5/2021 5:45:00 AM 16.44 61.592 0.025 6.47 3.91 8.74
7/5/2021 6:00:00 AM 16.38 61.484 0.024 6.48 4.07 8.76
7/5/2021 6:15:00 AM 16.32 61.376 0.024 6.48 3.93 8.77
7/5/2021 6:30:00 AM 16.26 61.268 0.025 6.48 4.06 8.79
7/5/2021 6:45:00 AM 16.22 61.196 0.024 6.49 3.83 8.82
7/5/2021 7:00:00 AM 16.19 61.142 0.024 6.49 3.85 8.86
7/5/2021 7:15:00 AM 16.18 61.124 0.024 6.51 3.74 8.9
7/5/2021 7:30:00 AM 16.17 61.106 0.024 6.51 3.78 8.92
7/5/2021 7:45:00 AM 16.19 61.142 0.024 6.52 3.83 8.95
7/5/2021 8:00:00 AM 16.22 61.196 0.025 6.53 3.67 8.97
7/5/2021 8:15:00 AM 16.26 61.268 0.024 6.53 4.07 8.99
7/5/2021 8:30:00 AM 16.32 61.376 0.025 6.53 3.62 9.01
7/5/2021 8:45:00 AM 16.41 61.538 0.025 6.56 3.76 9.04
7/5/2021 9:00:00 AM 16.48 61.664 0.025 6.56 3.85 9.04
7/5/2021 9:15:00 AM 16.58 61.844 0.025 6.57 3.7 9.05
7/5/2021 9:30:00 AM 16.68 62.024 0.025 6.57 3.75 9.04
7/5/2021 9:45:00 AM 16.81 62.258 0.025 6.57 3.87 9.05
7/5/2021 10:00:00 AM 16.96 62.528 0.025 6.59 3.82 9.05
7/5/2021 10:15:00 AM 17.13 62.834 0.024 6.6 3.92 9.04
7/5/2021 10:30:00 AM 17.3 63.14 0.025 6.61 3.97 9.04
7/5/2021 10:45:00 AM 17.47 63.446 0.025 6.61 4.08 9.02
7/5/2021 11:00:00 AM 17.65 63.77 0.025 6.61 3.62 8.99
7/5/2021 11:15:00 AM 17.84 64.112 0.024 6.63 3.71 8.98
7/5/2021 11:30:00 AM 18.03 64.454 0.025 6.63 3.58 8.96
7/5/2021 11:45:00 AM 18.24 64.832 0.025 6.63 3.6 8.93
7/5/2021 12:00:00 PM 18.48 65.264 0.025 6.65 3.65 8.91
7/5/2021 12:15:00 PM 18.68 65.624 0.025 6.65 3.49 8.88
7/5/2021 12:30:00 PM 18.87 65.966 0.024 6.66 3.95 8.84
7/5/2021 12:45:00 PM 19 66.2 0.025 6.65 3.85 8.8
7/5/2021 1:00:00 PM 19.07 66.326 0.025 6.65 3.69 8.77
7/5/2021 1:15:00 PM 19.21 66.578 0.026 6.66 3.51 8.75
7/5/2021 1:30:00 PM 19.37 66.866 0.025 6.66 3.47 8.73
7/5/2021 1:45:00 PM 19.57 67.226 0.025 6.66 3.53 8.7
7/5/2021 2:00:00 PM 19.76 67.568 0.025 6.67 3.56 8.68
7/5/2021 2:15:00 PM 19.95 67.91 0.025 6.67 3.51 8.65
7/5/2021 2:30:00 PM 20.15 68.27 0.025 6.68 3.5 8.62
7/5/2021 2:45:00 PM 20.32 68.576 0.025 6.68 4.13 8.59
7/5/2021 3:00:00 PM 20.53 68.954 0.025 6.69 3.45 8.57
7/5/2021 3:15:00 PM 20.7 69.26 0.025 6.69 3.41 8.54
7/5/2021 3:30:00 PM 20.84 69.512 0.025 6.65 3.34 8.49
7/5/2021 3:45:00 PM 20.97 69.746 0.025 6.69 3.5 8.48
7/5/2021 4:00:00 PM 21.09 69.962 0.025 6.7 3.45 8.46
7/5/2021 4:15:00 PM 21.16 70.088 0.025 6.69 3.5 8.44
7/5/2021 4:30:00 PM 21.21 70.17799 0.025 6.68 3.5 8.41
7/5/2021 4:45:00 PM 21.26 70.268 0.025 6.69 3.58 8.4
7/5/2021 5:00:00 PM 21.27 70.286 0.025 6.69 3.65 8.38
7/5/2021 5:15:00 PM 21.24 70.232 0.025 6.69 3.55 8.36
7/5/2021 5:30:00 PM 21.18 70.124 0.025 6.69 3.45 8.35
7/5/2021 5:45:00 PM 21.12 70.016 0.025 6.7 3.44 8.35
7/5/2021 6:00:00 PM 21.03 69.854 0.026 6.68 3.51 8.33
7/5/2021 6:15:00 PM 20.95 69.71 0.025 6.69 3.48 8.33
7/5/2021 6:30:00 PM 20.84 69.512 0.025 6.69 3.45 8.33
7/5/2021 6:45:00 PM 20.73 69.314 0.025 6.66 3.62 8.31
7/5/2021 7:00:00 PM 20.63 69.134 0.025 6.67 3.6 8.3
7/5/2021 7:15:00 PM 20.49 68.882 0.025 6.66 3.44 8.29
7/5/2021 7:30:00 PM 20.37 68.666 0.025 6.66 3.47 8.28
7/5/2021 7:45:00 PM 20.25 68.45 0.026 6.64 3.78 8.25
7/5/2021 8:00:00 PM 20.13 68.234 0.027 6.6 3.52 8.22
7/5/2021 8:15:00 PM 20.03 68.054 0.026 6.61 3.63 8.22
7/5/2021 8:30:00 PM 19.93 67.874 0.026 6.62 3.52 8.21
7/5/2021 8:45:00 PM 19.83 67.694 0.026 6.59 3.43 8.19
7/5/2021 9:00:00 PM 19.73 67.514 0.026 6.59 3.45 8.19
7/5/2021 9:15:00 PM 19.65 67.37 0.026 6.58 3.42 8.17
7/5/2021 9:30:00 PM 19.55 67.19 0.027 6.57 3.68 8.17
7/5/2021 9:45:00 PM 19.46 67.028 0.027 6.55 3.89 8.16
7/5/2021 10:00:00 PM 19.4 66.92 0.026 6.56 3.56 8.18
7/5/2021 10:15:00 PM 19.33 66.794 0.027 6.57 3.74 8.19
7/5/2021 10:30:00 PM 19.25 66.65 0.027 6.55 3.35 8.18
7/5/2021 10:45:00 PM 19.19 66.542 0.027 6.55 3.6 8.19
7/5/2021 11:00:00 PM 19.14 66.452 0.026 6.56 3.45 8.21
7/5/2021 11:15:00 PM 19.06 66.308 0.027 6.55 3.65 8.2
7/5/2021 11:30:00 PM 19.01 66.218 0.026 6.55 3.44 8.22
7/5/2021 11:45:00 PM 18.95 66.11 0.027 6.55 3.51 8.23
7/6/2021 12:00:00 AM 18.89 66.002 0.027 6.55 3.63 8.23
7/6/2021 12:15:00 AM 18.83 65.894 0.027 6.55 3.56 8.25
7/6/2021 12:30:00 AM 18.78 65.804 0.026 6.56 3.42 8.27
7/6/2021 12:45:00 AM 18.73 65.714 0.027 6.55 3.56 8.28
7/6/2021 1:00:00 AM 18.67 65.606 0.027 6.53 3.43 8.26
7/6/2021 1:15:00 AM 18.62 65.516 0.027 6.54 3.65 8.27
7/6/2021 1:30:00 AM 18.58 65.444 0.027 6.55 3.66 8.29
7/6/2021 1:45:00 AM 18.53 65.354 0.027 6.53 3.45 8.29
7/6/2021 2:00:00 AM 18.48 65.264 0.027 6.53 3.41 8.29
7/6/2021 2:15:00 AM 18.45 65.21 0.028 6.51 3.63 8.29
7/6/2021 2:30:00 AM 18.41 65.138 0.027 6.54 3.58 8.32
7/6/2021 2:45:00 AM 18.37 65.066 0.027 6.54 3.52 8.32
7/6/2021 3:00:00 AM 18.33 64.994 0.027 6.54 3.49 8.34
7/6/2021 3:15:00 AM 18.29 64.922 0.027 6.54 3.85 8.34
7/6/2021 3:30:00 AM 18.25 64.85 0.027 6.54 3.55 8.35
7/6/2021 3:45:00 AM 18.23 64.814 0.027 6.55 3.46 8.37
7/6/2021 4:00:00 AM 18.17 64.706 0.027 6.53 3.26 8.36
7/6/2021 4:15:00 AM 18.14 64.652 0.028 6.52 3.6 8.36
7/6/2021 4:30:00 AM 18.1 64.58 0.027 6.53 3.48 8.37
7/6/2021 4:45:00 AM 18.06 64.508 0.027 6.52 3.48 8.37
7/6/2021 5:00:00 AM 18.02 64.436 0.027 6.52 3.49 8.38
7/6/2021 5:15:00 AM 17.99 64.382 0.028 6.53 3.5 8.39
7/6/2021 5:30:00 AM 17.96 64.328 0.027 6.53 3.85 8.39
7/6/2021 5:45:00 AM 17.93 64.274 0.027 6.53 3.52 8.41
7/6/2021 6:00:00 AM 17.9 64.22 0.027 6.53 3.53 8.42
7/6/2021 6:15:00 AM 17.86 64.148 0.028 6.53 3.77 8.42
7/6/2021 6:30:00 AM 17.84 64.112 0.027 6.51 3.76 8.43
7/6/2021 6:45:00 AM 17.82 64.076 0.028 6.52 3.33 8.46
7/6/2021 7:00:00 AM 17.83 64.094 0.028 6.54 3.56 8.5
7/6/2021 7:15:00 AM 17.84 64.112 0.028 6.54 3.57 8.53
7/6/2021 7:30:00 AM 17.88 64.184 0.027 6.55 3.7 8.57
7/6/2021 7:45:00 AM 17.93 64.274 0.028 6.56 3.42 8.61
7/6/2021 8:00:00 AM 18 64.4 0.028 6.57 3.53 8.65
7/6/2021 8:15:00 AM 18.1 64.58 0.028 6.57 3.48 8.66
7/6/2021 8:30:00 AM 18.2 64.76 0.028 6.59 3.72 8.67
7/6/2021 8:45:00 AM 18.33 64.994 0.028 6.61 3.4 8.7
7/6/2021 9:00:00 AM 18.5 65.3 0.028 6.64 3.47 8.73
7/6/2021 9:15:00 AM 18.64 65.552 0.028 6.65 3.48 8.72
7/6/2021 9:30:00 AM 18.8 65.84 0.028 6.66 3.41 8.71
7/6/2021 9:45:00 AM 18.98 66.164 0.028 6.67 3.36 8.72
7/6/2021 10:00:00 AM 19.17 66.506 0.028 6.65 3.29 8.68
7/6/2021 10:15:00 AM 19.37 66.866 0.028 6.69 3.41 8.7
7/6/2021 10:30:00 AM 19.55 67.19 0.028 6.67 3.34 8.67
7/6/2021 10:45:00 AM 19.78 67.604 0.028 6.7 3.67 8.66
7/6/2021 11:00:00 AM 20.02 68.036 0.028 6.71 3.29 8.64
7/6/2021 11:15:00 AM 20.26 68.468 0.028 6.69 3.47 8.6
7/6/2021 11:30:00 AM 20.48 68.864 0.028 6.69 3.3 8.57
7/6/2021 11:45:00 AM 20.74 69.332 0.028 6.72 3.31 8.56
7/6/2021 12:00:00 PM 20.96 69.728 0.028 6.7 3.32 8.52
7/6/2021 12:15:00 PM 21.2 70.16 0.028 6.72 3.24 8.5
7/6/2021 12:30:00 PM 21.44 70.592 0.028 6.72 3.4 8.47
7/6/2021 12:45:00 PM 21.63 70.934 0.028 6.71 3.31 8.43
7/6/2021 1:00:00 PM 21.85 71.33 0.028 6.73 3.29 8.4
7/6/2021 1:15:00 PM 22.08 71.744 0.028 6.74 3.39 8.37
7/6/2021 1:30:00 PM 22.24 72.032 0.027 6.75 3.32 8.35
7/6/2021 1:45:00 PM 22.4 72.32 0.028 6.76 3.21 8.32
7/6/2021 2:00:00 PM 22.53 72.554 0.028 6.74 3.4 8.28
7/6/2021 2:15:00 PM 22.72 72.896 0.028 6.76 3.21 8.27
7/6/2021 2:30:00 PM 22.89 73.202 0.028 6.76 3.19 8.24
7/6/2021 2:45:00 PM 23.07 73.526 0.028 6.76 3.17 8.21
7/6/2021 3:00:00 PM 23.23 73.814 0.027 6.76 3.3 8.17
7/6/2021 3:15:00 PM 23.34 74.012 0.028 6.74 3.12 8.14
7/6/2021 3:30:00 PM 23.33 73.994 0.028 6.73 3.35 8.07
7/6/2021 3:45:00 PM 23.17 73.706 0.028 6.73 3.41 8.01
7/6/2021 4:00:00 PM 23 73.4 0.028 6.75 4.09 7.96
7/6/2021 4:15:00 PM 22.79 73.022 0.029 6.71 4.39 7.9
7/6/2021 4:30:00 PM 22.63 72.734 0.028 6.74 3.9 7.94
7/6/2021 4:45:00 PM 22.49 72.482 0.029 6.71 3.7 7.93
7/6/2021 5:00:00 PM 22.37 72.266 0.028 6.73 3.61 7.98
7/6/2021 5:15:00 PM 22.29 72.122 0.028 6.69 3.64 7.98
7/6/2021 5:30:00 PM 22.3 72.14 0.028 6.74 3.53 8.06
7/6/2021 5:45:00 PM 22.32 72.176 0.028 6.72 3.37 8.06
7/6/2021 6:00:00 PM 22.34 72.212 0.029 6.72 3.32 8.07
7/6/2021 6:15:00 PM 22.31 72.158 0.029 6.73 3.51 8.05
7/6/2021 6:30:00 PM 22.25 72.05 0.028 6.74 3.31 8.07
7/6/2021 6:45:00 PM 22.14 71.852 0.028 6.74 3.4 8.06
7/6/2021 7:00:00 PM 22.02 71.636 0.028 6.73 3.68 8.05
7/6/2021 7:15:00 PM 21.87 71.366 0.028 6.73 3.82 8.05
7/6/2021 7:30:00 PM 21.73 71.114 0.028 6.72 3.88 8.04
7/6/2021 7:45:00 PM 21.61 70.898 0.028 6.71 3.66 8.02
7/6/2021 8:00:00 PM 21.51 70.718 0.028 6.7 3.72 8
7/6/2021 8:15:00 PM 21.41 70.538 0.029 6.67 3.21 7.96
7/6/2021 8:30:00 PM 21.31 70.358 0.029 6.66 3.57 7.96
7/6/2021 8:45:00 PM 21.22 70.196 0.028 6.65 3.51 7.93
7/6/2021 9:00:00 PM 21.13 70.034 0.029 6.63 3.46 7.91
7/6/2021 9:15:00 PM 21.03 69.854 0.028 6.61 3.92 7.91
7/6/2021 9:30:00 PM 20.92 69.656 0.028 6.59 3.59 7.91
7/6/2021 9:45:00 PM 20.82 69.476 0.028 6.58 4.02 7.9
7/6/2021 10:00:00 PM 20.74 69.332 0.028 6.58 3.61 7.92
7/6/2021 10:15:00 PM 20.64 69.152 0.029 6.57 3.63 7.92
7/6/2021 10:30:00 PM 20.55 68.99 0.028 6.55 3.56 7.93
7/6/2021 10:45:00 PM 20.48 68.864 0.029 6.55 3.69 7.94
7/6/2021 11:00:00 PM 20.4 68.72 0.029 6.55 3.93 7.95
7/6/2021 11:15:00 PM 20.31 68.558 0.029 6.55 3.81 7.97
7/6/2021 11:30:00 PM 20.23 68.414 0.029 6.54 3.73 7.98
7/6/2021 11:45:00 PM 20.16 68.288 0.028 6.54 3.7 8
7/7/2021 12:00:00 AM 20.07 68.126 0.029 6.52 3.78 7.98
7/7/2021 12:15:00 AM 19.99 67.982 0.029 6.53 3.94 8.03
7/7/2021 12:30:00 AM 19.92 67.856 0.028 6.55 3.75 8.05
7/7/2021 12:45:00 AM 19.84 67.712 0.029 6.54 3.58 8.05
7/7/2021 1:00:00 AM 19.77 67.586 0.029 6.55 3.68 8.06
7/7/2021 1:15:00 AM 19.7 67.46 0.029 6.55 3.59 8.07
7/7/2021 1:30:00 AM 19.64 67.352 0.028 6.56 3.94 8.1
7/7/2021 1:45:00 AM 19.57 67.226 0.029 6.54 3.77 8.08
7/7/2021 2:00:00 AM 19.54 67.172 0.028 6.56 3.77 8.12
7/7/2021 2:15:00 AM 19.48 67.064 0.028 6.56 3.9 8.12
7/7/2021 2:30:00 AM 19.42 66.956 0.028 6.56 3.77 8.13
7/7/2021 2:45:00 AM 19.37 66.866 0.028 6.56 3.76 8.15
7/7/2021 3:00:00 AM 19.31 66.758 0.028 6.57 4.09 8.16
7/7/2021 3:15:00 AM 19.26 66.668 0.028 6.56 3.75 8.17
7/7/2021 3:30:00 AM 19.19 66.542 0.028 6.56 3.8 8.17
7/7/2021 3:45:00 AM 19.12 66.416 0.028 6.56 3.6 8.19
7/7/2021 4:00:00 AM 19.07 66.326 0.028 6.57 3.77 8.21
7/7/2021 4:15:00 AM 19.01 66.218 0.028 6.54 3.48 8.18
7/7/2021 4:30:00 AM 18.94 66.092 0.028 6.55 3.65 8.22
7/7/2021 4:45:00 AM 18.88 65.984 0.028 6.56 3.82 8.23
7/7/2021 5:00:00 AM 18.82 65.876 0.028 6.55 3.6 8.24
7/7/2021 5:15:00 AM 18.75 65.75 0.028 6.55 3.45 8.25
7/7/2021 5:30:00 AM 18.7 65.66 0.028 6.56 3.61 8.27
7/7/2021 5:45:00 AM 18.64 65.552 0.028 6.55 3.67 8.27
7/7/2021 6:00:00 AM 18.59 65.462 0.028 6.55 3.78 8.29
7/7/2021 6:15:00 AM 18.54 65.372 0.028 6.55 3.63 8.3
7/7/2021 6:30:00 AM 18.5 65.3 0.028 6.55 3.59 8.33
7/7/2021 6:45:00 AM 18.46 65.228 0.028 6.55 3.72 8.35
7/7/2021 7:00:00 AM 18.44 65.192 0.028 6.55 3.84 8.37
7/7/2021 7:15:00 AM 18.42 65.156 0.029 6.56 3.75 8.41
7/7/2021 7:30:00 AM 18.44 65.192 0.028 6.57 3.55 8.46
7/7/2021 7:45:00 AM 18.48 65.264 0.028 6.59 3.61 8.52
7/7/2021 8:00:00 AM 18.54 65.372 0.028 6.61 3.68 8.57
7/7/2021 8:15:00 AM 18.6 65.48 0.028 6.61 3.55 8.59
7/7/2021 8:30:00 AM 18.67 65.606 0.028 6.61 3.64 8.61
7/7/2021 8:45:00 AM 18.79 65.82201 0.028 6.62 3.77 8.61
7/7/2021 9:00:00 AM 18.92 66.056 0.028 6.64 3.52 8.66
7/7/2021 9:15:00 AM 19.04 66.272 0.028 6.65 3.44 8.66
7/7/2021 9:30:00 AM 19.19 66.542 0.028 6.67 3.56 8.67
7/7/2021 9:45:00 AM 19.34 66.812 0.028 6.67 3.54 8.67
7/7/2021 10:00:00 AM 19.49 67.082 0.028 6.67 3.58 8.65
7/7/2021 10:15:00 AM 19.7 67.46 0.028 6.69 3.66 8.66
7/7/2021 10:30:00 AM 19.89 67.802 0.028 6.72 3.53 8.65
7/7/2021 10:45:00 AM 20.12 68.216 0.028 6.7 3.72 8.6
7/7/2021 11:00:00 AM 20.36 68.648 0.028 6.75 3.45 8.64
7/7/2021 11:15:00 AM 20.57 69.026 0.028 6.74 3.57 8.59
7/7/2021 11:30:00 AM 20.79 69.422 0.028 6.78 3.36 8.59
7/7/2021 11:45:00 AM 20.92 69.656 0.028 6.74 3.38 8.53
7/7/2021 12:00:00 PM 21.09 69.962 0.028 6.77 3.65 8.52
7/7/2021 12:15:00 PM 21.28 70.304 0.028 6.78 3.57 8.5
7/7/2021 12:30:00 PM 21.45 70.61 0.028 6.8 3.53 8.48
7/7/2021 12:45:00 PM 21.57 70.826 0.029 6.75 3.41 8.42
7/7/2021 1:00:00 PM 21.76 71.168 0.028 6.78 3.43 8.4
7/7/2021 1:15:00 PM 21.95 71.51 0.028 6.78 3.38 8.38
7/7/2021 1:30:00 PM 22.09 71.762 0.028 6.8 3.53 8.36
7/7/2021 1:45:00 PM 22.31 72.158 0.028 6.81 3.21 8.34
7/7/2021 2:00:00 PM 22.5 72.5 0.028 6.82 3.49 8.32
7/7/2021 2:15:00 PM 22.65 72.77 0.028 6.81 3.39 8.28
7/7/2021 2:30:00 PM 22.88 73.184 0.027 6.82 3.66 8.27
7/7/2021 2:45:00 PM 23.03 73.454 0.028 6.82 3.34 8.24
7/7/2021 3:00:00 PM 23.22 73.796 0.028 6.81 3.58 8.21
7/7/2021 3:15:00 PM 23.42 74.156 0.028 6.8 3.52 8.18
7/7/2021 3:30:00 PM 23.59 74.462 0.028 6.83 3.95 8.16
7/7/2021 3:45:00 PM 23.69 74.642 0.029 6.8 3.84 8.12
7/7/2021 4:00:00 PM 23.8 74.84 0.028 6.79 3.56 8.09
7/7/2021 4:15:00 PM 23.83 74.894 0.028 6.84 3.49 8.08
7/7/2021 4:30:00 PM 23.84 74.912 0.027 6.83 3.37 8.06
7/7/2021 4:45:00 PM 23.83 74.894 0.028 6.8 3.45 8.03
7/7/2021 5:00:00 PM 23.83 74.894 0.028 6.77 3.63 7.99
7/7/2021 5:15:00 PM 23.92 75.056 0.028 6.83 3.74 8.01
7/7/2021 5:30:00 PM 23.91 75.038 0.029 6.81 4.22 7.96
7/7/2021 5:45:00 PM 23.9 75.02 0.028 6.82 3.41 7.96
7/7/2021 6:00:00 PM 23.84 74.912 0.029 6.76 3.66 7.9
7/7/2021 6:15:00 PM 23.79 74.82201 0.028 6.84 3.99 7.94
7/7/2021 6:30:00 PM 23.72 74.696 0.029 6.86 4 7.94
7/7/2021 6:45:00 PM 23.63 74.534 0.03 6.82 4.04 7.9
7/7/2021 7:00:00 PM 23.52 74.336 0.03 6.87 3.99 7.9
7/7/2021 7:15:00 PM 23.39 74.102 0.031 6.82 3.92 7.86
7/7/2021 7:30:00 PM 23.28 73.904 0.031 6.81 3.8 7.82
7/7/2021 7:45:00 PM 23.12 73.616 0.032 6.78 3.82 7.76
7/7/2021 8:00:00 PM 23.02 73.436 0.031 6.82 3.91 7.76
7/7/2021 8:15:00 PM 22.9 73.22 0.031 6.81 3.89 7.72
7/7/2021 8:30:00 PM 22.77 72.986 0.031 6.79 4.02 7.69
7/7/2021 8:45:00 PM 22.66 72.788 0.031 6.79 3.96 7.67
7/7/2021 9:00:00 PM 22.53 72.554 0.031 6.74 4.07 7.63
7/7/2021 9:15:00 PM 22.36 72.248 0.032 6.75 3.9 7.64
7/7/2021 9:30:00 PM 22.15 71.87 0.034 6.76 11.66 7.67
7/7/2021 9:45:00 PM 21.92 71.456 0.037 6.77 11.18 7.67
7/7/2021 10:00:00 PM 21.76 71.168 0.036 6.76 9.37 7.68
7/7/2021 10:15:00 PM 21.65 70.97 0.033 6.76 7.19 7.7
7/7/2021 10:30:00 PM 21.54 70.772 0.032 6.74 5.65 7.7
7/7/2021 10:45:00 PM 21.41 70.538 0.031 6.74 4.95 7.75
7/7/2021 11:00:00 PM 21.31 70.358 0.031 6.73 4.72 7.75
7/7/2021 11:15:00 PM 21.24 70.232 0.032 6.73 4.67 7.76
7/7/2021 11:30:00 PM 21.16 70.088 0.032 6.74 5.11 7.78
7/7/2021 11:45:00 PM 21.08 69.944 0.032 6.75 5.36 7.81
7/8/2021 12:00:00 AM 21.02 69.836 0.031 6.75 7.82 7.83
7/8/2021 12:15:00 AM 20.92 69.656 0.031 6.76 9.82 7.89
7/8/2021 12:30:00 AM 20.82 69.476 0.032 6.76 9.24 7.92
7/8/2021 12:45:00 AM 20.73 69.314 0.03 6.74 9.03 7.96
7/8/2021 1:00:00 AM 20.64 69.152 0.029 6.72 10.92 7.98
7/8/2021 1:15:00 AM 20.53 68.954 0.029 6.71 12.67 8
7/8/2021 1:30:00 AM 20.42 68.756 0.029 6.71 14.33 8.04
7/8/2021 1:45:00 AM 20.36 68.648 0.029 6.71 15.5 8.05
7/8/2021 2:00:00 AM 20.33 68.594 0.029 6.69 19.28 8.07
7/8/2021 2:15:00 AM 20.32 68.576 0.028 6.68 19.79 8.08
7/8/2021 2:30:00 AM 20.34 68.612 0.027 6.67 16.99 8.07
7/8/2021 2:45:00 AM 20.37 68.666 0.027 6.66 14.35 8.07
7/8/2021 3:00:00 AM 20.37 68.666 0.027 6.65 11.52 8.07
7/8/2021 3:15:00 AM 20.34 68.612 0.027 6.63 11.21 8.09
7/8/2021 3:30:00 AM 20.3 68.54 0.026 6.63 10.22 8.1
7/8/2021 3:45:00 AM 20.25 68.45 0.026 6.62 9.26 8.11
7/8/2021 4:00:00 AM 20.18 68.324 0.026 6.61 9.05 8.12
7/8/2021 4:15:00 AM 20.1 68.18 0.026 6.6 8.76 8.14
7/8/2021 4:30:00 AM 20 68 0.025 6.6 8.85 8.16
7/8/2021 4:45:00 AM 19.9 67.82 0.025 6.6 8.61 8.18
7/8/2021 5:00:00 AM 19.79 67.622 0.025 6.6 9.56 8.19
7/8/2021 5:15:00 AM 19.7 67.46 0.025 6.6 11.25 8.21
7/8/2021 5:30:00 AM 19.62 67.316 0.025 6.6 12.02 8.23
7/8/2021 5:45:00 AM 19.55 67.19 0.026 6.6 13.22 8.24
7/8/2021 6:00:00 AM 19.48 67.064 0.025 6.6 12.46 8.26
7/8/2021 6:15:00 AM 19.43 66.974 0.025 6.6 11.57 8.27
7/8/2021 6:30:00 AM 19.39 66.902 0.025 6.59 10.9 8.29
7/8/2021 6:45:00 AM 19.36 66.848 0.025 6.58 9.97 8.31
7/8/2021 7:00:00 AM 19.36 66.848 0.025 6.58 9.36 8.32
7/8/2021 7:15:00 AM 19.35 66.83 0.024 6.58 8.52 8.33
7/8/2021 7:30:00 AM 19.35 66.83 0.024 6.58 8.18 8.34
7/8/2021 7:45:00 AM 19.36 66.848 0.024 6.58 7.67 8.35
7/8/2021 8:00:00 AM 19.37 66.866 0.024 6.58 7.33 8.36
7/8/2021 8:15:00 AM 19.37 66.866 0.024 6.57 7.25 8.36
7/8/2021 8:30:00 AM 19.38 66.884 0.024 6.56 6.97 8.35
7/8/2021 8:45:00 AM 19.4 66.92 0.024 6.57 6.87 8.36
7/8/2021 9:00:00 AM 19.42 66.956 0.024 6.57 6.78 8.36
7/8/2021 9:15:00 AM 19.44 66.992 0.024 6.57 6.7 8.37
7/8/2021 9:30:00 AM 19.47 67.046 0.024 6.56 6.79 8.38
7/8/2021 9:45:00 AM 19.53 67.154 0.024 6.57 6.25 8.4
7/8/2021 10:00:00 AM 19.59 67.262 0.023 6.57 6.47 8.41
7/8/2021 10:15:00 AM 19.62 67.316 0.024 6.58 6.45 8.41
7/8/2021 10:30:00 AM 19.66 67.388 0.024 6.58 6.51 8.4
7/8/2021 10:45:00 AM 19.71 67.478 0.024 6.58 6.47 8.42
7/8/2021 11:00:00 AM 19.76 67.568 0.023 6.58 6.24 8.41
7/8/2021 11:15:00 AM 19.77 67.586 0.023 6.59 6.6 8.4
7/8/2021 11:30:00 AM 19.77 67.586 0.024 6.59 6.65 8.38
7/8/2021 11:45:00 AM 19.78 67.604 0.023 6.58 6.36 8.37
7/8/2021 12:00:00 PM 19.8 67.64 0.023 6.58 6.41 8.38
7/8/2021 12:15:00 PM 19.82 67.676 0.023 6.59 6.29 8.38
7/8/2021 12:30:00 PM 19.84 67.712 0.023 6.59 6.02 8.37
7/8/2021 12:45:00 PM 19.88 67.784 0.023 6.59 6.02 8.38
7/8/2021 1:00:00 PM 19.91 67.838 0.023 6.59 5.83 8.38
7/8/2021 1:15:00 PM 19.96 67.92799 0.023 6.6 5.65 8.39
7/8/2021 1:30:00 PM 20 68 0.023 6.59 5.88 8.4
7/8/2021 1:45:00 PM 20.04 68.07201 0.023 6.6 5.55 8.4
7/8/2021 2:00:00 PM 20.09 68.162 0.023 6.59 5.76 8.4
7/8/2021 2:15:00 PM 20.1 68.18 0.023 6.59 5.61 8.38
7/8/2021 2:30:00 PM 20.1 68.18 0.023 6.59 5.48 8.36
7/8/2021 2:45:00 PM 20.12 68.216 0.023 6.59 5.39 8.36
7/8/2021 3:00:00 PM 20.14 68.252 0.023 6.59 5.24 8.35
7/8/2021 3:15:00 PM 20.15 68.27 0.023 6.59 5.27 8.35
7/8/2021 3:30:00 PM 20.16 68.288 0.023 6.59 5.37 8.34
7/8/2021 3:45:00 PM 20.16 68.288 0.023 6.58 5.28 8.32
7/8/2021 4:00:00 PM 20.16 68.288 0.023 6.58 5.13 8.32
7/8/2021 4:15:00 PM 20.17 68.306 0.023 6.58 5.17 8.31
7/8/2021 4:30:00 PM 20.19 68.342 0.023 6.57 5.15 8.31
7/8/2021 4:45:00 PM 20.24 68.432 0.023 6.59 5.18 8.33
7/8/2021 5:00:00 PM 20.26 68.468 0.023 6.58 4.91 8.33
7/8/2021 5:15:00 PM 20.26 68.468 0.023 6.58 5.02 8.31
7/8/2021 5:30:00 PM 20.25 68.45 0.023 6.57 4.98 8.3
7/8/2021 5:45:00 PM 20.23 68.414 0.023 6.57 5 8.28
7/8/2021 6:00:00 PM 20.21 68.378 0.023 6.55 4.93 8.26
7/8/2021 6:15:00 PM 20.19 68.342 0.023 6.55 4.94 8.24
7/8/2021 6:30:00 PM 20.16 68.288 0.023 6.54 4.77 8.22
7/8/2021 6:45:00 PM 20.14 68.252 0.023 6.54 4.71 8.22
7/8/2021 7:00:00 PM 20.12 68.216 0.023 6.54 4.79 8.21
7/8/2021 7:15:00 PM 20.09 68.162 0.023 6.53 4.85 8.2
7/8/2021 7:30:00 PM 20.06 68.108 0.023 6.53 5.07 8.19
7/8/2021 7:45:00 PM 20.02 68.036 0.023 6.53 5.02 8.18
7/8/2021 8:00:00 PM 19.95 67.91 0.025 6.55 9.54 8.2
7/8/2021 8:15:00 PM 19.9 67.82 0.025 6.56 8.24 8.2
7/8/2021 8:30:00 PM 19.86 67.748 0.024 6.54 6.79 8.2
7/8/2021 8:45:00 PM 19.82 67.676 0.024 6.52 6.44 8.19
7/8/2021 9:00:00 PM 19.77 67.586 0.024 6.54 7.21 8.19
7/8/2021 9:15:00 PM 19.72 67.496 0.025 6.55 8.62 8.2
7/8/2021 9:30:00 PM 19.67 67.406 0.025 6.56 9.87 8.21
7/8/2021 9:45:00 PM 19.59 67.262 0.025 6.54 9.16 8.23
7/8/2021 10:00:00 PM 19.5 67.1 0.025 6.54 8.22 8.25
7/8/2021 10:15:00 PM 19.4 66.92 0.024 6.52 8.71 8.27
7/8/2021 10:30:00 PM 19.33 66.794 0.024 6.5 9.9 8.28
7/8/2021 10:45:00 PM 19.27 66.686 0.024 6.49 9.45 8.3
7/8/2021 11:00:00 PM 19.2 66.56 0.024 6.48 9.33 8.31
7/8/2021 11:15:00 PM 19.15 66.47 0.024 6.47 9.45 8.32
7/8/2021 11:30:00 PM 19.1 66.38 0.023 6.47 9.36 8.34
7/8/2021 11:45:00 PM 19.05 66.29 0.023 6.47 9.86 8.35
7/9/2021 12:00:00 AM 19.01 66.218 0.023 6.47 10.22 8.36
7/9/2021 12:15:00 AM 18.96 66.128 0.023 6.45 10.21 8.37
7/9/2021 12:30:00 AM 18.91 66.038 0.023 6.44 9.92 8.38
7/9/2021 12:45:00 AM 18.86 65.948 0.023 6.43 9.2 8.39
7/9/2021 1:00:00 AM 18.81 65.858 0.023 6.42 8.75 8.4
7/9/2021 1:15:00 AM 18.76 65.768 0.023 6.42 8.47 8.4
7/9/2021 1:30:00 AM 18.7 65.66 0.023 6.42 8.27 8.41
7/9/2021 1:45:00 AM 18.65 65.57 0.023 6.42 8.11 8.42
7/9/2021 2:00:00 AM 18.61 65.498 0.023 6.41 7.9 8.43
7/9/2021 2:15:00 AM 18.56 65.408 0.023 6.41 7.31 8.44
7/9/2021 2:30:00 AM 18.52 65.336 0.023 6.4 6.99 8.44
7/9/2021 2:45:00 AM 18.49 65.282 0.023 6.4 6.94 8.45
7/9/2021 3:00:00 AM 18.45 65.21 0.023 6.41 6.65 8.46
7/9/2021 3:15:00 AM 18.42 65.156 0.023 6.4 6.56 8.46
7/9/2021 3:30:00 AM 18.38 65.084 0.023 6.4 6.58 8.46
7/9/2021 3:45:00 AM 18.34 65.012 0.023 6.41 6.48 8.47
7/9/2021 4:00:00 AM 18.31 64.958 0.023 6.41 6.74 8.47
7/9/2021 4:15:00 AM 18.27 64.886 0.023 6.41 6.51 8.47
7/9/2021 4:30:00 AM 18.24 64.832 0.023 6.41 6.91 8.48
7/9/2021 4:45:00 AM 18.2 64.76 0.023 6.42 6.63 8.49
7/9/2021 5:00:00 AM 18.17 64.706 0.023 6.42 6.76 8.49
7/9/2021 5:15:00 AM 18.15 64.67 0.023 6.42 7.01 8.49
7/9/2021 5:30:00 AM 18.12 64.616 0.023 6.42 7.25 8.5
7/9/2021 5:45:00 AM 18.09 64.562 0.023 6.42 6.76 8.5
7/9/2021 6:00:00 AM 18.07 64.526 0.023 6.42 6.95 8.51
7/9/2021 6:15:00 AM 18.06 64.508 0.023 6.42 6.57 8.51
7/9/2021 6:30:00 AM 18.05 64.49 0.023 6.42 6.34 8.52
7/9/2021 6:45:00 AM 18.05 64.49 0.023 6.42 6.28 8.53
7/9/2021 7:00:00 AM 18.04 64.472 0.023 6.43 6.1 8.54
7/9/2021 7:15:00 AM 18.05 64.49 0.023 6.43 5.99 8.55
7/9/2021 7:30:00 AM 18.05 64.49 0.023 6.44 5.83 8.56
7/9/2021 7:45:00 AM 18.05 64.49 0.023 6.45 5.75 8.57
7/9/2021 8:00:00 AM 18.07 64.526 0.023 6.45 5.72 8.59
7/9/2021 8:15:00 AM 18.1 64.58 0.023 6.46 5.47 8.6
7/9/2021 8:30:00 AM 18.13 64.634 0.023 6.46 5.56 8.62
7/9/2021 8:45:00 AM 18.18 64.724 0.023 6.47 5.57 8.63
7/9/2021 9:00:00 AM 18.26 64.868 0.023 6.48 5.31 8.65
7/9/2021 9:15:00 AM 18.33 64.994 0.023 6.48 5.65 8.65
7/9/2021 9:30:00 AM 18.37 65.066 0.022 6.49 5.57 8.65
7/9/2021 9:45:00 AM 18.38 65.084 0.022 6.49 5.34 8.63
7/9/2021 10:00:00 AM 18.38 65.084 0.023 6.49 5.16 8.62
7/9/2021 10:15:00 AM 18.4 65.12 0.023 6.49 5.19 8.61
7/9/2021 10:30:00 AM 18.49 65.282 0.022 6.5 5.49 8.63
7/9/2021 10:45:00 AM 18.55 65.39 0.022 6.5 5.28 8.62
7/9/2021 11:00:00 AM 18.6 65.48 0.022 6.5 5.15 8.62
7/9/2021 11:15:00 AM 18.77 65.786 0.022 6.51 4.97 8.62
7/9/2021 11:30:00 AM 18.94 66.092 0.022 6.51 5.18 8.62
7/9/2021 11:45:00 AM 19.05 66.29 0.022 6.51 4.98 8.61
7/9/2021 12:00:00 PM 19.16 66.488 0.022 6.53 5.06 8.6
7/9/2021 12:15:00 PM 19.31 66.758 0.022 6.52 5.14 8.59
7/9/2021 12:30:00 PM 19.45 67.01 0.022 6.53 5.07 8.58
7/9/2021 12:45:00 PM 19.54 67.172 0.022 6.54 5.04 8.56
7/9/2021 1:00:00 PM 19.61 67.298 0.022 6.55 5.09 8.56
7/9/2021 1:15:00 PM 19.63 67.334 0.022 6.54 4.92 8.53
7/9/2021 1:30:00 PM 19.64 67.352 0.022 6.54 5.03 8.52
7/9/2021 1:45:00 PM 19.66 67.388 0.022 6.55 5.11 8.51
7/9/2021 2:00:00 PM 19.72 67.496 0.022 6.55 4.89 8.5
7/9/2021 2:15:00 PM 19.72 67.496 0.022 6.54 4.65 8.48
7/9/2021 2:30:00 PM 19.69 67.442 0.022 6.53 4.71 8.45
7/9/2021 2:45:00 PM 19.69 67.442 0.022 6.53 4.81 8.45
7/9/2021 3:00:00 PM 19.7 67.46 0.022 6.54 4.76 8.44
7/9/2021 3:15:00 PM 19.74 67.532 0.022 6.54 4.7 8.44
7/9/2021 3:30:00 PM 19.86 67.748 0.022 6.54 4.67 8.45
7/9/2021 3:45:00 PM 20.01 68.018 0.022 6.54 4.66 8.44
7/9/2021 4:00:00 PM 20.03 68.054 0.022 6.54 4.8 8.42
7/9/2021 4:15:00 PM 20.03 68.054 0.022 6.54 4.72 8.4
7/9/2021 4:30:00 PM 20.03 68.054 0.022 6.54 4.58 8.39
7/9/2021 4:45:00 PM 19.98 67.964 0.022 6.53 4.58 8.36
7/9/2021 5:00:00 PM 19.9 67.82 0.022 6.53 4.54 8.34
7/9/2021 5:15:00 PM 19.87 67.766 0.022 6.52 4.37 8.34
7/9/2021 5:30:00 PM 19.81 67.658 0.022 6.51 4.44 8.31
7/9/2021 5:45:00 PM 19.78 67.604 0.023 6.51 4.55 8.28
7/9/2021 6:00:00 PM 19.75 67.55 0.023 6.5 4.26 8.27
7/9/2021 6:15:00 PM 19.75 67.55 0.023 6.51 4.51 8.28
7/9/2021 6:30:00 PM 19.74 67.532 0.022 6.51 4.45 8.29
7/9/2021 6:45:00 PM 19.72 67.496 0.023 6.5 4.44 8.29
7/9/2021 7:00:00 PM 19.7 67.46 0.023 6.5 4.29 8.29
7/9/2021 7:15:00 PM 19.67 67.406 0.023 6.5 4.36 8.29
7/9/2021 7:30:00 PM 19.64 67.352 0.023 6.5 4.32 8.29
7/9/2021 7:45:00 PM 19.61 67.298 0.023 6.5 4.41 8.3
7/9/2021 8:00:00 PM 19.57 67.226 0.023 6.49 4.35 8.29
7/9/2021 8:15:00 PM 19.52 67.136 0.023 6.49 4.41 8.29
7/9/2021 8:30:00 PM 19.49 67.082 0.023 6.48 4.19 8.28
7/9/2021 8:45:00 PM 19.45 67.01 0.023 6.48 4.19 8.26
7/9/2021 9:00:00 PM 19.41 66.938 0.023 6.47 4.21 8.26
7/9/2021 9:15:00 PM 19.38 66.884 0.023 6.47 4.2 8.26
7/9/2021 9:30:00 PM 19.35 66.83 0.023 6.46 4.23 8.26
7/9/2021 9:45:00 PM 19.33 66.794 0.023 6.46 4.26 8.27
7/9/2021 10:00:00 PM 19.31 66.758 0.023 6.46 4.21 8.28
7/9/2021 10:15:00 PM 19.27 66.686 0.023 6.45 7.47 8.28
7/9/2021 10:30:00 PM 19.24 66.632 0.023 6.46 4.26 8.28
7/9/2021 10:45:00 PM 19.21 66.578 0.023 6.46 4.25 8.29
7/9/2021 11:00:00 PM 19.17 66.506 0.023 6.46 4.34 8.3
7/9/2021 11:15:00 PM 19.13 66.434 0.023 6.46 4.24 8.31
7/9/2021 11:30:00 PM 19.1 66.38 0.023 6.47 4.35 8.31
7/9/2021 11:45:00 PM 19.06 66.308 0.024 6.47 4.13 8.32
7/10/2021 12:00:00 AM 19.02 66.236 0.023 6.47 4.07 8.32
7/10/2021 12:15:00 AM 18.99 66.182 0.024 6.47 4.16 8.34
7/10/2021 12:30:00 AM 18.94 66.092 0.023 6.47 4.12 8.35
7/10/2021 12:45:00 AM 18.89 66.002 0.023 6.47 4.35 8.36
7/10/2021 1:00:00 AM 18.84 65.912 0.023 6.47 4.16 8.37
7/10/2021 1:15:00 AM 18.79 65.82201 0.023 6.47 3.99 8.38
7/10/2021 1:30:00 AM 18.75 65.75 0.023 6.47 4.2 8.38
7/10/2021 1:45:00 AM 18.71 65.67799 0.023 6.47 4.15 8.4
7/10/2021 2:00:00 AM 18.67 65.606 0.023 6.47 4.05 8.4
7/10/2021 2:15:00 AM 18.64 65.552 0.023 6.47 4.19 8.41
7/10/2021 2:30:00 AM 18.6 65.48 0.023 6.47 4.14 8.41
7/10/2021 2:45:00 AM 18.57 65.426 0.023 6.47 4.32 8.42
7/10/2021 3:00:00 AM 18.53 65.354 0.023 6.47 4.34 8.42
7/10/2021 3:15:00 AM 18.51 65.318 0.023 6.47 4.44 8.44
7/10/2021 3:30:00 AM 18.47 65.246 0.023 6.47 4.57 8.43
7/10/2021 3:45:00 AM 18.44 65.192 0.023 6.47 5.02 8.44
7/10/2021 4:00:00 AM 18.41 65.138 0.023 6.47 4.61 8.45
7/10/2021 4:15:00 AM 18.37 65.066 0.023 6.48 4.67 8.46
7/10/2021 4:30:00 AM 18.33 64.994 0.023 6.48 4.9 8.46
7/10/2021 4:45:00 AM 18.3 64.94 0.023 6.47 4.3 8.47
7/10/2021 5:00:00 AM 18.27 64.886 0.023 6.48 4.32 8.48
7/10/2021 5:15:00 AM 18.23 64.814 0.023 6.48 4.39 8.48
7/10/2021 5:30:00 AM 18.2 64.76 0.023 6.47 4.42 8.49
7/10/2021 5:45:00 AM 18.16 64.688 0.023 6.47 4.46 8.5
7/10/2021 6:00:00 AM 18.13 64.634 0.023 6.47 5.5 8.5
7/10/2021 6:15:00 AM 18.1 64.58 0.023 6.47 4.71 8.52
7/10/2021 6:30:00 AM 18.07 64.526 0.023 6.48 4.15 8.53
7/10/2021 6:45:00 AM 18.04 64.472 0.023 6.48 4.09 8.55
7/10/2021 7:00:00 AM 18.01 64.418 0.023 6.48 4.27 8.56
7/10/2021 7:15:00 AM 17.99 64.382 0.023 6.48 4.27 8.57
7/10/2021 7:30:00 AM 17.99 64.382 0.023 6.49 4.31 8.6
7/10/2021 7:45:00 AM 17.97 64.346 0.023 6.49 4.26 8.62
7/10/2021 8:00:00 AM 17.95 64.31 0.023 6.49 4.11 8.61
7/10/2021 8:15:00 AM 17.93 64.274 0.022 6.49 4.1 8.63
7/10/2021 8:30:00 AM 17.94 64.292 0.023 6.49 4.24 8.66
7/10/2021 8:45:00 AM 17.96 64.328 0.022 6.5 4.16 8.68
7/10/2021 9:00:00 AM 17.95 64.31 0.022 6.51 4.07 8.7
7/10/2021 9:15:00 AM 17.94 64.292 0.023 6.5 4.21 8.69
7/10/2021 9:30:00 AM 17.94 64.292 0.022 6.5 4.33 8.71
7/10/2021 9:45:00 AM 17.96 64.328 0.022 6.51 4.36 8.72
7/10/2021 10:00:00 AM 18.01 64.418 0.022 6.52 4.27 8.75
7/10/2021 10:15:00 AM 18.06 64.508 0.022 6.53 4.17 8.77
7/10/2021 10:30:00 AM 18.08 64.544 0.023 6.53 4.4 8.77
7/10/2021 10:45:00 AM 18.1 64.58 0.022 6.53 4.53 8.77
7/10/2021 11:00:00 AM 18.11 64.598 0.022 6.54 4.27 8.78
7/10/2021 11:15:00 AM 18.17 64.706 0.023 6.54 4.39 8.79
7/10/2021 11:30:00 AM 18.33 64.994 0.023 6.55 4.35 8.79
7/10/2021 11:45:00 AM 18.47 65.246 0.022 6.55 4.32 8.79
7/10/2021 12:00:00 PM 18.51 65.318 0.023 6.55 4.26 8.78
7/10/2021 12:15:00 PM 18.55 65.39 0.023 6.56 4.22 8.78
7/10/2021 12:30:00 PM 18.67 65.606 0.022 6.57 4.23 8.79
7/10/2021 12:45:00 PM 18.85 65.93 0.023 6.57 3.99 8.77
7/10/2021 1:00:00 PM 19.09 66.362 0.023 6.57 4.11 8.75
7/10/2021 1:15:00 PM 19.26 66.668 0.023 6.58 4.19 8.73
7/10/2021 1:30:00 PM 19.3 66.74 0.023 6.58 4.11 8.7
7/10/2021 1:45:00 PM 19.31 66.758 0.023 6.58 4.03 8.68
7/10/2021 2:00:00 PM 19.39 66.902 0.023 6.57 4.15 8.66
7/10/2021 2:15:00 PM 19.48 67.064 0.023 6.58 4.05 8.64
7/10/2021 2:30:00 PM 19.58 67.244 0.023 6.59 4.18 8.62
7/10/2021 2:45:00 PM 19.58 67.244 0.023 6.58 3.9 8.61
7/10/2021 3:00:00 PM 19.58 67.244 0.023 6.59 3.98 8.61
7/10/2021 3:15:00 PM 19.55 67.19 0.023 6.59 3.96 8.6
7/10/2021 3:30:00 PM 19.5 67.1 0.023 6.58 3.87 8.58
7/10/2021 3:45:00 PM 19.53 67.154 0.023 6.58 3.95 8.57
7/10/2021 4:00:00 PM 19.71 67.478 0.023 6.59 3.93 8.58
7/10/2021 4:15:00 PM 19.8 67.64 0.023 6.58 4.01 8.57
7/10/2021 4:30:00 PM 19.79 67.622 0.023 6.58 4 8.54
7/10/2021 4:45:00 PM 19.7 67.46 0.023 6.58 3.81 8.53
7/10/2021 5:00:00 PM 19.66 67.388 0.023 6.58 3.9 8.54
7/10/2021 5:15:00 PM 19.7 67.46 0.023 6.58 3.94 8.54
7/10/2021 5:30:00 PM 19.76 67.568 0.023 6.57 3.81 8.53
7/10/2021 5:45:00 PM 19.77 67.586 0.023 6.58 3.85 8.53
7/10/2021 6:00:00 PM 19.72 67.496 0.023 6.58 3.89 8.53
7/10/2021 6:15:00 PM 19.66 67.388 0.023 6.58 3.8 8.51
7/10/2021 6:30:00 PM 19.59 67.262 0.023 6.58 3.79 8.5
7/10/2021 6:45:00 PM 19.53 67.154 0.023 6.57 3.84 8.49
7/10/2021 7:00:00 PM 19.48 67.064 0.023 6.56 3.88 8.47
7/10/2021 7:15:00 PM 19.42 66.956 0.023 6.55 3.8 8.45
7/10/2021 7:30:00 PM 19.37 66.866 0.023 6.54 3.79 8.43
7/10/2021 7:45:00 PM 19.33 66.794 0.023 6.54 3.79 8.42
7/10/2021 8:00:00 PM 19.29 66.722 0.023 6.53 3.9 8.4
7/10/2021 8:15:00 PM 19.25 66.65 0.023 6.53 3.91 8.4
7/10/2021 8:30:00 PM 19.2 66.56 0.023 6.53 4.06 8.38
7/10/2021 8:45:00 PM 19.14 66.452 0.023 6.51 3.71 8.36
7/10/2021 9:00:00 PM 19.09 66.362 0.023 6.51 3.93 8.35
7/10/2021 9:15:00 PM 19.05 66.29 0.023 6.5 4 8.35
7/10/2021 9:30:00 PM 19.01 66.218 0.023 6.5 3.98 8.34
7/10/2021 9:45:00 PM 18.96 66.128 0.023 6.49 3.87 8.34
7/10/2021 10:00:00 PM 18.91 66.038 0.024 6.49 3.98 8.35
7/10/2021 10:15:00 PM 18.85 65.93 0.024 6.48 3.93 8.36
7/10/2021 10:30:00 PM 18.81 65.858 0.023 6.49 4.01 8.37
7/10/2021 10:45:00 PM 18.75 65.75 0.024 6.48 3.9 8.37
7/10/2021 11:00:00 PM 18.7 65.66 0.023 6.49 4.1 8.38
7/10/2021 11:15:00 PM 18.65 65.57 0.024 6.49 3.99 8.39
7/10/2021 11:30:00 PM 18.6 65.48 0.024 6.48 3.86 8.39
7/10/2021 11:45:00 PM 18.56 65.408 0.023 6.49 3.94 8.41
7/11/2021 12:00:00 AM 18.52 65.336 0.024 6.48 3.91 8.42
7/11/2021 12:15:00 AM 18.46 65.228 0.024 6.48 3.89 8.42
7/11/2021 12:30:00 AM 18.39 65.102 0.024 6.47 3.93 8.43
7/11/2021 12:45:00 AM 18.33 64.994 0.024 6.47 4.03 8.44
7/11/2021 1:00:00 AM 18.27 64.886 0.024 6.47 3.84 8.46
7/11/2021 1:15:00 AM 18.21 64.778 0.024 6.48 3.95 8.46
7/11/2021 1:30:00 AM 18.15 64.67 0.024 6.48 3.99 8.47
7/11/2021 1:45:00 AM 18.08 64.544 0.024 6.48 4.01 8.48
7/11/2021 2:00:00 AM 18.02 64.436 0.024 6.48 4.09 8.49
7/11/2021 2:15:00 AM 17.95 64.31 0.024 6.48 3.97 8.5
7/11/2021 2:30:00 AM 17.89 64.202 0.024 6.48 3.88 8.52
7/11/2021 2:45:00 AM 17.83 64.094 0.024 6.48 3.85 8.53
7/11/2021 3:00:00 AM 17.77 63.986 0.024 6.47 3.87 8.54
7/11/2021 3:15:00 AM 17.71 63.878 0.024 6.48 4 8.55
7/11/2021 3:30:00 AM 17.65 63.77 0.024 6.47 3.84 8.56
7/11/2021 3:45:00 AM 17.6 63.68 0.024 6.48 4.07 8.57
7/11/2021 4:00:00 AM 17.55 63.59 0.024 6.48 3.96 8.58
7/11/2021 4:15:00 AM 17.5 63.5 0.024 6.48 4.05 8.59
7/11/2021 4:30:00 AM 17.45 63.41 0.024 6.47 3.79 8.6
7/11/2021 4:45:00 AM 17.4 63.32 0.024 6.48 3.9 8.61
7/11/2021 5:00:00 AM 17.36 63.248 0.025 6.47 3.94 8.62
7/11/2021 5:15:00 AM 17.32 63.176 0.024 6.48 4.14 8.62
7/11/2021 5:30:00 AM 17.28 63.104 0.024 6.48 3.9 8.64
7/11/2021 5:45:00 AM 17.25 63.05 0.024 6.48 3.89 8.64
7/11/2021 6:00:00 AM 17.22 62.996 0.024 6.48 4.18 8.65
7/11/2021 6:15:00 AM 17.18 62.924 0.025 6.47 3.89 8.66
7/11/2021 6:30:00 AM 17.16 62.888 0.024 6.48 4.01 8.68
7/11/2021 6:45:00 AM 17.14 62.852 0.024 6.49 4.16 8.7
7/11/2021 7:00:00 AM 17.12 62.816 0.025 6.49 3.88 8.71
7/11/2021 7:15:00 AM 17.11 62.798 0.024 6.49 3.98 8.74
7/11/2021 7:30:00 AM 17.11 62.798 0.025 6.5 3.87 8.77
7/11/2021 7:45:00 AM 17.1 62.78 0.024 6.5 3.87 8.78
7/11/2021 8:00:00 AM 17.1 62.78 0.024 6.52 4.41 8.79
7/11/2021 8:15:00 AM 17.09 62.762 0.025 6.51 3.9 8.78
7/11/2021 8:30:00 AM 17.08 62.744 0.025 6.5 4.05 8.78
7/11/2021 8:45:00 AM 17.08 62.744 0.024 6.51 3.87 8.79
7/11/2021 9:00:00 AM 17.09 62.762 0.024 6.52 4.44 8.81
7/11/2021 9:15:00 AM 17.09 62.762 0.024 6.51 4.02 8.8
7/11/2021 9:30:00 AM 17.09 62.762 0.024 6.52 4.14 8.82
7/11/2021 9:45:00 AM 17.09 62.762 0.024 6.52 3.93 8.81
7/11/2021 10:00:00 AM 17.1 62.78 0.024 6.52 3.96 8.82
7/11/2021 10:15:00 AM 17.11 62.798 0.024 6.52 3.86 8.83
7/11/2021 10:30:00 AM 17.15 62.87 0.024 6.53 3.77 8.86
7/11/2021 10:45:00 AM 17.17 62.906 0.025 6.53 4.06 8.86
7/11/2021 11:00:00 AM 17.19 62.942 0.024 6.53 4.04 8.88
7/11/2021 11:15:00 AM 17.21 62.978 0.025 6.54 3.94 8.88
7/11/2021 11:30:00 AM 17.27 63.086 0.024 6.55 3.83 8.91
7/11/2021 11:45:00 AM 17.33 63.194 0.025 6.55 3.86 8.93
7/11/2021 12:00:00 PM 17.4 63.32 0.025 6.57 4.03 8.95
7/11/2021 12:15:00 PM 17.43 63.374 0.025 6.57 3.9 8.93
7/11/2021 12:30:00 PM 17.45 63.41 0.025 6.58 3.66 8.91
7/11/2021 12:45:00 PM 17.49 63.482 0.024 6.59 3.73 8.92
7/11/2021 1:00:00 PM 17.56 63.608 0.024 6.59 3.75 8.94
7/11/2021 1:15:00 PM 17.69 63.842 0.024 6.62 3.7 8.96
7/11/2021 1:30:00 PM 17.81 64.058 0.024 6.62 3.65 8.96
7/11/2021 1:45:00 PM 17.92 64.256 0.024 6.63 3.78 8.95
7/11/2021 2:00:00 PM 18.03 64.454 0.025 6.62 3.64 8.94
7/11/2021 2:15:00 PM 18.12 64.616 0.024 6.64 3.61 8.93
7/11/2021 2:30:00 PM 18.18 64.724 0.024 6.64 3.8 8.9
7/11/2021 2:45:00 PM 18.19 64.742 0.025 6.62 3.7 8.86
7/11/2021 3:00:00 PM 18.19 64.742 0.024 6.63 3.72 8.84
7/11/2021 3:15:00 PM 18.18 64.724 0.025 6.62 3.71 8.82
7/11/2021 3:30:00 PM 18.19 64.742 0.025 6.63 3.77 8.82
7/11/2021 3:45:00 PM 18.21 64.778 0.025 6.61 3.8 8.8
7/11/2021 4:00:00 PM 18.23 64.814 0.024 6.64 3.9 8.81
7/11/2021 4:15:00 PM 18.24 64.832 0.024 6.64 3.69 8.8
7/11/2021 4:30:00 PM 18.25 64.85 0.024 6.63 3.66 8.78
7/11/2021 4:45:00 PM 18.28 64.904 0.024 6.63 3.77 8.79
7/11/2021 5:00:00 PM 18.36 65.048 0.024 6.65 3.67 8.81
7/11/2021 5:15:00 PM 18.43 65.174 0.025 6.65 3.62 8.82
7/11/2021 5:30:00 PM 18.5 65.3 0.024 6.66 3.62 8.81
7/11/2021 5:45:00 PM 18.57 65.426 0.024 6.66 3.75 8.81
7/11/2021 6:00:00 PM 18.62 65.516 0.024 6.65 3.51 8.79
7/11/2021 6:15:00 PM 18.6 65.48 0.025 6.64 3.69 8.76
7/11/2021 6:30:00 PM 18.58 65.444 0.025 6.64 3.59 8.74
7/11/2021 6:45:00 PM 18.55 65.39 0.025 6.62 3.67 8.69
7/11/2021 7:00:00 PM 18.51 65.318 0.025 6.61 3.66 8.64
7/11/2021 7:15:00 PM 18.48 65.264 0.025 6.61 3.72 8.61
7/11/2021 7:30:00 PM 18.43 65.174 0.024 6.59 3.67 8.56
7/11/2021 7:45:00 PM 18.39 65.102 0.025 6.57 3.76 8.53
7/11/2021 8:00:00 PM 18.39 65.102 0.025 6.57 4.31 8.52
7/11/2021 8:15:00 PM 18.44 65.192 0.034 6.65 19.34 8.45
7/11/2021 8:30:00 PM 18.42 65.156 0.027 6.62 14.4 8.49
7/11/2021 8:45:00 PM 18.47 65.246 0.024 6.56 20.92 8.5
7/11/2021 9:00:00 PM 18.84 65.912 0.03 6.71 151.26 8.44
7/11/2021 9:15:00 PM 18.75 65.75 0.027 6.53 90.64 8.42
7/11/2021 9:30:00 PM 18.49 65.282 0.026 6.41 46.2 8.45
7/11/2021 9:45:00 PM 18.36 65.048 0.025 6.35 40.15 8.46
7/11/2021 10:00:00 PM 18.32 64.976 0.025 6.33 57.32 8.47
7/11/2021 10:15:00 PM 18.23 64.814 0.024 6.3 56.37 8.48
7/11/2021 10:30:00 PM 18.19 64.742 0.024 6.28 54.66 8.48
7/11/2021 10:45:00 PM 18.15 64.67 0.023 6.24 93.44 8.49
7/11/2021 11:00:00 PM 18.01 64.418 0.022 6.14 74.22 8.5
7/11/2021 11:15:00 PM 17.86 64.148 0.022 6.13 90.49 8.51
7/11/2021 11:30:00 PM 17.76 63.968 0.022 6.1 131.89 8.51
7/11/2021 11:45:00 PM 17.69 63.842 0.021 6.02 123.93 8.53
7/12/2021 12:00:00 AM 17.61 63.698 0.016 5.96 99.92 8.56
7/12/2021 12:15:00 AM 17.53 63.554 0.013 5.92 76.13 8.57
7/12/2021 12:30:00 AM 17.48 63.464 0.02 5.9 84.36 8.58
7/12/2021 12:45:00 AM 17.45 63.41 0.015 5.87 77.73 8.59
7/12/2021 1:00:00 AM 17.42 63.356 0.014 5.85 49.59 8.6
7/12/2021 1:15:00 AM 17.39 63.302 0.013 5.82 77.75 8.61
7/12/2021 1:30:00 AM 17.36 63.248 0.012 5.81 51.42 8.61
7/12/2021 1:45:00 AM 17.34 63.212 0.012 5.8 41.07 8.62
7/12/2021 2:00:00 AM 17.32 63.176 0.012 5.78 39.96 8.62
7/12/2021 2:15:00 AM 17.31 63.158 0.012 5.78 41.17 8.63
7/12/2021 2:30:00 AM 17.3 63.14 0.012 5.75 40 8.63
7/12/2021 2:45:00 AM 17.29 63.122 0.012 5.73 31.5 8.63
7/12/2021 3:00:00 AM 17.28 63.104 0.011 5.72 34.05 8.63
7/12/2021 3:15:00 AM 17.28 63.104 0.018 5.72 30.28 8.63
7/12/2021 3:30:00 AM 17.28 63.104 0.018 5.71 29.71 8.63
7/12/2021 3:45:00 AM 17.28 63.104 0.018 5.72 26.38 8.63
7/12/2021 4:00:00 AM 17.29 63.122 0.018 5.72 26.52 8.63
7/12/2021 4:15:00 AM 17.29 63.122 0.018 5.72 26.42 8.63
7/12/2021 4:30:00 AM 17.3 63.14 0.018 5.74 28.63 8.62
7/12/2021 4:45:00 AM 17.3 63.14 0.018 5.73 28.21 8.63
7/12/2021 5:00:00 AM 17.3 63.14 0.018 5.74 18.6 8.63
7/12/2021 5:15:00 AM 17.3 63.14 0.018 5.74 22.01 8.63
7/12/2021 5:30:00 AM 17.3 63.14 0.018 5.74 20.84 8.63
7/12/2021 5:45:00 AM 17.3 63.14 0.018 5.74 19.49 8.63
7/12/2021 6:00:00 AM 17.3 63.14 0.018 5.75 18.7 8.64
7/12/2021 6:15:00 AM 17.3 63.14 0.018 5.75 18.61 8.64
7/12/2021 6:30:00 AM 17.3 63.14 0.018 5.76 17.92 8.64
7/12/2021 6:45:00 AM 17.3 63.14 0.018 5.76 17.18 8.65
7/12/2021 7:00:00 AM 17.31 63.158 0.018 5.77 16.16 8.65
7/12/2021 7:15:00 AM 17.31 63.158 0.018 5.77 15.87 8.66
7/12/2021 7:30:00 AM 17.32 63.176 0.018 5.8 15 8.67
7/12/2021 7:45:00 AM 17.34 63.212 0.018 5.81 15.84 8.67
7/12/2021 8:00:00 AM 17.36 63.248 0.018 5.81 14.24 8.68
7/12/2021 8:15:00 AM 17.38 63.284 0.01 5.83 14.21 8.68
7/12/2021 8:30:00 AM 17.39 63.302 0.018 5.84 13.64 8.69
7/12/2021 8:45:00 AM 17.4 63.32 0.018 5.85 13.08 8.69
7/12/2021 9:00:00 AM 17.41 63.338 0.017 5.86 12.67 8.69
7/12/2021 9:15:00 AM 17.46 63.428 0.017 5.88 12.29 8.7
7/12/2021 9:30:00 AM 17.49 63.482 0.017 5.89 12.11 8.71
7/12/2021 9:45:00 AM 17.55 63.59 0.017 5.89 12.08 8.72
7/12/2021 10:00:00 AM 17.56 63.608 0.017 5.91 12.05 8.71
7/12/2021 10:15:00 AM 17.56 63.608 0.017 5.91 11.59 8.7
7/12/2021 10:30:00 AM 17.57 63.626 0.017 5.92 11.3 8.71
7/12/2021 10:45:00 AM 17.65 63.77 0.018 5.92 10.93 8.72
7/12/2021 11:00:00 AM 17.72 63.896 0.018 5.93 11.12 8.73
7/12/2021 11:15:00 AM 17.78 64.004 0.017 5.93 10.42 8.73
7/12/2021 11:30:00 AM 17.83 64.094 0.018 5.95 10.23 8.72
7/12/2021 11:45:00 AM 17.9 64.22 0.018 5.95 10.24 8.71
7/12/2021 12:00:00 PM 17.97 64.346 0.018 5.95 10.09 8.71
7/12/2021 12:15:00 PM 17.99 64.382 0.018 5.96 9.99 8.7
7/12/2021 12:30:00 PM 18.07 64.526 0.018 5.97 9.77 8.7
7/12/2021 12:45:00 PM 18.14 64.652 0.018 5.96 10.3 8.69
7/12/2021 1:00:00 PM 18.21 64.778 0.018 5.97 10.05 8.68
7/12/2021 1:15:00 PM 18.37 65.066 0.018 5.98 9.75 8.67
7/12/2021 1:30:00 PM 18.49 65.282 0.018 5.99 9.66 8.67
7/12/2021 1:45:00 PM 18.56 65.408 0.018 6 9.48 8.65
7/12/2021 2:00:00 PM 18.64 65.552 0.018 6 9.23 8.64
7/12/2021 2:15:00 PM 18.79 65.82201 0.018 6 9.35 8.63
7/12/2021 2:30:00 PM 18.91 66.038 0.018 6.02 9.25 8.63
7/12/2021 2:45:00 PM 19.03 66.254 0.018 6.02 9.09 8.61
7/12/2021 3:00:00 PM 19.06 66.308 0.018 6.02 9.11 8.59
7/12/2021 3:15:00 PM 19.15 66.47 0.018 6.03 8.99 8.57
7/12/2021 3:30:00 PM 19.19 66.542 0.018 6.03 8.93 8.56
7/12/2021 3:45:00 PM 19.24 66.632 0.018 6.02 8.8 8.55
7/12/2021 4:00:00 PM 19.3 66.74 0.018 6.03 8.77 8.54
7/12/2021 4:15:00 PM 19.34 66.812 0.018 6.03 8.56 8.52
7/12/2021 4:30:00 PM 19.32 66.776 0.018 6.03 210.09 8.5
7/12/2021 4:45:00 PM 19.35 66.83 0.018 6.03 8.06 8.49
7/12/2021 5:00:00 PM 19.35 66.83 0.018 6.02 8.21 8.48
7/12/2021 5:15:00 PM 19.33 66.794 0.018 6.02 8.42 8.46
7/12/2021 5:30:00 PM 19.34 66.812 0.018 6.02 8.35 8.46
7/12/2021 5:45:00 PM 19.36 66.848 0.018 6.03 8.24 8.45
7/12/2021 6:00:00 PM 19.4 66.92 0.018 6.03 8.33 8.46
7/12/2021 6:15:00 PM 19.46 67.028 0.018 6.04 8.47 8.46
7/12/2021 6:30:00 PM 19.49 67.082 0.018 6.05 8.29 8.45
7/12/2021 6:45:00 PM 19.5 67.1 0.018 6.05 8.29 8.44
7/12/2021 7:00:00 PM 19.49 67.082 0.018 6.04 7.98 8.43
7/12/2021 7:15:00 PM 19.47 67.046 0.018 6.05 8.05 8.42
7/12/2021 7:30:00 PM 19.45 67.01 0.018 6.04 7.94 8.41
7/12/2021 7:45:00 PM 19.43 66.974 0.018 6.03 7.83 8.4
7/12/2021 8:00:00 PM 19.4 66.92 0.018 6.02 7.82 8.4
7/12/2021 8:15:00 PM 19.37 66.866 0.018 6.02 7.9 8.39
7/12/2021 8:30:00 PM 19.33 66.794 0.018 6.02 7.62 8.39
7/12/2021 8:45:00 PM 19.29 66.722 0.018 6.02 7.68 8.38
7/12/2021 9:00:00 PM 19.26 66.668 0.018 6.01 7.62 8.38
7/12/2021 9:15:00 PM 19.23 66.614 0.018 6.01 7.51 8.39
7/12/2021 9:30:00 PM 19.2 66.56 0.018 6 7.57 8.39
7/12/2021 9:45:00 PM 19.18 66.524 0.018 5.99 7.45 8.39
7/12/2021 10:00:00 PM 19.16 66.488 0.018 5.99 7.02 8.39
7/12/2021 10:15:00 PM 19.14 66.452 0.018 6 7.19 8.41
7/12/2021 10:30:00 PM 19.12 66.416 0.018 6.02 7.02 8.41
7/12/2021 10:45:00 PM 19.11 66.398 0.018 6.03 6.97 8.42
7/12/2021 11:00:00 PM 19.09 66.362 0.018 6.04 6.91 8.42
7/12/2021 11:15:00 PM 19.06 66.308 0.018 6.05 6.63 8.43
7/12/2021 11:30:00 PM 19.03 66.254 0.018 6.06 6.7 8.44
7/12/2021 11:45:00 PM 19 66.2 0.019 6.04 6.54 8.43
7/13/2021 12:00:00 AM 18.97 66.146 0.019 6.05 6.41 8.44
7/13/2021 12:15:00 AM 18.94 66.092 0.019 6.05 6.36 8.45
7/13/2021 12:30:00 AM 18.91 66.038 0.019 6.05 6.21 8.45
7/13/2021 12:45:00 AM 18.88 65.984 0.019 6.05 6.25 8.46
7/13/2021 1:00:00 AM 18.86 65.948 0.019 6.05 6.37 8.46
7/13/2021 1:15:00 AM 18.83 65.894 0.019 6.04 6.09 8.46
7/13/2021 1:30:00 AM 18.81 65.858 0.019 6.05 6.13 8.47
7/13/2021 1:45:00 AM 18.79 65.82201 0.019 6.07 5.99 8.47
7/13/2021 2:00:00 AM 18.77 65.786 0.019 6.06 6.12 8.48
7/13/2021 2:15:00 AM 18.75 65.75 0.019 6.05 5.82 8.48
7/13/2021 2:30:00 AM 18.72 65.696 0.019 6.06 5.8 8.48
7/13/2021 2:45:00 AM 18.69 65.642 0.019 6.06 5.78 8.49
7/13/2021 3:00:00 AM 18.67 65.606 0.019 6.07 5.68 8.49
7/13/2021 3:15:00 AM 18.65 65.57 0.019 6.06 5.69 8.5
7/13/2021 3:30:00 AM 18.63 65.534 0.019 6.06 5.59 8.5
7/13/2021 3:45:00 AM 18.61 65.498 0.019 6.07 5.56 8.5
7/13/2021 4:00:00 AM 18.6 65.48 0.019 6.07 5.67 8.5
7/13/2021 4:15:00 AM 18.58 65.444 0.019 6.07 5.56 8.51
7/13/2021 4:30:00 AM 18.56 65.408 0.019 6.08 5.6 8.51
7/13/2021 4:45:00 AM 18.55 65.39 0.019 6.08 5.48 8.51
7/13/2021 5:00:00 AM 18.53 65.354 0.019 6.08 5.37 8.52
7/13/2021 5:15:00 AM 18.51 65.318 0.019 6.08 5.47 8.52
7/13/2021 5:30:00 AM 18.49 65.282 0.019 6.08 5.32 8.53
7/13/2021 5:45:00 AM 18.46 65.228 0.019 6.08 5.36 8.53
7/13/2021 6:00:00 AM 18.44 65.192 0.019 6.08 5.48 8.53
7/13/2021 6:15:00 AM 18.41 65.138 0.019 6.08 5.43 8.54
7/13/2021 6:30:00 AM 18.39 65.102 0.019 6.07 5.29 8.55
7/13/2021 6:45:00 AM 18.37 65.066 0.019 6.08 5.33 8.56
7/13/2021 7:00:00 AM 18.36 65.048 0.019 6.08 5.28 8.58
7/13/2021 7:15:00 AM 18.36 65.048 0.019 6.09 5.43 8.6
7/13/2021 7:30:00 AM 18.35 65.03 0.02 6.1 5.45 8.61
7/13/2021 7:45:00 AM 18.35 65.03 0.019 6.1 5.36 8.62
7/13/2021 8:00:00 AM 18.36 65.048 0.02 6.11 5.29 8.64
7/13/2021 8:15:00 AM 18.38 65.084 0.02 6.12 5.17 8.64
7/13/2021 8:30:00 AM 18.39 65.102 0.02 6.13 5.27 8.65
7/13/2021 8:45:00 AM 18.41 65.138 0.02 6.14 5.17 8.65
7/13/2021 9:00:00 AM 18.48 65.264 0.02 6.15 5.05 8.67
7/13/2021 9:15:00 AM 18.54 65.372 0.02 6.17 4.98 8.69
7/13/2021 9:30:00 AM 18.66 65.588 0.02 6.18 5.03 8.69
7/13/2021 9:45:00 AM 18.76 65.768 0.02 6.18 4.97 8.69
7/13/2021 10:00:00 AM 18.81 65.858 0.02 6.19 4.88 8.69
7/13/2021 10:15:00 AM 18.84 65.912 0.02 6.2 4.98 8.69
7/13/2021 10:30:00 AM 18.95 66.11 0.02 6.21 5.06 8.68
7/13/2021 10:45:00 AM 19.16 66.488 0.02 6.22 4.91 8.67
7/13/2021 11:00:00 AM 19.21 66.578 0.02 6.23 4.7 8.67
7/13/2021 11:15:00 AM 19.13 66.434 0.02 6.23 4.82 8.66
7/13/2021 11:30:00 AM 19.2 66.56 0.02 6.23 4.78 8.66
7/13/2021 11:45:00 AM 19.27 66.686 0.02 6.23 4.73 8.64
7/13/2021 12:00:00 PM 19.34 66.812 0.02 6.24 4.71 8.64
7/13/2021 12:15:00 PM 19.36 66.848 0.02 6.24 4.68 8.64
7/13/2021 12:30:00 PM 19.42 66.956 0.02 6.25 4.71 8.63
7/13/2021 12:45:00 PM 19.48 67.064 0.02 6.24 4.54 8.61
7/13/2021 1:00:00 PM 19.52 67.136 0.02 6.25 4.62 8.61
7/13/2021 1:15:00 PM 19.58 67.244 0.02 6.25 4.59 8.61
7/13/2021 1:30:00 PM 19.65 67.37 0.02 6.26 4.64 8.61
7/13/2021 1:45:00 PM 19.73 67.514 0.02 6.26 4.53 8.6
7/13/2021 2:00:00 PM 19.84 67.712 0.02 6.27 4.53 8.58
7/13/2021 2:15:00 PM 19.93 67.874 0.02 6.26 4.44 8.56
7/13/2021 2:30:00 PM 19.98 67.964 0.02 6.28 4.65 8.54
7/13/2021 2:45:00 PM 20.05 68.09 0.02 6.27 4.53 8.52
7/13/2021 3:00:00 PM 20.19 68.342 0.02 6.27 4.48 8.51
7/13/2021 3:15:00 PM 20.39 68.702 0.02 6.28 4.49 8.5
7/13/2021 3:30:00 PM 20.41 68.738 0.02 6.28 4.34 8.47
7/13/2021 3:45:00 PM 20.48 68.864 0.02 6.28 4.29 8.46
7/13/2021 4:00:00 PM 20.56 69.008 0.02 6.29 4.48 8.43
7/13/2021 4:15:00 PM 20.63 69.134 0.02 6.28 4.34 8.42
7/13/2021 4:30:00 PM 20.76 69.368 0.02 6.29 4.33 8.41
7/13/2021 4:45:00 PM 20.79 69.422 0.02 6.29 4.26 8.39
7/13/2021 5:00:00 PM 20.75 69.35 0.02 6.29 4.3 8.37
7/13/2021 5:15:00 PM 20.79 69.422 0.02 6.29 4.37 8.37
7/13/2021 5:30:00 PM 20.85 69.53 0.02 6.3 4.27 8.36
7/13/2021 5:45:00 PM 20.87 69.566 0.02 6.29 4.37 8.34
7/13/2021 6:00:00 PM 20.79 69.422 0.02 6.29 4.22 8.3
7/13/2021 6:15:00 PM 20.76 69.368 0.02 6.29 4.13 8.3
7/13/2021 6:30:00 PM 20.74 69.332 0.02 6.3 4.28 8.29
7/13/2021 6:45:00 PM 20.69 69.242 0.02 6.29 4.36 8.29
7/13/2021 7:00:00 PM 20.66 69.188 0.02 6.28 4.27 8.29
7/13/2021 7:15:00 PM 20.63 69.134 0.02 6.29 4.21 8.26
7/13/2021 7:30:00 PM 20.58 69.044 0.021 6.28 4.17 8.23
7/13/2021 7:45:00 PM 20.54 68.972 0.02 6.26 4.28 8.21
7/13/2021 8:00:00 PM 20.49 68.882 0.021 6.26 4.43 8.2
7/13/2021 8:15:00 PM 20.46 68.828 0.021 6.26 4.29 8.2
7/13/2021 8:30:00 PM 20.44 68.792 0.021 6.26 4.25 8.19
7/13/2021 8:45:00 PM 20.42 68.756 0.021 6.25 4.15 8.18
7/13/2021 9:00:00 PM 20.42 68.756 0.02 6.26 4.28 8.18
7/13/2021 9:15:00 PM 20.4 68.72 0.021 6.25 4.16 8.17
7/13/2021 9:30:00 PM 20.38 68.684 0.021 6.25 4.18 8.17
7/13/2021 9:45:00 PM 20.32 68.576 0.021 6.26 4.38 8.19
7/13/2021 10:00:00 PM 20.23 68.414 0.022 6.27 9.24 8.21
7/13/2021 10:15:00 PM 20.13 68.234 0.023 6.3 7.52 8.21
7/13/2021 10:30:00 PM 20.06 68.108 0.022 6.28 5.98 8.23
7/13/2021 10:45:00 PM 19.98 67.964 0.023 6.31 6.51 8.23
7/13/2021 11:00:00 PM 19.92 67.856 0.023 6.32 6.42 8.24
7/13/2021 11:15:00 PM 19.86 67.748 0.022 6.31 6.62 8.25
7/13/2021 11:30:00 PM 19.81 67.658 0.022 6.34 7.92 8.26
7/13/2021 11:45:00 PM 19.75 67.55 0.023 6.38 9.67 8.27
7/14/2021 12:00:00 AM 19.66 67.388 0.023 6.38 10.73 8.29
7/14/2021 12:15:00 AM 19.54 67.172 0.023 6.36 11.55 8.32
7/14/2021 12:30:00 AM 19.44 66.992 0.022 6.33 12.4 8.34
7/14/2021 12:45:00 AM 19.36 66.848 0.022 6.32 15.41 8.35
7/14/2021 1:00:00 AM 19.29 66.722 0.022 6.3 14.57 8.36
7/14/2021 1:15:00 AM 19.23 66.614 0.022 6.29 14.06 8.37
7/14/2021 1:30:00 AM 19.2 66.56 0.022 6.27 12.89 8.39
7/14/2021 1:45:00 AM 19.16 66.488 0.021 6.26 13.21 8.4
7/14/2021 2:00:00 AM 19.1 66.38 0.021 6.24 14.78 8.41
7/14/2021 2:15:00 AM 19.03 66.254 0.021 6.22 15.49 8.42
7/14/2021 2:30:00 AM 18.95 66.11 0.021 6.21 15.75 8.44
7/14/2021 2:45:00 AM 18.87 65.966 0.021 6.21 14.66 8.45
7/14/2021 3:00:00 AM 18.79 65.82201 0.021 6.2 13.17 8.47
7/14/2021 3:15:00 AM 18.71 65.67799 0.021 6.19 12.41 8.49
7/14/2021 3:30:00 AM 18.65 65.57 0.021 6.18 12.09 8.5
7/14/2021 3:45:00 AM 18.59 65.462 0.021 6.18 12.07 8.51
7/14/2021 4:00:00 AM 18.54 65.372 0.021 6.19 12.04 8.52
7/14/2021 4:15:00 AM 18.5 65.3 0.021 6.19 11.28 8.52
7/14/2021 4:30:00 AM 18.46 65.228 0.021 6.19 10.66 8.53
7/14/2021 4:45:00 AM 18.43 65.174 0.021 6.18 9.84 8.54
7/14/2021 5:00:00 AM 18.41 65.138 0.02 6.17 8.85 8.54
7/14/2021 5:15:00 AM 18.39 65.102 0.02 6.17 8.55 8.55
7/14/2021 5:30:00 AM 18.37 65.066 0.02 6.17 8.22 8.55
7/14/2021 5:45:00 AM 18.35 65.03 0.02 6.16 8.21 8.56
7/14/2021 6:00:00 AM 18.33 64.994 0.02 6.16 8.02 8.56
7/14/2021 6:15:00 AM 18.31 64.958 0.02 6.16 7.75 8.57
7/14/2021 6:30:00 AM 18.3 64.94 0.02 6.16 7.46 8.58
7/14/2021 6:45:00 AM 18.28 64.904 0.02 6.16 7.46 8.58
7/14/2021 7:00:00 AM 18.27 64.886 0.02 6.17 7.11 8.59
7/14/2021 7:15:00 AM 18.27 64.886 0.02 6.15 6.92 8.6
7/14/2021 7:30:00 AM 18.28 64.904 0.02 6.16 6.93 8.61
7/14/2021 7:45:00 AM 18.3 64.94 0.02 6.17 6.53 8.62
7/14/2021 8:00:00 AM 18.34 65.012 0.02 6.17 6.41 8.64
7/14/2021 8:15:00 AM 18.36 65.048 0.02 6.18 6.35 8.63
7/14/2021 8:30:00 AM 18.38 65.084 0.02 6.19 6.16 8.65
7/14/2021 8:45:00 AM 18.42 65.156 0.02 6.21 5.96 8.65
7/14/2021 9:00:00 AM 18.45 65.21 0.02 6.21 5.9 8.66
7/14/2021 9:15:00 AM 18.49 65.282 0.02 6.21 5.96 8.67
7/14/2021 9:30:00 AM 18.53 65.354 0.02 6.22 5.75 8.67
7/14/2021 9:45:00 AM 18.57 65.426 0.02 6.23 5.78 8.67
7/14/2021 10:00:00 AM 18.61 65.498 0.02 6.22 5.63 8.67
7/14/2021 10:15:00 AM 18.63 65.534 0.02 6.23 5.67 8.66
7/14/2021 10:30:00 AM 18.69 65.642 0.02 6.23 5.58 8.66
7/14/2021 10:45:00 AM 18.83 65.894 0.02 6.24 5.45 8.66
7/14/2021 11:00:00 AM 18.91 66.038 0.019 6.25 5.28 8.66
7/14/2021 11:15:00 AM 19 66.2 0.019 6.26 5.27 8.66
7/14/2021 11:30:00 AM 19.13 66.434 0.019 6.26 5.29 8.66
7/14/2021 11:45:00 AM 19.29 66.722 0.019 6.26 5.26 8.64
7/14/2021 12:00:00 PM 19.5 67.1 0.02 6.27 5.35 8.61
7/14/2021 12:15:00 PM 19.62 67.316 0.019 6.27 5.28 8.6
7/14/2021 12:30:00 PM 19.69 67.442 0.019 6.27 5.06 8.58
7/14/2021 12:45:00 PM 19.79 67.622 0.019 6.27 5.12 8.57
7/14/2021 1:00:00 PM 19.92 67.856 0.02 6.3 5.3 8.54
7/14/2021 1:15:00 PM 20.01 68.018 0.02 6.33 5.42 8.52
7/14/2021 1:30:00 PM 20.05 68.09 0.02 6.33 5.13 8.49
7/14/2021 1:45:00 PM 20.16 68.288 0.02 6.33 4.93 8.48
7/14/2021 2:00:00 PM 20.32 68.576 0.02 6.34 5.06 8.47
7/14/2021 2:15:00 PM 20.5 68.9 0.02 6.34 4.93 8.46
7/14/2021 2:30:00 PM 20.65 69.17 0.02 6.33 4.76 8.44
7/14/2021 2:45:00 PM 20.68 69.224 0.02 6.33 4.8 8.41
7/14/2021 3:00:00 PM 20.71 69.278 0.02 6.33 4.59 8.39
7/14/2021 3:15:00 PM 20.72 69.296 0.02 6.33 4.71 8.38
7/14/2021 3:30:00 PM 20.78 69.404 0.02 6.32 4.68 8.37
7/14/2021 3:45:00 PM 20.92 69.656 0.02 6.33 4.64 8.36
7/14/2021 4:00:00 PM 20.91 69.638 0.02 6.33 4.54 8.34
7/14/2021 4:15:00 PM 20.88 69.584 0.02 6.32 4.64 8.31
7/14/2021 4:30:00 PM 20.94 69.692 0.02 6.32 4.56 8.3
7/14/2021 4:45:00 PM 21.03 69.854 0.02 6.32 4.5 8.3
7/14/2021 5:00:00 PM 21.08 69.944 0.02 6.32 4.48 8.29
7/14/2021 5:15:00 PM 21.04 69.872 0.02 6.31 4.3 8.25
7/14/2021 5:30:00 PM 20.97 69.746 0.02 6.31 4.48 8.22
7/14/2021 5:45:00 PM 20.95 69.71 0.02 6.31 4.35 8.22
7/14/2021 6:00:00 PM 20.97 69.746 0.02 6.31 4.41 8.24
7/14/2021 6:15:00 PM 20.98 69.764 0.02 6.31 4.31 8.26
7/14/2021 6:30:00 PM 20.97 69.746 0.02 6.31 4.32 8.26
7/14/2021 6:45:00 PM 20.93 69.674 0.02 6.31 4.41 8.25
7/14/2021 7:00:00 PM 20.87 69.566 0.02 6.31 4.22 8.24
7/14/2021 7:15:00 PM 20.81 69.458 0.02 6.3 4.29 8.23
7/14/2021 7:30:00 PM 20.76 69.368 0.02 6.29 4.28 8.21
7/14/2021 7:45:00 PM 20.73 69.314 0.02 6.29 4.3 8.21
7/14/2021 8:00:00 PM 20.7 69.26 0.02 6.27 4.19 8.21
7/14/2021 8:15:00 PM 20.67 69.206 0.02 6.27 4.3 8.21
7/14/2021 8:30:00 PM 20.62 69.116 0.02 6.27 4.3 8.2
7/14/2021 8:45:00 PM 20.56 69.008 0.02 6.26 4.17 8.19
7/14/2021 9:00:00 PM 20.5 68.9 0.02 6.25 4.24 8.2
7/14/2021 9:15:00 PM 20.43 68.774 0.02 6.24 4.22 8.2
7/14/2021 9:30:00 PM 20.37 68.666 0.02 6.23 4.31 8.2
7/14/2021 9:45:00 PM 20.3 68.54 0.02 6.22 4.3 8.21
7/14/2021 10:00:00 PM 20.23 68.414 0.02 6.23 4.74 8.22
7/14/2021 10:15:00 PM 20.17 68.306 0.02 6.22 4.41 8.23
7/14/2021 10:30:00 PM 20.09 68.162 0.02 6.23 4.47 8.25
7/14/2021 10:45:00 PM 20.03 68.054 0.02 6.21 4.42 8.26
7/14/2021 11:00:00 PM 19.96 67.92799 0.02 6.22 4.44 8.27
7/14/2021 11:15:00 PM 19.9 67.82 0.02 6.21 4.47 8.28
7/14/2021 11:30:00 PM 19.84 67.712 0.02 6.21 4.28 8.29
7/14/2021 11:45:00 PM 19.78 67.604 0.02 6.21 4.42 8.3
7/15/2021 12:00:00 AM 19.73 67.514 0.02 6.21 4.39 8.3
7/15/2021 12:15:00 AM 19.67 67.406 0.02 6.21 4.45 8.32
7/15/2021 12:30:00 AM 19.62 67.316 0.02 6.22 4.63 8.32
7/15/2021 12:45:00 AM 19.58 67.244 0.02 6.21 4.6 8.33
7/15/2021 1:00:00 AM 19.52 67.136 0.02 6.21 4.61 8.34
7/15/2021 1:15:00 AM 19.47 67.046 0.02 6.21 4.62 8.35
7/15/2021 1:30:00 AM 19.42 66.956 0.02 6.21 4.53 8.35
7/15/2021 1:45:00 AM 19.37 66.866 0.02 6.22 4.49 8.36
7/15/2021 2:00:00 AM 19.3 66.74 0.02 6.21 4.46 8.37
7/15/2021 2:15:00 AM 19.25 66.65 0.02 6.21 4.43 8.38
7/15/2021 2:30:00 AM 19.19 66.542 0.02 6.22 4.3 8.4
7/15/2021 2:45:00 AM 19.14 66.452 0.02 6.22 4.33 8.39
7/15/2021 3:00:00 AM 19.08 66.344 0.02 6.22 4.31 8.41
7/15/2021 3:15:00 AM 19.03 66.254 0.02 6.21 4.12 8.42
7/15/2021 3:30:00 AM 18.98 66.164 0.02 6.22 4.46 8.43
7/15/2021 3:45:00 AM 18.92 66.056 0.02 6.21 4.21 8.43
7/15/2021 4:00:00 AM 18.86 65.948 0.02 6.22 4.27 8.44
7/15/2021 4:15:00 AM 18.81 65.858 0.02 6.21 4.22 8.45
7/15/2021 4:30:00 AM 18.75 65.75 0.02 6.21 4.15 8.46
7/15/2021 4:45:00 AM 18.69 65.642 0.02 6.22 4.25 8.47
7/15/2021 5:00:00 AM 18.64 65.552 0.02 6.21 4.11 8.48
7/15/2021 5:15:00 AM 18.58 65.444 0.02 6.22 4.17 8.49
7/15/2021 5:30:00 AM 18.52 65.336 0.02 6.22 4.25 8.5
7/15/2021 5:45:00 AM 18.47 65.246 0.02 6.22 4.1 8.51
7/15/2021 6:00:00 AM 18.42 65.156 0.02 6.21 4.25 8.52
7/15/2021 6:15:00 AM 18.37 65.066 0.02 6.22 4.21 8.53
7/15/2021 6:30:00 AM 18.32 64.976 0.02 6.22 4.13 8.55
7/15/2021 6:45:00 AM 18.27 64.886 0.02 6.23 4.23 8.57
7/15/2021 7:00:00 AM 18.24 64.832 0.02 6.23 4.16 8.59
7/15/2021 7:15:00 AM 18.22 64.796 0.02 6.23 4.15 8.62
7/15/2021 7:30:00 AM 18.21 64.778 0.02 6.24 4.13 8.64
7/15/2021 7:45:00 AM 18.2 64.76 0.021 6.25 4.14 8.66
7/15/2021 8:00:00 AM 18.21 64.778 0.02 6.26 4.16 8.67
7/15/2021 8:15:00 AM 18.23 64.814 0.021 6.26 4.22 8.69
7/15/2021 8:30:00 AM 18.26 64.868 0.021 6.27 4.07 8.71
7/15/2021 8:45:00 AM 18.3 64.94 0.021 6.28 4.28 8.71
7/15/2021 9:00:00 AM 18.33 64.994 0.021 6.28 3.99 8.72
7/15/2021 9:15:00 AM 18.38 65.084 0.021 6.29 4.25 8.72
7/15/2021 9:30:00 AM 18.46 65.228 0.021 6.29 4.04 8.73
7/15/2021 9:45:00 AM 18.55 65.39 0.021 6.3 4.19 8.74
7/15/2021 10:00:00 AM 18.65 65.57 0.021 6.31 4.08 8.73
7/15/2021 10:15:00 AM 18.76 65.768 0.021 6.32 4.04 8.73
7/15/2021 10:30:00 AM 18.88 65.984 0.021 6.34 4 8.73
7/15/2021 10:45:00 AM 18.98 66.164 0.021 6.35 3.99 8.71
7/15/2021 11:00:00 AM 19.08 66.344 0.021 6.37 3.94 8.7
7/15/2021 11:15:00 AM 19.26 66.668 0.021 6.37 3.91 8.68
7/15/2021 11:30:00 AM 19.41 66.938 0.021 6.37 3.95 8.67
7/15/2021 11:45:00 AM 19.57 67.226 0.021 6.38 3.97 8.65
7/15/2021 12:00:00 PM 19.71 67.478 0.021 6.39 3.93 8.63
7/15/2021 12:15:00 PM 19.85 67.73 0.021 6.39 3.94 8.61
7/15/2021 12:30:00 PM 19.99 67.982 0.021 6.4 3.98 8.6
7/15/2021 12:45:00 PM 20.16 68.288 0.021 6.4 3.88 8.58
7/15/2021 1:00:00 PM 20.29 68.522 0.021 6.4 3.96 8.55
7/15/2021 1:15:00 PM 20.43 68.774 0.021 6.4 3.92 8.53
7/15/2021 1:30:00 PM 20.54 68.972 0.021 6.41 3.93 8.5
7/15/2021 1:45:00 PM 20.66 69.188 0.021 6.42 3.84 8.48
7/15/2021 2:00:00 PM 20.77 69.386 0.021 6.42 3.85 8.47
7/15/2021 2:15:00 PM 20.85 69.53 0.021 6.42 4.01 8.46
7/15/2021 2:30:00 PM 20.91 69.638 0.021 6.43 3.79 8.44
7/15/2021 2:45:00 PM 20.96 69.728 0.021 6.42 3.9 8.43
7/15/2021 3:00:00 PM 21.04 69.872 0.021 6.42 3.81 8.41
7/15/2021 3:15:00 PM 21.11 69.998 0.021 6.42 3.73 8.39
7/15/2021 3:30:00 PM 21.16 70.088 0.021 6.43 3.82 8.37
7/15/2021 3:45:00 PM 21.14 70.052 0.021 6.43 3.7 8.34
7/15/2021 4:00:00 PM 21.13 70.034 0.021 6.44 3.78 8.33
7/15/2021 4:15:00 PM 21.19 70.142 0.021 6.44 3.7 8.32
7/15/2021 4:30:00 PM 21.24 70.232 0.021 6.43 3.73 8.31
7/15/2021 4:45:00 PM 21.27 70.286 0.022 6.42 3.72 8.3
7/15/2021 5:00:00 PM 21.33 70.394 0.021 6.43 3.62 8.29
7/15/2021 5:15:00 PM 21.32 70.376 0.021 6.43 3.78 8.27
7/15/2021 5:30:00 PM 21.34 70.412 0.022 6.43 3.79 8.25
7/15/2021 5:45:00 PM 21.3 70.34 0.022 6.43 3.98 8.23
7/15/2021 6:00:00 PM 21.27 70.286 0.022 6.43 3.77 8.22
7/15/2021 6:15:00 PM 21.25 70.25 0.022 6.42 3.79 8.21
7/15/2021 6:30:00 PM 21.23 70.214 0.022 6.42 3.6 8.2
7/15/2021 6:45:00 PM 21.19 70.142 0.022 6.42 3.57 8.19
7/15/2021 7:00:00 PM 21.15 70.07 0.022 6.4 3.74 8.18
7/15/2021 7:15:00 PM 21.11 69.998 0.022 6.4 3.66 8.16
7/15/2021 7:30:00 PM 21.08 69.944 0.022 6.39 3.81 8.14
7/15/2021 7:45:00 PM 21.04 69.872 0.022 6.38 3.61 8.12
7/15/2021 8:00:00 PM 20.98 69.764 0.022 6.38 3.66 8.11
7/15/2021 8:15:00 PM 20.93 69.674 0.022 6.37 3.75 8.1
7/15/2021 8:30:00 PM 20.88 69.584 0.022 6.36 3.74 8.09
7/15/2021 8:45:00 PM 20.83 69.494 0.022 6.36 3.52 8.07
7/15/2021 9:00:00 PM 20.78 69.404 0.022 6.35 3.73 8.07
7/15/2021 9:15:00 PM 20.72 69.296 0.023 6.34 3.81 8.05
7/15/2021 9:30:00 PM 20.68 69.224 0.022 6.35 3.68 8.06
7/15/2021 9:45:00 PM 20.63 69.134 0.022 6.34 3.75 8.06
7/15/2021 10:00:00 PM 20.57 69.026 0.023 6.34 3.8 8.07
7/15/2021 10:15:00 PM 20.52 68.936 0.022 6.34 3.72 8.09
7/15/2021 10:30:00 PM 20.45 68.81 0.023 6.33 3.8 8.09
7/15/2021 10:45:00 PM 20.39 68.702 0.023 6.33 3.63 8.1
7/15/2021 11:00:00 PM 20.32 68.576 0.023 6.34 3.94 8.11
7/15/2021 11:15:00 PM 20.26 68.468 0.022 6.33 4.04 8.13
7/15/2021 11:30:00 PM 20.19 68.342 0.023 6.33 3.82 8.13
7/15/2021 11:45:00 PM 20.13 68.234 0.022 6.33 3.69 8.15
7/16/2021 12:00:00 AM 20.06 68.108 0.023 6.32 3.76 8.14
7/16/2021 12:15:00 AM 20 68 0.023 6.32 3.81 8.15
7/16/2021 12:30:00 AM 19.93 67.874 0.023 6.32 3.94 8.17
7/16/2021 12:45:00 AM 19.86 67.748 0.023 6.33 3.86 8.18
7/16/2021 1:00:00 AM 19.79 67.622 0.023 6.32 3.76 8.19
7/16/2021 1:15:00 AM 19.73 67.514 0.023 6.32 3.79 8.2
7/16/2021 1:30:00 AM 19.67 67.406 0.023 6.32 3.84 8.22
7/16/2021 1:45:00 AM 19.6 67.28 0.023 6.32 3.8 8.22
7/16/2021 2:00:00 AM 19.54 67.172 0.023 6.32 3.73 8.24
7/16/2021 2:15:00 AM 19.47 67.046 0.023 6.32 3.94 8.25
7/16/2021 2:30:00 AM 19.41 66.938 0.023 6.32 3.83 8.26
7/16/2021 2:45:00 AM 19.34 66.812 0.022 6.32 3.68 8.28
7/16/2021 3:00:00 AM 19.27 66.686 0.023 6.32 3.68 8.28
7/16/2021 3:15:00 AM 19.21 66.578 0.022 6.32 3.84 8.3
7/16/2021 3:30:00 AM 19.14 66.452 0.023 6.32 3.7 8.3
7/16/2021 3:45:00 AM 19.08 66.344 0.023 6.32 3.83 8.32
7/16/2021 4:00:00 AM 19.01 66.218 0.023 6.32 3.86 8.33
7/16/2021 4:15:00 AM 18.95 66.11 0.023 6.32 3.83 8.35
7/16/2021 4:30:00 AM 18.89 66.002 0.023 6.32 3.83 8.35
7/16/2021 4:45:00 AM 18.83 65.894 0.023 6.31 3.78 8.36
7/16/2021 5:00:00 AM 18.77 65.786 0.023 6.31 3.67 8.37
7/16/2021 5:15:00 AM 18.71 65.67799 0.023 6.32 3.8 8.39
7/16/2021 5:30:00 AM 18.65 65.57 0.023 6.31 3.89 8.39
7/16/2021 5:45:00 AM 18.6 65.48 0.023 6.32 3.78 8.41
7/16/2021 6:00:00 AM 18.54 65.372 0.023 6.32 3.76 8.42
7/16/2021 6:15:00 AM 18.49 65.282 0.023 6.32 3.78 8.43
7/16/2021 6:30:00 AM 18.45 65.21 0.023 6.32 3.8 8.46
7/16/2021 6:45:00 AM 18.42 65.156 0.023 6.32 3.86 8.47
7/16/2021 7:00:00 AM 18.39 65.102 0.023 6.33 3.89 8.5
7/16/2021 7:15:00 AM 18.37 65.066 0.023 6.33 3.82 8.53
7/16/2021 7:30:00 AM 18.38 65.084 0.023 6.34 3.81 8.56
7/16/2021 7:45:00 AM 18.39 65.102 0.023 6.34 3.75 8.58
7/16/2021 8:00:00 AM 18.41 65.138 0.023 6.35 3.85 8.61
7/16/2021 8:15:00 AM 18.45 65.21 0.024 6.35 3.84 8.62
7/16/2021 8:30:00 AM 18.49 65.282 0.023 6.37 3.71 8.63
7/16/2021 8:45:00 AM 18.56 65.408 0.023 6.38 3.79 8.65
7/16/2021 9:00:00 AM 18.63 65.534 0.023 6.39 3.82 8.65
7/16/2021 9:15:00 AM 18.72 65.696 0.023 6.4 3.91 8.66
7/16/2021 9:30:00 AM 18.82 65.876 0.023 6.41 3.73 8.66
7/16/2021 9:45:00 AM 18.93 66.074 0.023 6.42 3.86 8.66
7/16/2021 10:00:00 AM 19.06 66.308 0.023 6.43 3.88 8.65
7/16/2021 10:15:00 AM 19.19 66.542 0.023 6.43 3.73 8.65
7/16/2021 10:30:00 AM 19.35 66.83 0.023 6.44 3.86 8.64
7/16/2021 10:45:00 AM 19.52